<?xml version="1.0" encoding="UTF-8" standalone="no" ?>
<gpx xmlns="http://www.topografix.com/GPX/1/1" xmlns:xsi="http://www.w3.org/2001/XMLSchema-instance" xsi:schemaLocation="http://www.topografix.com/GPX/1/1 http://www.topografix.com/GPX/1/1/gpx.xsd" version="1.1" creator="VisuGPX - https://www.visugpx.com">
  <metadata>
    <name>Sortie Julianges 30/03/2019</name>
    <desc><![CDATA[le tracé réel effectué ce jour : beautemps , 11 chevaux , 4 heures....]]></desc>
  </metadata>
  <trk>
    <name><![CDATA[20190331153635-7HZZe]]></name>
    <trkseg>
      <trkpt lat="44.92984" lon="3.30939">
        <ele>1003</ele>
        <time>2019-03-30T08:45:41Z</time>
      </trkpt>
      <trkpt lat="44.92984" lon="3.30939">
        <ele>1003</ele>
        <time>2019-03-30T08:45:41Z</time>
      </trkpt>
      <trkpt lat="44.92984" lon="3.3094">
        <ele>1002</ele>
        <time>2019-03-30T08:45:42Z</time>
      </trkpt>
      <trkpt lat="44.92983" lon="3.30932">
        <ele>997</ele>
        <time>2019-03-30T08:45:57Z</time>
      </trkpt>
      <trkpt lat="44.92987" lon="3.30912">
        <ele>991</ele>
        <time>2019-03-30T08:46:16Z</time>
      </trkpt>
      <trkpt lat="44.92993" lon="3.30906">
        <ele>991</ele>
        <time>2019-03-30T08:46:42Z</time>
      </trkpt>
      <trkpt lat="44.92996" lon="3.30902">
        <ele>991</ele>
        <time>2019-03-30T08:46:46Z</time>
      </trkpt>
      <trkpt lat="44.93007" lon="3.30893">
        <ele>990</ele>
        <time>2019-03-30T08:46:57Z</time>
      </trkpt>
      <trkpt lat="44.93017" lon="3.30882">
        <ele>990</ele>
        <time>2019-03-30T08:47:07Z</time>
      </trkpt>
      <trkpt lat="44.9302" lon="3.30878">
        <ele>990</ele>
        <time>2019-03-30T08:47:13Z</time>
      </trkpt>
      <trkpt lat="44.93023" lon="3.30873">
        <ele>990</ele>
        <time>2019-03-30T08:47:17Z</time>
      </trkpt>
      <trkpt lat="44.93027" lon="3.3087">
        <ele>990</ele>
        <time>2019-03-30T08:47:21Z</time>
      </trkpt>
      <trkpt lat="44.93025" lon="3.30864">
        <ele>991</ele>
        <time>2019-03-30T08:47:25Z</time>
      </trkpt>
      <trkpt lat="44.93023" lon="3.30859">
        <ele>991</ele>
        <time>2019-03-30T08:47:27Z</time>
      </trkpt>
      <trkpt lat="44.93017" lon="3.30841">
        <ele>991</ele>
        <time>2019-03-30T08:47:38Z</time>
      </trkpt>
      <trkpt lat="44.93008" lon="3.30814">
        <ele>991</ele>
        <time>2019-03-30T08:47:52Z</time>
      </trkpt>
      <trkpt lat="44.92999" lon="3.308">
        <ele>991</ele>
        <time>2019-03-30T08:48:04Z</time>
      </trkpt>
      <trkpt lat="44.92996" lon="3.30783">
        <ele>992</ele>
        <time>2019-03-30T08:48:14Z</time>
      </trkpt>
      <trkpt lat="44.92994" lon="3.30778">
        <ele>992</ele>
        <time>2019-03-30T08:48:19Z</time>
      </trkpt>
      <trkpt lat="44.92992" lon="3.30773">
        <ele>992</ele>
        <time>2019-03-30T08:48:25Z</time>
      </trkpt>
      <trkpt lat="44.92987" lon="3.30764">
        <ele>992</ele>
        <time>2019-03-30T08:48:34Z</time>
      </trkpt>
      <trkpt lat="44.92981" lon="3.30747">
        <ele>993</ele>
        <time>2019-03-30T08:48:43Z</time>
      </trkpt>
      <trkpt lat="44.92977" lon="3.30742">
        <ele>993</ele>
        <time>2019-03-30T08:48:48Z</time>
      </trkpt>
      <trkpt lat="44.92974" lon="3.30738">
        <ele>993</ele>
        <time>2019-03-30T08:48:51Z</time>
      </trkpt>
      <trkpt lat="44.92967" lon="3.30723">
        <ele>993</ele>
        <time>2019-03-30T08:49:00Z</time>
      </trkpt>
      <trkpt lat="44.92966" lon="3.30718">
        <ele>993</ele>
        <time>2019-03-30T08:49:04Z</time>
      </trkpt>
      <trkpt lat="44.92961" lon="3.30712">
        <ele>993</ele>
        <time>2019-03-30T08:49:09Z</time>
      </trkpt>
      <trkpt lat="44.92946" lon="3.30693">
        <ele>993</ele>
        <time>2019-03-30T08:49:23Z</time>
      </trkpt>
      <trkpt lat="44.92943" lon="3.30688">
        <ele>993</ele>
        <time>2019-03-30T08:49:26Z</time>
      </trkpt>
      <trkpt lat="44.9294" lon="3.30684">
        <ele>993</ele>
        <time>2019-03-30T08:49:30Z</time>
      </trkpt>
      <trkpt lat="44.92931" lon="3.30675">
        <ele>993</ele>
        <time>2019-03-30T08:49:39Z</time>
      </trkpt>
      <trkpt lat="44.92927" lon="3.30667">
        <ele>993</ele>
        <time>2019-03-30T08:49:44Z</time>
      </trkpt>
      <trkpt lat="44.92924" lon="3.30663">
        <ele>993</ele>
        <time>2019-03-30T08:49:47Z</time>
      </trkpt>
      <trkpt lat="44.92897" lon="3.30619">
        <ele>993</ele>
        <time>2019-03-30T08:50:21Z</time>
      </trkpt>
      <trkpt lat="44.9289" lon="3.30606">
        <ele>993</ele>
        <time>2019-03-30T08:50:31Z</time>
      </trkpt>
      <trkpt lat="44.92887" lon="3.30599">
        <ele>993</ele>
        <time>2019-03-30T08:50:35Z</time>
      </trkpt>
      <trkpt lat="44.92883" lon="3.30593">
        <ele>994</ele>
        <time>2019-03-30T08:50:40Z</time>
      </trkpt>
      <trkpt lat="44.92847" lon="3.30564">
        <ele>994</ele>
        <time>2019-03-30T08:51:12Z</time>
      </trkpt>
      <trkpt lat="44.92838" lon="3.30553">
        <ele>994</ele>
        <time>2019-03-30T08:51:21Z</time>
      </trkpt>
      <trkpt lat="44.92833" lon="3.30547">
        <ele>994</ele>
        <time>2019-03-30T08:51:26Z</time>
      </trkpt>
      <trkpt lat="44.92824" lon="3.30535">
        <ele>994</ele>
        <time>2019-03-30T08:51:34Z</time>
      </trkpt>
      <trkpt lat="44.92819" lon="3.30527">
        <ele>994</ele>
        <time>2019-03-30T08:51:39Z</time>
      </trkpt>
      <trkpt lat="44.92814" lon="3.30523">
        <ele>994</ele>
        <time>2019-03-30T08:51:45Z</time>
      </trkpt>
      <trkpt lat="44.9281" lon="3.30516">
        <ele>994</ele>
        <time>2019-03-30T08:51:49Z</time>
      </trkpt>
      <trkpt lat="44.92807" lon="3.30508">
        <ele>994</ele>
        <time>2019-03-30T08:51:54Z</time>
      </trkpt>
      <trkpt lat="44.92805" lon="3.30499">
        <ele>994</ele>
        <time>2019-03-30T08:51:59Z</time>
      </trkpt>
      <trkpt lat="44.92806" lon="3.30492">
        <ele>994</ele>
        <time>2019-03-30T08:52:04Z</time>
      </trkpt>
      <trkpt lat="44.92806" lon="3.30482">
        <ele>994</ele>
        <time>2019-03-30T08:52:09Z</time>
      </trkpt>
      <trkpt lat="44.92802" lon="3.30466">
        <ele>994</ele>
        <time>2019-03-30T08:52:17Z</time>
      </trkpt>
      <trkpt lat="44.92799" lon="3.30458">
        <ele>994</ele>
        <time>2019-03-30T08:52:21Z</time>
      </trkpt>
      <trkpt lat="44.92798" lon="3.30448">
        <ele>994</ele>
        <time>2019-03-30T08:52:25Z</time>
      </trkpt>
      <trkpt lat="44.92798" lon="3.30439">
        <ele>994</ele>
        <time>2019-03-30T08:52:28Z</time>
      </trkpt>
      <trkpt lat="44.92796" lon="3.30425">
        <ele>994</ele>
        <time>2019-03-30T08:52:36Z</time>
      </trkpt>
      <trkpt lat="44.92795" lon="3.30419">
        <ele>994</ele>
        <time>2019-03-30T08:52:39Z</time>
      </trkpt>
      <trkpt lat="44.92795" lon="3.30413">
        <ele>994</ele>
        <time>2019-03-30T08:52:44Z</time>
      </trkpt>
      <trkpt lat="44.92794" lon="3.30394">
        <ele>994</ele>
        <time>2019-03-30T08:52:54Z</time>
      </trkpt>
      <trkpt lat="44.92794" lon="3.30386">
        <ele>994</ele>
        <time>2019-03-30T08:52:57Z</time>
      </trkpt>
      <trkpt lat="44.92791" lon="3.30355">
        <ele>994</ele>
        <time>2019-03-30T08:53:12Z</time>
      </trkpt>
      <trkpt lat="44.9279" lon="3.30349">
        <ele>994</ele>
        <time>2019-03-30T08:53:16Z</time>
      </trkpt>
      <trkpt lat="44.92786" lon="3.30338">
        <ele>994</ele>
        <time>2019-03-30T08:53:22Z</time>
      </trkpt>
      <trkpt lat="44.92782" lon="3.30324">
        <ele>994</ele>
        <time>2019-03-30T08:53:30Z</time>
      </trkpt>
      <trkpt lat="44.9278" lon="3.30318">
        <ele>994</ele>
        <time>2019-03-30T08:53:34Z</time>
      </trkpt>
      <trkpt lat="44.92778" lon="3.30302">
        <ele>994</ele>
        <time>2019-03-30T08:53:43Z</time>
      </trkpt>
      <trkpt lat="44.92777" lon="3.30293">
        <ele>994</ele>
        <time>2019-03-30T08:53:48Z</time>
      </trkpt>
      <trkpt lat="44.92776" lon="3.30286">
        <ele>994</ele>
        <time>2019-03-30T08:53:55Z</time>
      </trkpt>
      <trkpt lat="44.92779" lon="3.3028">
        <ele>994</ele>
        <time>2019-03-30T08:54:01Z</time>
      </trkpt>
      <trkpt lat="44.9278" lon="3.30272">
        <ele>995</ele>
        <time>2019-03-30T08:54:06Z</time>
      </trkpt>
      <trkpt lat="44.92783" lon="3.30266">
        <ele>995</ele>
        <time>2019-03-30T08:54:11Z</time>
      </trkpt>
      <trkpt lat="44.92789" lon="3.30251">
        <ele>995</ele>
        <time>2019-03-30T08:54:22Z</time>
      </trkpt>
      <trkpt lat="44.9279" lon="3.30243">
        <ele>995</ele>
        <time>2019-03-30T08:54:26Z</time>
      </trkpt>
      <trkpt lat="44.92789" lon="3.30236">
        <ele>995</ele>
        <time>2019-03-30T08:54:39Z</time>
      </trkpt>
      <trkpt lat="44.92793" lon="3.30232">
        <ele>995</ele>
        <time>2019-03-30T08:54:58Z</time>
      </trkpt>
      <trkpt lat="44.92791" lon="3.30225">
        <ele>996</ele>
        <time>2019-03-30T08:55:32Z</time>
      </trkpt>
      <trkpt lat="44.92791" lon="3.30219">
        <ele>996</ele>
        <time>2019-03-30T08:55:59Z</time>
      </trkpt>
      <trkpt lat="44.92783" lon="3.30166">
        <ele>996</ele>
        <time>2019-03-30T08:56:27Z</time>
      </trkpt>
      <trkpt lat="44.9278" lon="3.30131">
        <ele>996</ele>
        <time>2019-03-30T08:56:45Z</time>
      </trkpt>
      <trkpt lat="44.9278" lon="3.30123">
        <ele>996</ele>
        <time>2019-03-30T08:56:49Z</time>
      </trkpt>
      <trkpt lat="44.92782" lon="3.30076">
        <ele>997</ele>
        <time>2019-03-30T08:57:07Z</time>
      </trkpt>
      <trkpt lat="44.92783" lon="3.30067">
        <ele>997</ele>
        <time>2019-03-30T08:57:10Z</time>
      </trkpt>
      <trkpt lat="44.92787" lon="3.30024">
        <ele>997</ele>
        <time>2019-03-30T08:57:26Z</time>
      </trkpt>
      <trkpt lat="44.92789" lon="3.30019">
        <ele>997</ele>
        <time>2019-03-30T08:57:28Z</time>
      </trkpt>
      <trkpt lat="44.92794" lon="3.29968">
        <ele>997</ele>
        <time>2019-03-30T08:57:49Z</time>
      </trkpt>
      <trkpt lat="44.92798" lon="3.29914">
        <ele>998</ele>
        <time>2019-03-30T08:58:10Z</time>
      </trkpt>
      <trkpt lat="44.92799" lon="3.29905">
        <ele>998</ele>
        <time>2019-03-30T08:58:14Z</time>
      </trkpt>
      <trkpt lat="44.92803" lon="3.29892">
        <ele>998</ele>
        <time>2019-03-30T08:58:19Z</time>
      </trkpt>
      <trkpt lat="44.92806" lon="3.29887">
        <ele>998</ele>
        <time>2019-03-30T08:58:21Z</time>
      </trkpt>
      <trkpt lat="44.92809" lon="3.29875">
        <ele>998</ele>
        <time>2019-03-30T08:58:27Z</time>
      </trkpt>
      <trkpt lat="44.92813" lon="3.29862">
        <ele>998</ele>
        <time>2019-03-30T08:58:33Z</time>
      </trkpt>
      <trkpt lat="44.92814" lon="3.29857">
        <ele>998</ele>
        <time>2019-03-30T08:58:36Z</time>
      </trkpt>
      <trkpt lat="44.92815" lon="3.29849">
        <ele>998</ele>
        <time>2019-03-30T08:58:39Z</time>
      </trkpt>
      <trkpt lat="44.92817" lon="3.29831">
        <ele>998</ele>
        <time>2019-03-30T08:58:46Z</time>
      </trkpt>
      <trkpt lat="44.92821" lon="3.29815">
        <ele>998</ele>
        <time>2019-03-30T08:58:54Z</time>
      </trkpt>
      <trkpt lat="44.92821" lon="3.29807">
        <ele>998</ele>
        <time>2019-03-30T08:59:00Z</time>
      </trkpt>
      <trkpt lat="44.92826" lon="3.29772">
        <ele>999</ele>
        <time>2019-03-30T08:59:16Z</time>
      </trkpt>
      <trkpt lat="44.92826" lon="3.29763">
        <ele>999</ele>
        <time>2019-03-30T08:59:23Z</time>
      </trkpt>
      <trkpt lat="44.92826" lon="3.29753">
        <ele>999</ele>
        <time>2019-03-30T08:59:26Z</time>
      </trkpt>
      <trkpt lat="44.92826" lon="3.29745">
        <ele>999</ele>
        <time>2019-03-30T08:59:30Z</time>
      </trkpt>
      <trkpt lat="44.92825" lon="3.29717">
        <ele>999</ele>
        <time>2019-03-30T08:59:42Z</time>
      </trkpt>
      <trkpt lat="44.92822" lon="3.29705">
        <ele>999</ele>
        <time>2019-03-30T08:59:51Z</time>
      </trkpt>
      <trkpt lat="44.92823" lon="3.29699">
        <ele>999</ele>
        <time>2019-03-30T08:59:54Z</time>
      </trkpt>
      <trkpt lat="44.92824" lon="3.29675">
        <ele>999</ele>
        <time>2019-03-30T09:00:04Z</time>
      </trkpt>
      <trkpt lat="44.9282" lon="3.29659">
        <ele>999</ele>
        <time>2019-03-30T09:00:13Z</time>
      </trkpt>
      <trkpt lat="44.92818" lon="3.29655">
        <ele>999</ele>
        <time>2019-03-30T09:00:18Z</time>
      </trkpt>
      <trkpt lat="44.92816" lon="3.29649">
        <ele>999</ele>
        <time>2019-03-30T09:00:28Z</time>
      </trkpt>
      <trkpt lat="44.92815" lon="3.29644">
        <ele>999</ele>
        <time>2019-03-30T09:00:31Z</time>
      </trkpt>
      <trkpt lat="44.92822" lon="3.29627">
        <ele>1000</ele>
        <time>2019-03-30T09:00:40Z</time>
      </trkpt>
      <trkpt lat="44.92838" lon="3.29597">
        <ele>1000</ele>
        <time>2019-03-30T09:00:57Z</time>
      </trkpt>
      <trkpt lat="44.9284" lon="3.29591">
        <ele>1000</ele>
        <time>2019-03-30T09:00:59Z</time>
      </trkpt>
      <trkpt lat="44.92846" lon="3.29576">
        <ele>1000</ele>
        <time>2019-03-30T09:01:06Z</time>
      </trkpt>
      <trkpt lat="44.92858" lon="3.29556">
        <ele>1000</ele>
        <time>2019-03-30T09:01:19Z</time>
      </trkpt>
      <trkpt lat="44.92864" lon="3.29547">
        <ele>1000</ele>
        <time>2019-03-30T09:01:26Z</time>
      </trkpt>
      <trkpt lat="44.92866" lon="3.29544">
        <ele>1000</ele>
        <time>2019-03-30T09:01:29Z</time>
      </trkpt>
      <trkpt lat="44.92867" lon="3.29537">
        <ele>1000</ele>
        <time>2019-03-30T09:01:32Z</time>
      </trkpt>
      <trkpt lat="44.92864" lon="3.29532">
        <ele>1000</ele>
        <time>2019-03-30T09:01:35Z</time>
      </trkpt>
      <trkpt lat="44.92862" lon="3.29525">
        <ele>1000</ele>
        <time>2019-03-30T09:01:38Z</time>
      </trkpt>
      <trkpt lat="44.92834" lon="3.29467">
        <ele>1000</ele>
        <time>2019-03-30T09:02:08Z</time>
      </trkpt>
      <trkpt lat="44.92831" lon="3.29462">
        <ele>1000</ele>
        <time>2019-03-30T09:02:11Z</time>
      </trkpt>
      <trkpt lat="44.92828" lon="3.29455">
        <ele>1000</ele>
        <time>2019-03-30T09:02:14Z</time>
      </trkpt>
      <trkpt lat="44.92808" lon="3.2941">
        <ele>1000</ele>
        <time>2019-03-30T09:02:35Z</time>
      </trkpt>
      <trkpt lat="44.92806" lon="3.29404">
        <ele>1000</ele>
        <time>2019-03-30T09:02:38Z</time>
      </trkpt>
      <trkpt lat="44.92801" lon="3.29403">
        <ele>1000</ele>
        <time>2019-03-30T09:02:42Z</time>
      </trkpt>
      <trkpt lat="44.9275" lon="3.29418">
        <ele>1001</ele>
        <time>2019-03-30T09:03:14Z</time>
      </trkpt>
      <trkpt lat="44.92739" lon="3.29422">
        <ele>1001</ele>
        <time>2019-03-30T09:03:20Z</time>
      </trkpt>
      <trkpt lat="44.92706" lon="3.29427">
        <ele>1001</ele>
        <time>2019-03-30T09:03:39Z</time>
      </trkpt>
      <trkpt lat="44.9268" lon="3.2944">
        <ele>1001</ele>
        <time>2019-03-30T09:03:57Z</time>
      </trkpt>
      <trkpt lat="44.92673" lon="3.29446">
        <ele>1001</ele>
        <time>2019-03-30T09:04:03Z</time>
      </trkpt>
      <trkpt lat="44.92669" lon="3.29451">
        <ele>1001</ele>
        <time>2019-03-30T09:04:06Z</time>
      </trkpt>
      <trkpt lat="44.92669" lon="3.2946">
        <ele>1001</ele>
        <time>2019-03-30T09:04:09Z</time>
      </trkpt>
      <trkpt lat="44.92662" lon="3.29459">
        <ele>1001</ele>
        <time>2019-03-30T09:04:27Z</time>
      </trkpt>
      <trkpt lat="44.9265" lon="3.29465">
        <ele>1001</ele>
        <time>2019-03-30T09:04:35Z</time>
      </trkpt>
      <trkpt lat="44.92646" lon="3.29467">
        <ele>1001</ele>
        <time>2019-03-30T09:04:40Z</time>
      </trkpt>
      <trkpt lat="44.92635" lon="3.29479">
        <ele>1002</ele>
        <time>2019-03-30T09:04:48Z</time>
      </trkpt>
      <trkpt lat="44.92632" lon="3.29482">
        <ele>1002</ele>
        <time>2019-03-30T09:04:50Z</time>
      </trkpt>
      <trkpt lat="44.92625" lon="3.29489">
        <ele>1002</ele>
        <time>2019-03-30T09:04:55Z</time>
      </trkpt>
      <trkpt lat="44.92609" lon="3.29511">
        <ele>1002</ele>
        <time>2019-03-30T09:05:07Z</time>
      </trkpt>
      <trkpt lat="44.92607" lon="3.29515">
        <ele>1002</ele>
        <time>2019-03-30T09:05:10Z</time>
      </trkpt>
      <trkpt lat="44.92595" lon="3.29531">
        <ele>1002</ele>
        <time>2019-03-30T09:05:23Z</time>
      </trkpt>
      <trkpt lat="44.9259" lon="3.29534">
        <ele>1002</ele>
        <time>2019-03-30T09:05:27Z</time>
      </trkpt>
      <trkpt lat="44.92553" lon="3.29558">
        <ele>1002</ele>
        <time>2019-03-30T09:05:54Z</time>
      </trkpt>
      <trkpt lat="44.92542" lon="3.29565">
        <ele>1002</ele>
        <time>2019-03-30T09:06:04Z</time>
      </trkpt>
      <trkpt lat="44.92537" lon="3.29565">
        <ele>1002</ele>
        <time>2019-03-30T09:06:07Z</time>
      </trkpt>
      <trkpt lat="44.92531" lon="3.2956">
        <ele>1002</ele>
        <time>2019-03-30T09:06:11Z</time>
      </trkpt>
      <trkpt lat="44.9252" lon="3.2955">
        <ele>1002</ele>
        <time>2019-03-30T09:06:17Z</time>
      </trkpt>
      <trkpt lat="44.92511" lon="3.29543">
        <ele>1002</ele>
        <time>2019-03-30T09:06:23Z</time>
      </trkpt>
      <trkpt lat="44.92496" lon="3.29526">
        <ele>1003</ele>
        <time>2019-03-30T09:06:36Z</time>
      </trkpt>
      <trkpt lat="44.92492" lon="3.2952">
        <ele>1003</ele>
        <time>2019-03-30T09:06:40Z</time>
      </trkpt>
      <trkpt lat="44.92475" lon="3.29509">
        <ele>1003</ele>
        <time>2019-03-30T09:06:52Z</time>
      </trkpt>
      <trkpt lat="44.92453" lon="3.29501">
        <ele>1003</ele>
        <time>2019-03-30T09:07:05Z</time>
      </trkpt>
      <trkpt lat="44.92404" lon="3.2949">
        <ele>1003</ele>
        <time>2019-03-30T09:07:36Z</time>
      </trkpt>
      <trkpt lat="44.924" lon="3.29489">
        <ele>1003</ele>
        <time>2019-03-30T09:07:38Z</time>
      </trkpt>
      <trkpt lat="44.92396" lon="3.29489">
        <ele>1003</ele>
        <time>2019-03-30T09:07:41Z</time>
      </trkpt>
      <trkpt lat="44.92343" lon="3.29493">
        <ele>1003</ele>
        <time>2019-03-30T09:08:11Z</time>
      </trkpt>
      <trkpt lat="44.92288" lon="3.29503">
        <ele>1004</ele>
        <time>2019-03-30T09:08:39Z</time>
      </trkpt>
      <trkpt lat="44.92282" lon="3.29502">
        <ele>1004</ele>
        <time>2019-03-30T09:08:43Z</time>
      </trkpt>
      <trkpt lat="44.92276" lon="3.295">
        <ele>1004</ele>
        <time>2019-03-30T09:08:47Z</time>
      </trkpt>
      <trkpt lat="44.92254" lon="3.29494">
        <ele>1004</ele>
        <time>2019-03-30T09:08:59Z</time>
      </trkpt>
      <trkpt lat="44.92209" lon="3.29501">
        <ele>1004</ele>
        <time>2019-03-30T09:09:27Z</time>
      </trkpt>
      <trkpt lat="44.92205" lon="3.295">
        <ele>1004</ele>
        <time>2019-03-30T09:09:29Z</time>
      </trkpt>
      <trkpt lat="44.92195" lon="3.29501">
        <ele>1005</ele>
        <time>2019-03-30T09:09:35Z</time>
      </trkpt>
      <trkpt lat="44.92181" lon="3.29505">
        <ele>1005</ele>
        <time>2019-03-30T09:09:44Z</time>
      </trkpt>
      <trkpt lat="44.9213" lon="3.29498">
        <ele>1006</ele>
        <time>2019-03-30T09:10:15Z</time>
      </trkpt>
      <trkpt lat="44.92123" lon="3.29495">
        <ele>1006</ele>
        <time>2019-03-30T09:10:20Z</time>
      </trkpt>
      <trkpt lat="44.9212" lon="3.29493">
        <ele>1006</ele>
        <time>2019-03-30T09:10:22Z</time>
      </trkpt>
      <trkpt lat="44.92116" lon="3.29493">
        <ele>1006</ele>
        <time>2019-03-30T09:10:24Z</time>
      </trkpt>
      <trkpt lat="44.92104" lon="3.29492">
        <ele>1006</ele>
        <time>2019-03-30T09:10:31Z</time>
      </trkpt>
      <trkpt lat="44.92095" lon="3.29492">
        <ele>1006</ele>
        <time>2019-03-30T09:10:36Z</time>
      </trkpt>
      <trkpt lat="44.92091" lon="3.29493">
        <ele>1006</ele>
        <time>2019-03-30T09:10:39Z</time>
      </trkpt>
      <trkpt lat="44.92083" lon="3.29491">
        <ele>1006</ele>
        <time>2019-03-30T09:10:44Z</time>
      </trkpt>
      <trkpt lat="44.92043" lon="3.29507">
        <ele>1006</ele>
        <time>2019-03-30T09:11:09Z</time>
      </trkpt>
      <trkpt lat="44.92027" lon="3.29503">
        <ele>1006</ele>
        <time>2019-03-30T09:11:20Z</time>
      </trkpt>
      <trkpt lat="44.92021" lon="3.295">
        <ele>1006</ele>
        <time>2019-03-30T09:11:22Z</time>
      </trkpt>
      <trkpt lat="44.92019" lon="3.29497">
        <ele>1006</ele>
        <time>2019-03-30T09:11:24Z</time>
      </trkpt>
      <trkpt lat="44.92015" lon="3.29494">
        <ele>1006</ele>
        <time>2019-03-30T09:11:27Z</time>
      </trkpt>
      <trkpt lat="44.92011" lon="3.29493">
        <ele>1006</ele>
        <time>2019-03-30T09:11:29Z</time>
      </trkpt>
      <trkpt lat="44.91975" lon="3.29462">
        <ele>1006</ele>
        <time>2019-03-30T09:11:56Z</time>
      </trkpt>
      <trkpt lat="44.91946" lon="3.29447">
        <ele>1006</ele>
        <time>2019-03-30T09:12:14Z</time>
      </trkpt>
      <trkpt lat="44.91943" lon="3.29449">
        <ele>1006</ele>
        <time>2019-03-30T09:12:17Z</time>
      </trkpt>
      <trkpt lat="44.91917" lon="3.29434">
        <ele>1006</ele>
        <time>2019-03-30T09:12:33Z</time>
      </trkpt>
      <trkpt lat="44.91915" lon="3.29431">
        <ele>1006</ele>
        <time>2019-03-30T09:12:35Z</time>
      </trkpt>
      <trkpt lat="44.91909" lon="3.29428">
        <ele>1006</ele>
        <time>2019-03-30T09:12:40Z</time>
      </trkpt>
      <trkpt lat="44.91907" lon="3.29426">
        <ele>1006</ele>
        <time>2019-03-30T09:12:42Z</time>
      </trkpt>
      <trkpt lat="44.91873" lon="3.29405">
        <ele>1006</ele>
        <time>2019-03-30T09:13:02Z</time>
      </trkpt>
      <trkpt lat="44.9187" lon="3.29403">
        <ele>1006</ele>
        <time>2019-03-30T09:13:04Z</time>
      </trkpt>
      <trkpt lat="44.91842" lon="3.29389">
        <ele>1006</ele>
        <time>2019-03-30T09:13:24Z</time>
      </trkpt>
      <trkpt lat="44.9181" lon="3.29355">
        <ele>1006</ele>
        <time>2019-03-30T09:13:50Z</time>
      </trkpt>
      <trkpt lat="44.91768" lon="3.29336">
        <ele>1006</ele>
        <time>2019-03-30T09:14:13Z</time>
      </trkpt>
      <trkpt lat="44.91746" lon="3.29338">
        <ele>1006</ele>
        <time>2019-03-30T09:14:28Z</time>
      </trkpt>
      <trkpt lat="44.91689" lon="3.29345">
        <ele>1006</ele>
        <time>2019-03-30T09:14:59Z</time>
      </trkpt>
      <trkpt lat="44.91641" lon="3.29342">
        <ele>1006</ele>
        <time>2019-03-30T09:15:30Z</time>
      </trkpt>
      <trkpt lat="44.91605" lon="3.29337">
        <ele>1006</ele>
        <time>2019-03-30T09:15:51Z</time>
      </trkpt>
      <trkpt lat="44.9157" lon="3.29325">
        <ele>1006</ele>
        <time>2019-03-30T09:16:11Z</time>
      </trkpt>
      <trkpt lat="44.91553" lon="3.29321">
        <ele>1006</ele>
        <time>2019-03-30T09:16:22Z</time>
      </trkpt>
      <trkpt lat="44.91548" lon="3.2932">
        <ele>1006</ele>
        <time>2019-03-30T09:16:25Z</time>
      </trkpt>
      <trkpt lat="44.91544" lon="3.29317">
        <ele>1006</ele>
        <time>2019-03-30T09:16:28Z</time>
      </trkpt>
      <trkpt lat="44.91525" lon="3.29319">
        <ele>1006</ele>
        <time>2019-03-30T09:16:39Z</time>
      </trkpt>
      <trkpt lat="44.91472" lon="3.29328">
        <ele>1006</ele>
        <time>2019-03-30T09:17:10Z</time>
      </trkpt>
      <trkpt lat="44.91431" lon="3.29337">
        <ele>1006</ele>
        <time>2019-03-30T09:17:34Z</time>
      </trkpt>
      <trkpt lat="44.91425" lon="3.29339">
        <ele>1006</ele>
        <time>2019-03-30T09:17:38Z</time>
      </trkpt>
      <trkpt lat="44.91408" lon="3.29338">
        <ele>1006</ele>
        <time>2019-03-30T09:17:49Z</time>
      </trkpt>
      <trkpt lat="44.91404" lon="3.29337">
        <ele>1006</ele>
        <time>2019-03-30T09:17:51Z</time>
      </trkpt>
      <trkpt lat="44.91348" lon="3.29346">
        <ele>1006</ele>
        <time>2019-03-30T09:18:21Z</time>
      </trkpt>
      <trkpt lat="44.91338" lon="3.29344">
        <ele>1006</ele>
        <time>2019-03-30T09:18:27Z</time>
      </trkpt>
      <trkpt lat="44.9132" lon="3.29337">
        <ele>1006</ele>
        <time>2019-03-30T09:18:38Z</time>
      </trkpt>
      <trkpt lat="44.91271" lon="3.29328">
        <ele>1005</ele>
        <time>2019-03-30T09:19:08Z</time>
      </trkpt>
      <trkpt lat="44.91263" lon="3.29327">
        <ele>1005</ele>
        <time>2019-03-30T09:19:13Z</time>
      </trkpt>
      <trkpt lat="44.91255" lon="3.29328">
        <ele>1005</ele>
        <time>2019-03-30T09:19:19Z</time>
      </trkpt>
      <trkpt lat="44.91196" lon="3.29313">
        <ele>1005</ele>
        <time>2019-03-30T09:19:49Z</time>
      </trkpt>
      <trkpt lat="44.91192" lon="3.29309">
        <ele>1005</ele>
        <time>2019-03-30T09:19:52Z</time>
      </trkpt>
      <trkpt lat="44.91155" lon="3.29292">
        <ele>1005</ele>
        <time>2019-03-30T09:20:15Z</time>
      </trkpt>
      <trkpt lat="44.9112" lon="3.29283">
        <ele>1005</ele>
        <time>2019-03-30T09:20:34Z</time>
      </trkpt>
      <trkpt lat="44.91097" lon="3.29271">
        <ele>1005</ele>
        <time>2019-03-30T09:20:51Z</time>
      </trkpt>
      <trkpt lat="44.91044" lon="3.29255">
        <ele>1005</ele>
        <time>2019-03-30T09:21:23Z</time>
      </trkpt>
      <trkpt lat="44.91035" lon="3.29253">
        <ele>1005</ele>
        <time>2019-03-30T09:21:28Z</time>
      </trkpt>
      <trkpt lat="44.90988" lon="3.29258">
        <ele>1005</ele>
        <time>2019-03-30T09:22:00Z</time>
      </trkpt>
      <trkpt lat="44.90944" lon="3.29288">
        <ele>1005</ele>
        <time>2019-03-30T09:22:31Z</time>
      </trkpt>
      <trkpt lat="44.90913" lon="3.29307">
        <ele>1005</ele>
        <time>2019-03-30T09:22:56Z</time>
      </trkpt>
      <trkpt lat="44.90858" lon="3.29311">
        <ele>1005</ele>
        <time>2019-03-30T09:23:28Z</time>
      </trkpt>
      <trkpt lat="44.90816" lon="3.29311">
        <ele>1005</ele>
        <time>2019-03-30T09:23:59Z</time>
      </trkpt>
      <trkpt lat="44.9078" lon="3.29308">
        <ele>1005</ele>
        <time>2019-03-30T09:24:22Z</time>
      </trkpt>
      <trkpt lat="44.90776" lon="3.29306">
        <ele>1005</ele>
        <time>2019-03-30T09:24:24Z</time>
      </trkpt>
      <trkpt lat="44.90768" lon="3.29298">
        <ele>1005</ele>
        <time>2019-03-30T09:24:28Z</time>
      </trkpt>
      <trkpt lat="44.90766" lon="3.29293">
        <ele>1005</ele>
        <time>2019-03-30T09:24:31Z</time>
      </trkpt>
      <trkpt lat="44.90765" lon="3.29287">
        <ele>1005</ele>
        <time>2019-03-30T09:24:33Z</time>
      </trkpt>
      <trkpt lat="44.90769" lon="3.29272">
        <ele>1005</ele>
        <time>2019-03-30T09:24:39Z</time>
      </trkpt>
      <trkpt lat="44.90771" lon="3.29262">
        <ele>1005</ele>
        <time>2019-03-30T09:24:43Z</time>
      </trkpt>
      <trkpt lat="44.9077" lon="3.29257">
        <ele>1005</ele>
        <time>2019-03-30T09:24:45Z</time>
      </trkpt>
      <trkpt lat="44.90768" lon="3.29248">
        <ele>1005</ele>
        <time>2019-03-30T09:24:50Z</time>
      </trkpt>
      <trkpt lat="44.90765" lon="3.29244">
        <ele>1005</ele>
        <time>2019-03-30T09:24:53Z</time>
      </trkpt>
      <trkpt lat="44.90762" lon="3.29241">
        <ele>1005</ele>
        <time>2019-03-30T09:24:57Z</time>
      </trkpt>
      <trkpt lat="44.90715" lon="3.29214">
        <ele>1005</ele>
        <time>2019-03-30T09:25:27Z</time>
      </trkpt>
      <trkpt lat="44.90667" lon="3.2918">
        <ele>1004</ele>
        <time>2019-03-30T09:26:00Z</time>
      </trkpt>
      <trkpt lat="44.90622" lon="3.29152">
        <ele>1004</ele>
        <time>2019-03-30T09:26:30Z</time>
      </trkpt>
      <trkpt lat="44.90575" lon="3.29125">
        <ele>1004</ele>
        <time>2019-03-30T09:26:53Z</time>
      </trkpt>
      <trkpt lat="44.90534" lon="3.29103">
        <ele>1004</ele>
        <time>2019-03-30T09:27:25Z</time>
      </trkpt>
      <trkpt lat="44.90527" lon="3.29105">
        <ele>1004</ele>
        <time>2019-03-30T09:27:30Z</time>
      </trkpt>
      <trkpt lat="44.90507" lon="3.291">
        <ele>1004</ele>
        <time>2019-03-30T09:27:43Z</time>
      </trkpt>
      <trkpt lat="44.90501" lon="3.29098">
        <ele>1004</ele>
        <time>2019-03-30T09:27:46Z</time>
      </trkpt>
      <trkpt lat="44.90488" lon="3.29086">
        <ele>1004</ele>
        <time>2019-03-30T09:27:55Z</time>
      </trkpt>
      <trkpt lat="44.90476" lon="3.29078">
        <ele>1004</ele>
        <time>2019-03-30T09:28:01Z</time>
      </trkpt>
      <trkpt lat="44.90456" lon="3.2906">
        <ele>1004</ele>
        <time>2019-03-30T09:28:16Z</time>
      </trkpt>
      <trkpt lat="44.90446" lon="3.29054">
        <ele>1004</ele>
        <time>2019-03-30T09:28:23Z</time>
      </trkpt>
      <trkpt lat="44.90438" lon="3.29053">
        <ele>1004</ele>
        <time>2019-03-30T09:28:29Z</time>
      </trkpt>
      <trkpt lat="44.90403" lon="3.29065">
        <ele>1004</ele>
        <time>2019-03-30T09:28:52Z</time>
      </trkpt>
      <trkpt lat="44.90398" lon="3.29069">
        <ele>1004</ele>
        <time>2019-03-30T09:28:55Z</time>
      </trkpt>
      <trkpt lat="44.90387" lon="3.29073">
        <ele>1004</ele>
        <time>2019-03-30T09:29:01Z</time>
      </trkpt>
      <trkpt lat="44.90379" lon="3.29073">
        <ele>1004</ele>
        <time>2019-03-30T09:29:05Z</time>
      </trkpt>
      <trkpt lat="44.9037" lon="3.29067">
        <ele>1004</ele>
        <time>2019-03-30T09:29:12Z</time>
      </trkpt>
      <trkpt lat="44.90367" lon="3.29065">
        <ele>1004</ele>
        <time>2019-03-30T09:29:14Z</time>
      </trkpt>
      <trkpt lat="44.90362" lon="3.29053">
        <ele>1004</ele>
        <time>2019-03-30T09:29:19Z</time>
      </trkpt>
      <trkpt lat="44.90361" lon="3.29048">
        <ele>1004</ele>
        <time>2019-03-30T09:29:21Z</time>
      </trkpt>
      <trkpt lat="44.90358" lon="3.29049">
        <ele>1004</ele>
        <time>2019-03-30T09:29:32Z</time>
      </trkpt>
      <trkpt lat="44.90358" lon="3.29043">
        <ele>1004</ele>
        <time>2019-03-30T09:29:55Z</time>
      </trkpt>
      <trkpt lat="44.90361" lon="3.29038">
        <ele>1004</ele>
        <time>2019-03-30T09:29:57Z</time>
      </trkpt>
      <trkpt lat="44.90364" lon="3.29035">
        <ele>1004</ele>
        <time>2019-03-30T09:30:00Z</time>
      </trkpt>
      <trkpt lat="44.90372" lon="3.29029">
        <ele>1004</ele>
        <time>2019-03-30T09:30:05Z</time>
      </trkpt>
      <trkpt lat="44.9041" lon="3.28997">
        <ele>1004</ele>
        <time>2019-03-30T09:30:29Z</time>
      </trkpt>
      <trkpt lat="44.90414" lon="3.28993">
        <ele>1004</ele>
        <time>2019-03-30T09:30:31Z</time>
      </trkpt>
      <trkpt lat="44.90417" lon="3.28988">
        <ele>1004</ele>
        <time>2019-03-30T09:30:33Z</time>
      </trkpt>
      <trkpt lat="44.90434" lon="3.28979">
        <ele>1004</ele>
        <time>2019-03-30T09:30:44Z</time>
      </trkpt>
      <trkpt lat="44.90476" lon="3.28933">
        <ele>1004</ele>
        <time>2019-03-30T09:31:13Z</time>
      </trkpt>
      <trkpt lat="44.90483" lon="3.28926">
        <ele>1004</ele>
        <time>2019-03-30T09:31:21Z</time>
      </trkpt>
      <trkpt lat="44.90485" lon="3.28921">
        <ele>1004</ele>
        <time>2019-03-30T09:31:24Z</time>
      </trkpt>
      <trkpt lat="44.90526" lon="3.28875">
        <ele>1004</ele>
        <time>2019-03-30T09:31:54Z</time>
      </trkpt>
      <trkpt lat="44.90558" lon="3.28835">
        <ele>1004</ele>
        <time>2019-03-30T09:32:17Z</time>
      </trkpt>
      <trkpt lat="44.90563" lon="3.28832">
        <ele>1004</ele>
        <time>2019-03-30T09:32:19Z</time>
      </trkpt>
      <trkpt lat="44.90567" lon="3.28825">
        <ele>1004</ele>
        <time>2019-03-30T09:32:22Z</time>
      </trkpt>
      <trkpt lat="44.90569" lon="3.2882">
        <ele>1004</ele>
        <time>2019-03-30T09:32:25Z</time>
      </trkpt>
      <trkpt lat="44.90591" lon="3.28801">
        <ele>1004</ele>
        <time>2019-03-30T09:32:39Z</time>
      </trkpt>
      <trkpt lat="44.90598" lon="3.28795">
        <ele>1004</ele>
        <time>2019-03-30T09:32:43Z</time>
      </trkpt>
      <trkpt lat="44.9061" lon="3.28781">
        <ele>1004</ele>
        <time>2019-03-30T09:32:49Z</time>
      </trkpt>
      <trkpt lat="44.90662" lon="3.2871">
        <ele>1004</ele>
        <time>2019-03-30T09:33:19Z</time>
      </trkpt>
      <trkpt lat="44.90705" lon="3.28659">
        <ele>1004</ele>
        <time>2019-03-30T09:33:49Z</time>
      </trkpt>
      <trkpt lat="44.90732" lon="3.28639">
        <ele>1004</ele>
        <time>2019-03-30T09:34:05Z</time>
      </trkpt>
      <trkpt lat="44.90744" lon="3.2863">
        <ele>1004</ele>
        <time>2019-03-30T09:34:11Z</time>
      </trkpt>
      <trkpt lat="44.90832" lon="3.28595">
        <ele>1004</ele>
        <time>2019-03-30T09:34:40Z</time>
      </trkpt>
      <trkpt lat="44.90925" lon="3.28591">
        <ele>1004</ele>
        <time>2019-03-30T09:35:10Z</time>
      </trkpt>
      <trkpt lat="44.90936" lon="3.28587">
        <ele>1004</ele>
        <time>2019-03-30T09:35:14Z</time>
      </trkpt>
      <trkpt lat="44.90941" lon="3.28585">
        <ele>1004</ele>
        <time>2019-03-30T09:35:16Z</time>
      </trkpt>
      <trkpt lat="44.90946" lon="3.28576">
        <ele>1004</ele>
        <time>2019-03-30T09:35:20Z</time>
      </trkpt>
      <trkpt lat="44.90947" lon="3.28568">
        <ele>1004</ele>
        <time>2019-03-30T09:35:22Z</time>
      </trkpt>
      <trkpt lat="44.90943" lon="3.28535">
        <ele>1004</ele>
        <time>2019-03-30T09:35:29Z</time>
      </trkpt>
      <trkpt lat="44.90937" lon="3.28497">
        <ele>1004</ele>
        <time>2019-03-30T09:35:36Z</time>
      </trkpt>
      <trkpt lat="44.90936" lon="3.28481">
        <ele>1004</ele>
        <time>2019-03-30T09:35:39Z</time>
      </trkpt>
      <trkpt lat="44.90937" lon="3.2847">
        <ele>1004</ele>
        <time>2019-03-30T09:35:41Z</time>
      </trkpt>
      <trkpt lat="44.90943" lon="3.28453">
        <ele>1004</ele>
        <time>2019-03-30T09:35:44Z</time>
      </trkpt>
      <trkpt lat="44.91009" lon="3.28351">
        <ele>1004</ele>
        <time>2019-03-30T09:36:09Z</time>
      </trkpt>
      <trkpt lat="44.91096" lon="3.2825">
        <ele>1004</ele>
        <time>2019-03-30T09:36:39Z</time>
      </trkpt>
      <trkpt lat="44.91129" lon="3.28227">
        <ele>1004</ele>
        <time>2019-03-30T09:36:48Z</time>
      </trkpt>
      <trkpt lat="44.91158" lon="3.28208">
        <ele>1004</ele>
        <time>2019-03-30T09:36:56Z</time>
      </trkpt>
      <trkpt lat="44.91197" lon="3.28159">
        <ele>1004</ele>
        <time>2019-03-30T09:37:07Z</time>
      </trkpt>
      <trkpt lat="44.91216" lon="3.28122">
        <ele>1004</ele>
        <time>2019-03-30T09:37:14Z</time>
      </trkpt>
      <trkpt lat="44.91237" lon="3.28088">
        <ele>1004</ele>
        <time>2019-03-30T09:37:22Z</time>
      </trkpt>
      <trkpt lat="44.91297" lon="3.27939">
        <ele>1004</ele>
        <time>2019-03-30T09:37:48Z</time>
      </trkpt>
      <trkpt lat="44.91312" lon="3.27919">
        <ele>1004</ele>
        <time>2019-03-30T09:37:52Z</time>
      </trkpt>
      <trkpt lat="44.91363" lon="3.278">
        <ele>1005</ele>
        <time>2019-03-30T09:38:12Z</time>
      </trkpt>
      <trkpt lat="44.9137" lon="3.27737">
        <ele>1005</ele>
        <time>2019-03-30T09:38:21Z</time>
      </trkpt>
      <trkpt lat="44.91378" lon="3.27659">
        <ele>1005</ele>
        <time>2019-03-30T09:38:33Z</time>
      </trkpt>
      <trkpt lat="44.9138" lon="3.27648">
        <ele>1005</ele>
        <time>2019-03-30T09:38:35Z</time>
      </trkpt>
      <trkpt lat="44.91433" lon="3.27517">
        <ele>1005</ele>
        <time>2019-03-30T09:38:58Z</time>
      </trkpt>
      <trkpt lat="44.91435" lon="3.27513">
        <ele>1005</ele>
        <time>2019-03-30T09:38:59Z</time>
      </trkpt>
      <trkpt lat="44.91437" lon="3.27507">
        <ele>1005</ele>
        <time>2019-03-30T09:39:01Z</time>
      </trkpt>
      <trkpt lat="44.91439" lon="3.27503">
        <ele>1005</ele>
        <time>2019-03-30T09:39:03Z</time>
      </trkpt>
      <trkpt lat="44.91474" lon="3.2744">
        <ele>1006</ele>
        <time>2019-03-30T09:39:34Z</time>
      </trkpt>
      <trkpt lat="44.91477" lon="3.27435">
        <ele>1006</ele>
        <time>2019-03-30T09:39:36Z</time>
      </trkpt>
      <trkpt lat="44.91481" lon="3.27431">
        <ele>1006</ele>
        <time>2019-03-30T09:39:39Z</time>
      </trkpt>
      <trkpt lat="44.91484" lon="3.27426">
        <ele>1006</ele>
        <time>2019-03-30T09:39:42Z</time>
      </trkpt>
      <trkpt lat="44.91487" lon="3.27423">
        <ele>1006</ele>
        <time>2019-03-30T09:39:44Z</time>
      </trkpt>
      <trkpt lat="44.9149" lon="3.2742">
        <ele>1006</ele>
        <time>2019-03-30T09:39:46Z</time>
      </trkpt>
      <trkpt lat="44.91497" lon="3.27414">
        <ele>1006</ele>
        <time>2019-03-30T09:39:50Z</time>
      </trkpt>
      <trkpt lat="44.91505" lon="3.27401">
        <ele>1006</ele>
        <time>2019-03-30T09:39:58Z</time>
      </trkpt>
      <trkpt lat="44.91508" lon="3.27395">
        <ele>1006</ele>
        <time>2019-03-30T09:40:01Z</time>
      </trkpt>
      <trkpt lat="44.9151" lon="3.2739">
        <ele>1006</ele>
        <time>2019-03-30T09:40:03Z</time>
      </trkpt>
      <trkpt lat="44.91515" lon="3.27374">
        <ele>1006</ele>
        <time>2019-03-30T09:40:10Z</time>
      </trkpt>
      <trkpt lat="44.91516" lon="3.27366">
        <ele>1006</ele>
        <time>2019-03-30T09:40:13Z</time>
      </trkpt>
      <trkpt lat="44.91517" lon="3.2736">
        <ele>1006</ele>
        <time>2019-03-30T09:40:15Z</time>
      </trkpt>
      <trkpt lat="44.91524" lon="3.2735">
        <ele>1007</ele>
        <time>2019-03-30T09:40:22Z</time>
      </trkpt>
      <trkpt lat="44.91537" lon="3.27316">
        <ele>1007</ele>
        <time>2019-03-30T09:40:40Z</time>
      </trkpt>
      <trkpt lat="44.9154" lon="3.27309">
        <ele>1007</ele>
        <time>2019-03-30T09:40:43Z</time>
      </trkpt>
      <trkpt lat="44.91541" lon="3.27304">
        <ele>1007</ele>
        <time>2019-03-30T09:40:46Z</time>
      </trkpt>
      <trkpt lat="44.91553" lon="3.27278">
        <ele>1007</ele>
        <time>2019-03-30T09:41:01Z</time>
      </trkpt>
      <trkpt lat="44.91561" lon="3.27269">
        <ele>1007</ele>
        <time>2019-03-30T09:41:07Z</time>
      </trkpt>
      <trkpt lat="44.91573" lon="3.27245">
        <ele>1007</ele>
        <time>2019-03-30T09:41:21Z</time>
      </trkpt>
      <trkpt lat="44.91586" lon="3.27228">
        <ele>1007</ele>
        <time>2019-03-30T09:41:30Z</time>
      </trkpt>
      <trkpt lat="44.91597" lon="3.27208">
        <ele>1008</ele>
        <time>2019-03-30T09:41:40Z</time>
      </trkpt>
      <trkpt lat="44.91619" lon="3.2717">
        <ele>1008</ele>
        <time>2019-03-30T09:42:01Z</time>
      </trkpt>
      <trkpt lat="44.91625" lon="3.27153">
        <ele>1008</ele>
        <time>2019-03-30T09:42:10Z</time>
      </trkpt>
      <trkpt lat="44.91628" lon="3.27148">
        <ele>1008</ele>
        <time>2019-03-30T09:42:14Z</time>
      </trkpt>
      <trkpt lat="44.91637" lon="3.27125">
        <ele>1008</ele>
        <time>2019-03-30T09:42:26Z</time>
      </trkpt>
      <trkpt lat="44.91654" lon="3.2709">
        <ele>1008</ele>
        <time>2019-03-30T09:42:46Z</time>
      </trkpt>
      <trkpt lat="44.91665" lon="3.27084">
        <ele>1008</ele>
        <time>2019-03-30T09:42:48Z</time>
      </trkpt>
      <trkpt lat="44.91682" lon="3.2705">
        <ele>1008</ele>
        <time>2019-03-30T09:43:05Z</time>
      </trkpt>
      <trkpt lat="44.91701" lon="3.27006">
        <ele>1007</ele>
        <time>2019-03-30T09:43:26Z</time>
      </trkpt>
      <trkpt lat="44.91703" lon="3.27001">
        <ele>1007</ele>
        <time>2019-03-30T09:43:28Z</time>
      </trkpt>
      <trkpt lat="44.91717" lon="3.26987">
        <ele>1007</ele>
        <time>2019-03-30T09:43:37Z</time>
      </trkpt>
      <trkpt lat="44.91723" lon="3.26984">
        <ele>1007</ele>
        <time>2019-03-30T09:43:40Z</time>
      </trkpt>
      <trkpt lat="44.91741" lon="3.26989">
        <ele>1007</ele>
        <time>2019-03-30T09:43:47Z</time>
      </trkpt>
      <trkpt lat="44.91749" lon="3.26988">
        <ele>1007</ele>
        <time>2019-03-30T09:43:52Z</time>
      </trkpt>
      <trkpt lat="44.91753" lon="3.26989">
        <ele>1007</ele>
        <time>2019-03-30T09:43:55Z</time>
      </trkpt>
      <trkpt lat="44.91757" lon="3.26993">
        <ele>1007</ele>
        <time>2019-03-30T09:43:57Z</time>
      </trkpt>
      <trkpt lat="44.91762" lon="3.27004">
        <ele>1007</ele>
        <time>2019-03-30T09:44:03Z</time>
      </trkpt>
      <trkpt lat="44.91782" lon="3.27048">
        <ele>1007</ele>
        <time>2019-03-30T09:44:26Z</time>
      </trkpt>
      <trkpt lat="44.91804" lon="3.27098">
        <ele>1007</ele>
        <time>2019-03-30T09:44:50Z</time>
      </trkpt>
      <trkpt lat="44.9183" lon="3.27158">
        <ele>1006</ele>
        <time>2019-03-30T09:45:21Z</time>
      </trkpt>
      <trkpt lat="44.9185" lon="3.2719">
        <ele>1006</ele>
        <time>2019-03-30T09:45:41Z</time>
      </trkpt>
      <trkpt lat="44.91887" lon="3.27236">
        <ele>1006</ele>
        <time>2019-03-30T09:46:11Z</time>
      </trkpt>
      <trkpt lat="44.91927" lon="3.27297">
        <ele>1006</ele>
        <time>2019-03-30T09:46:41Z</time>
      </trkpt>
      <trkpt lat="44.91949" lon="3.27339">
        <ele>1006</ele>
        <time>2019-03-30T09:47:02Z</time>
      </trkpt>
      <trkpt lat="44.91954" lon="3.27347">
        <ele>1006</ele>
        <time>2019-03-30T09:47:06Z</time>
      </trkpt>
      <trkpt lat="44.91956" lon="3.27351">
        <ele>1006</ele>
        <time>2019-03-30T09:47:08Z</time>
      </trkpt>
      <trkpt lat="44.9196" lon="3.27359">
        <ele>1006</ele>
        <time>2019-03-30T09:47:12Z</time>
      </trkpt>
      <trkpt lat="44.9197" lon="3.27383">
        <ele>1006</ele>
        <time>2019-03-30T09:47:25Z</time>
      </trkpt>
      <trkpt lat="44.9198" lon="3.27403">
        <ele>1006</ele>
        <time>2019-03-30T09:47:35Z</time>
      </trkpt>
      <trkpt lat="44.91985" lon="3.27416">
        <ele>1006</ele>
        <time>2019-03-30T09:47:41Z</time>
      </trkpt>
      <trkpt lat="44.91993" lon="3.27431">
        <ele>1007</ele>
        <time>2019-03-30T09:47:49Z</time>
      </trkpt>
      <trkpt lat="44.91997" lon="3.27439">
        <ele>1007</ele>
        <time>2019-03-30T09:47:54Z</time>
      </trkpt>
      <trkpt lat="44.92027" lon="3.27492">
        <ele>1007</ele>
        <time>2019-03-30T09:48:24Z</time>
      </trkpt>
      <trkpt lat="44.92045" lon="3.27532">
        <ele>1007</ele>
        <time>2019-03-30T09:48:45Z</time>
      </trkpt>
      <trkpt lat="44.92047" lon="3.27541">
        <ele>1007</ele>
        <time>2019-03-30T09:48:49Z</time>
      </trkpt>
      <trkpt lat="44.92051" lon="3.27555">
        <ele>1007</ele>
        <time>2019-03-30T09:48:55Z</time>
      </trkpt>
      <trkpt lat="44.92054" lon="3.27563">
        <ele>1007</ele>
        <time>2019-03-30T09:48:59Z</time>
      </trkpt>
      <trkpt lat="44.92065" lon="3.27591">
        <ele>1007</ele>
        <time>2019-03-30T09:49:13Z</time>
      </trkpt>
      <trkpt lat="44.92066" lon="3.27623">
        <ele>1007</ele>
        <time>2019-03-30T09:49:25Z</time>
      </trkpt>
      <trkpt lat="44.92068" lon="3.27638">
        <ele>1007</ele>
        <time>2019-03-30T09:49:31Z</time>
      </trkpt>
      <trkpt lat="44.92071" lon="3.27669">
        <ele>1007</ele>
        <time>2019-03-30T09:49:43Z</time>
      </trkpt>
      <trkpt lat="44.92086" lon="3.2774">
        <ele>1007</ele>
        <time>2019-03-30T09:50:12Z</time>
      </trkpt>
      <trkpt lat="44.92087" lon="3.27744">
        <ele>1007</ele>
        <time>2019-03-30T09:50:14Z</time>
      </trkpt>
      <trkpt lat="44.9209" lon="3.27754">
        <ele>1007</ele>
        <time>2019-03-30T09:50:19Z</time>
      </trkpt>
      <trkpt lat="44.92098" lon="3.27774">
        <ele>1007</ele>
        <time>2019-03-30T09:50:29Z</time>
      </trkpt>
      <trkpt lat="44.92107" lon="3.27809">
        <ele>1007</ele>
        <time>2019-03-30T09:50:45Z</time>
      </trkpt>
      <trkpt lat="44.92131" lon="3.2786">
        <ele>1007</ele>
        <time>2019-03-30T09:51:16Z</time>
      </trkpt>
      <trkpt lat="44.92164" lon="3.27916">
        <ele>1007</ele>
        <time>2019-03-30T09:51:46Z</time>
      </trkpt>
      <trkpt lat="44.92175" lon="3.27935">
        <ele>1007</ele>
        <time>2019-03-30T09:51:56Z</time>
      </trkpt>
      <trkpt lat="44.92179" lon="3.2794">
        <ele>1007</ele>
        <time>2019-03-30T09:51:59Z</time>
      </trkpt>
      <trkpt lat="44.92189" lon="3.27961">
        <ele>1007</ele>
        <time>2019-03-30T09:52:10Z</time>
      </trkpt>
      <trkpt lat="44.92199" lon="3.27986">
        <ele>1007</ele>
        <time>2019-03-30T09:52:24Z</time>
      </trkpt>
      <trkpt lat="44.92209" lon="3.28007">
        <ele>1007</ele>
        <time>2019-03-30T09:52:35Z</time>
      </trkpt>
      <trkpt lat="44.92213" lon="3.28018">
        <ele>1007</ele>
        <time>2019-03-30T09:52:40Z</time>
      </trkpt>
      <trkpt lat="44.92228" lon="3.28051">
        <ele>1007</ele>
        <time>2019-03-30T09:52:56Z</time>
      </trkpt>
      <trkpt lat="44.9226" lon="3.2812">
        <ele>1007</ele>
        <time>2019-03-30T09:53:27Z</time>
      </trkpt>
      <trkpt lat="44.92278" lon="3.28159">
        <ele>1007</ele>
        <time>2019-03-30T09:53:45Z</time>
      </trkpt>
      <trkpt lat="44.92288" lon="3.28181">
        <ele>1007</ele>
        <time>2019-03-30T09:53:56Z</time>
      </trkpt>
      <trkpt lat="44.9229" lon="3.28185">
        <ele>1007</ele>
        <time>2019-03-30T09:53:58Z</time>
      </trkpt>
      <trkpt lat="44.92292" lon="3.28188">
        <ele>1007</ele>
        <time>2019-03-30T09:54:00Z</time>
      </trkpt>
      <trkpt lat="44.92306" lon="3.28213">
        <ele>1007</ele>
        <time>2019-03-30T09:54:12Z</time>
      </trkpt>
      <trkpt lat="44.9231" lon="3.28227">
        <ele>1007</ele>
        <time>2019-03-30T09:54:18Z</time>
      </trkpt>
      <trkpt lat="44.92337" lon="3.2829">
        <ele>1007</ele>
        <time>2019-03-30T09:54:48Z</time>
      </trkpt>
      <trkpt lat="44.9235" lon="3.28325">
        <ele>1007</ele>
        <time>2019-03-30T09:55:04Z</time>
      </trkpt>
      <trkpt lat="44.92356" lon="3.28338">
        <ele>1007</ele>
        <time>2019-03-30T09:55:10Z</time>
      </trkpt>
      <trkpt lat="44.92377" lon="3.28385">
        <ele>1007</ele>
        <time>2019-03-30T09:55:33Z</time>
      </trkpt>
      <trkpt lat="44.92391" lon="3.28404">
        <ele>1007</ele>
        <time>2019-03-30T09:55:45Z</time>
      </trkpt>
      <trkpt lat="44.92403" lon="3.28419">
        <ele>1007</ele>
        <time>2019-03-30T09:55:55Z</time>
      </trkpt>
      <trkpt lat="44.92411" lon="3.28429">
        <ele>1007</ele>
        <time>2019-03-30T09:56:01Z</time>
      </trkpt>
      <trkpt lat="44.92413" lon="3.28432">
        <ele>1007</ele>
        <time>2019-03-30T09:56:03Z</time>
      </trkpt>
      <trkpt lat="44.92415" lon="3.28435">
        <ele>1007</ele>
        <time>2019-03-30T09:56:06Z</time>
      </trkpt>
      <trkpt lat="44.92418" lon="3.28436">
        <ele>1007</ele>
        <time>2019-03-30T09:56:08Z</time>
      </trkpt>
      <trkpt lat="44.92423" lon="3.28442">
        <ele>1007</ele>
        <time>2019-03-30T09:56:50Z</time>
      </trkpt>
      <trkpt lat="44.92426" lon="3.28442">
        <ele>1007</ele>
        <time>2019-03-30T09:56:55Z</time>
      </trkpt>
      <trkpt lat="44.92443" lon="3.28452">
        <ele>1007</ele>
        <time>2019-03-30T09:57:25Z</time>
      </trkpt>
      <trkpt lat="44.92447" lon="3.28456">
        <ele>1007</ele>
        <time>2019-03-30T09:57:28Z</time>
      </trkpt>
      <trkpt lat="44.92458" lon="3.28463">
        <ele>1007</ele>
        <time>2019-03-30T09:57:35Z</time>
      </trkpt>
      <trkpt lat="44.92465" lon="3.28465">
        <ele>1007</ele>
        <time>2019-03-30T09:57:38Z</time>
      </trkpt>
      <trkpt lat="44.92472" lon="3.28464">
        <ele>1007</ele>
        <time>2019-03-30T09:57:42Z</time>
      </trkpt>
      <trkpt lat="44.92484" lon="3.28456">
        <ele>1007</ele>
        <time>2019-03-30T09:57:48Z</time>
      </trkpt>
      <trkpt lat="44.92496" lon="3.28435">
        <ele>1007</ele>
        <time>2019-03-30T09:57:58Z</time>
      </trkpt>
      <trkpt lat="44.92498" lon="3.28429">
        <ele>1007</ele>
        <time>2019-03-30T09:58:01Z</time>
      </trkpt>
      <trkpt lat="44.92499" lon="3.28395">
        <ele>1007</ele>
        <time>2019-03-30T09:58:14Z</time>
      </trkpt>
      <trkpt lat="44.92501" lon="3.28377">
        <ele>1007</ele>
        <time>2019-03-30T09:58:22Z</time>
      </trkpt>
      <trkpt lat="44.92503" lon="3.28354">
        <ele>1007</ele>
        <time>2019-03-30T09:58:30Z</time>
      </trkpt>
      <trkpt lat="44.9251" lon="3.28295">
        <ele>1007</ele>
        <time>2019-03-30T09:58:53Z</time>
      </trkpt>
      <trkpt lat="44.92496" lon="3.28208">
        <ele>1007</ele>
        <time>2019-03-30T09:59:24Z</time>
      </trkpt>
      <trkpt lat="44.92481" lon="3.28132">
        <ele>1007</ele>
        <time>2019-03-30T09:59:55Z</time>
      </trkpt>
      <trkpt lat="44.92482" lon="3.28103">
        <ele>1007</ele>
        <time>2019-03-30T10:00:06Z</time>
      </trkpt>
      <trkpt lat="44.92484" lon="3.28091">
        <ele>1007</ele>
        <time>2019-03-30T10:00:10Z</time>
      </trkpt>
      <trkpt lat="44.92484" lon="3.28086">
        <ele>1007</ele>
        <time>2019-03-30T10:00:12Z</time>
      </trkpt>
      <trkpt lat="44.92486" lon="3.28065">
        <ele>1007</ele>
        <time>2019-03-30T10:00:20Z</time>
      </trkpt>
      <trkpt lat="44.92486" lon="3.28006">
        <ele>1007</ele>
        <time>2019-03-30T10:00:45Z</time>
      </trkpt>
      <trkpt lat="44.92487" lon="3.27999">
        <ele>1007</ele>
        <time>2019-03-30T10:00:48Z</time>
      </trkpt>
      <trkpt lat="44.92487" lon="3.27994">
        <ele>1007</ele>
        <time>2019-03-30T10:00:50Z</time>
      </trkpt>
      <trkpt lat="44.9249" lon="3.27989">
        <ele>1007</ele>
        <time>2019-03-30T10:00:53Z</time>
      </trkpt>
      <trkpt lat="44.92493" lon="3.27987">
        <ele>1007</ele>
        <time>2019-03-30T10:00:56Z</time>
      </trkpt>
      <trkpt lat="44.92498" lon="3.27989">
        <ele>1007</ele>
        <time>2019-03-30T10:00:59Z</time>
      </trkpt>
      <trkpt lat="44.92502" lon="3.27992">
        <ele>1007</ele>
        <time>2019-03-30T10:01:02Z</time>
      </trkpt>
      <trkpt lat="44.92508" lon="3.27999">
        <ele>1007</ele>
        <time>2019-03-30T10:01:07Z</time>
      </trkpt>
      <trkpt lat="44.92512" lon="3.28002">
        <ele>1007</ele>
        <time>2019-03-30T10:01:11Z</time>
      </trkpt>
      <trkpt lat="44.92543" lon="3.28014">
        <ele>1007</ele>
        <time>2019-03-30T10:01:36Z</time>
      </trkpt>
      <trkpt lat="44.92557" lon="3.28019">
        <ele>1007</ele>
        <time>2019-03-30T10:01:46Z</time>
      </trkpt>
      <trkpt lat="44.92563" lon="3.2802">
        <ele>1007</ele>
        <time>2019-03-30T10:01:51Z</time>
      </trkpt>
      <trkpt lat="44.92569" lon="3.28023">
        <ele>1007</ele>
        <time>2019-03-30T10:01:54Z</time>
      </trkpt>
      <trkpt lat="44.92582" lon="3.28028">
        <ele>1007</ele>
        <time>2019-03-30T10:02:04Z</time>
      </trkpt>
      <trkpt lat="44.92586" lon="3.2803">
        <ele>1007</ele>
        <time>2019-03-30T10:02:08Z</time>
      </trkpt>
      <trkpt lat="44.92601" lon="3.28032">
        <ele>1007</ele>
        <time>2019-03-30T10:02:17Z</time>
      </trkpt>
      <trkpt lat="44.92606" lon="3.28032">
        <ele>1007</ele>
        <time>2019-03-30T10:02:20Z</time>
      </trkpt>
      <trkpt lat="44.9261" lon="3.2803">
        <ele>1007</ele>
        <time>2019-03-30T10:02:23Z</time>
      </trkpt>
      <trkpt lat="44.92613" lon="3.28025">
        <ele>1007</ele>
        <time>2019-03-30T10:02:26Z</time>
      </trkpt>
      <trkpt lat="44.92616" lon="3.28002">
        <ele>1007</ele>
        <time>2019-03-30T10:02:35Z</time>
      </trkpt>
      <trkpt lat="44.92621" lon="3.27958">
        <ele>1007</ele>
        <time>2019-03-30T10:02:55Z</time>
      </trkpt>
      <trkpt lat="44.92634" lon="3.27894">
        <ele>1007</ele>
        <time>2019-03-30T10:03:25Z</time>
      </trkpt>
      <trkpt lat="44.92645" lon="3.27829">
        <ele>1008</ele>
        <time>2019-03-30T10:03:56Z</time>
      </trkpt>
      <trkpt lat="44.92652" lon="3.278">
        <ele>1008</ele>
        <time>2019-03-30T10:04:10Z</time>
      </trkpt>
      <trkpt lat="44.92652" lon="3.27761">
        <ele>1008</ele>
        <time>2019-03-30T10:04:26Z</time>
      </trkpt>
      <trkpt lat="44.9265" lon="3.27746">
        <ele>1008</ele>
        <time>2019-03-30T10:04:32Z</time>
      </trkpt>
      <trkpt lat="44.92651" lon="3.27723">
        <ele>1008</ele>
        <time>2019-03-30T10:04:42Z</time>
      </trkpt>
      <trkpt lat="44.92652" lon="3.27703">
        <ele>1008</ele>
        <time>2019-03-30T10:04:50Z</time>
      </trkpt>
      <trkpt lat="44.92651" lon="3.2769">
        <ele>1008</ele>
        <time>2019-03-30T10:04:56Z</time>
      </trkpt>
      <trkpt lat="44.92653" lon="3.27655">
        <ele>1008</ele>
        <time>2019-03-30T10:05:13Z</time>
      </trkpt>
      <trkpt lat="44.92656" lon="3.27619">
        <ele>1008</ele>
        <time>2019-03-30T10:05:28Z</time>
      </trkpt>
      <trkpt lat="44.92658" lon="3.276">
        <ele>1008</ele>
        <time>2019-03-30T10:05:36Z</time>
      </trkpt>
      <trkpt lat="44.92666" lon="3.27549">
        <ele>1008</ele>
        <time>2019-03-30T10:05:56Z</time>
      </trkpt>
      <trkpt lat="44.92668" lon="3.27476">
        <ele>1008</ele>
        <time>2019-03-30T10:06:26Z</time>
      </trkpt>
      <trkpt lat="44.92672" lon="3.27439">
        <ele>1008</ele>
        <time>2019-03-30T10:06:41Z</time>
      </trkpt>
      <trkpt lat="44.92689" lon="3.27374">
        <ele>1008</ele>
        <time>2019-03-30T10:07:12Z</time>
      </trkpt>
      <trkpt lat="44.9269" lon="3.27368">
        <ele>1008</ele>
        <time>2019-03-30T10:07:15Z</time>
      </trkpt>
      <trkpt lat="44.92708" lon="3.27308">
        <ele>1008</ele>
        <time>2019-03-30T10:07:46Z</time>
      </trkpt>
      <trkpt lat="44.92711" lon="3.27291">
        <ele>1008</ele>
        <time>2019-03-30T10:07:55Z</time>
      </trkpt>
      <trkpt lat="44.92715" lon="3.27273">
        <ele>1007</ele>
        <time>2019-03-30T10:08:03Z</time>
      </trkpt>
      <trkpt lat="44.92722" lon="3.27248">
        <ele>1007</ele>
        <time>2019-03-30T10:08:12Z</time>
      </trkpt>
      <trkpt lat="44.92727" lon="3.27228">
        <ele>1007</ele>
        <time>2019-03-30T10:08:20Z</time>
      </trkpt>
      <trkpt lat="44.9273" lon="3.27222">
        <ele>1007</ele>
        <time>2019-03-30T10:08:23Z</time>
      </trkpt>
      <trkpt lat="44.92731" lon="3.27216">
        <ele>1007</ele>
        <time>2019-03-30T10:08:25Z</time>
      </trkpt>
      <trkpt lat="44.92748" lon="3.27181">
        <ele>1007</ele>
        <time>2019-03-30T10:08:41Z</time>
      </trkpt>
      <trkpt lat="44.92776" lon="3.27136">
        <ele>1007</ele>
        <time>2019-03-30T10:09:03Z</time>
      </trkpt>
      <trkpt lat="44.92778" lon="3.27126">
        <ele>1007</ele>
        <time>2019-03-30T10:09:08Z</time>
      </trkpt>
      <trkpt lat="44.9279" lon="3.27089">
        <ele>1007</ele>
        <time>2019-03-30T10:09:24Z</time>
      </trkpt>
      <trkpt lat="44.92792" lon="3.27084">
        <ele>1007</ele>
        <time>2019-03-30T10:09:26Z</time>
      </trkpt>
      <trkpt lat="44.92795" lon="3.27076">
        <ele>1007</ele>
        <time>2019-03-30T10:09:30Z</time>
      </trkpt>
      <trkpt lat="44.92805" lon="3.27048">
        <ele>1006</ele>
        <time>2019-03-30T10:09:44Z</time>
      </trkpt>
      <trkpt lat="44.92806" lon="3.27044">
        <ele>1006</ele>
        <time>2019-03-30T10:09:46Z</time>
      </trkpt>
      <trkpt lat="44.92809" lon="3.2704">
        <ele>1006</ele>
        <time>2019-03-30T10:09:49Z</time>
      </trkpt>
      <trkpt lat="44.92818" lon="3.2701">
        <ele>1006</ele>
        <time>2019-03-30T10:10:01Z</time>
      </trkpt>
      <trkpt lat="44.92822" lon="3.26996">
        <ele>1006</ele>
        <time>2019-03-30T10:10:07Z</time>
      </trkpt>
      <trkpt lat="44.92825" lon="3.26987">
        <ele>1006</ele>
        <time>2019-03-30T10:10:11Z</time>
      </trkpt>
      <trkpt lat="44.92829" lon="3.26979">
        <ele>1006</ele>
        <time>2019-03-30T10:10:15Z</time>
      </trkpt>
      <trkpt lat="44.9285" lon="3.26931">
        <ele>1005</ele>
        <time>2019-03-30T10:10:40Z</time>
      </trkpt>
      <trkpt lat="44.92887" lon="3.26872">
        <ele>1005</ele>
        <time>2019-03-30T10:11:10Z</time>
      </trkpt>
      <trkpt lat="44.92899" lon="3.26856">
        <ele>1005</ele>
        <time>2019-03-30T10:11:19Z</time>
      </trkpt>
      <trkpt lat="44.92903" lon="3.26843">
        <ele>1005</ele>
        <time>2019-03-30T10:11:25Z</time>
      </trkpt>
      <trkpt lat="44.92905" lon="3.26837">
        <ele>1005</ele>
        <time>2019-03-30T10:11:27Z</time>
      </trkpt>
      <trkpt lat="44.92908" lon="3.26835">
        <ele>1005</ele>
        <time>2019-03-30T10:11:29Z</time>
      </trkpt>
      <trkpt lat="44.92911" lon="3.26827">
        <ele>1004</ele>
        <time>2019-03-30T10:11:34Z</time>
      </trkpt>
      <trkpt lat="44.92916" lon="3.26819">
        <ele>1004</ele>
        <time>2019-03-30T10:11:38Z</time>
      </trkpt>
      <trkpt lat="44.92925" lon="3.26802">
        <ele>1004</ele>
        <time>2019-03-30T10:11:47Z</time>
      </trkpt>
      <trkpt lat="44.92928" lon="3.26798">
        <ele>1004</ele>
        <time>2019-03-30T10:11:49Z</time>
      </trkpt>
      <trkpt lat="44.92938" lon="3.2677">
        <ele>1004</ele>
        <time>2019-03-30T10:12:02Z</time>
      </trkpt>
      <trkpt lat="44.92952" lon="3.26746">
        <ele>1003</ele>
        <time>2019-03-30T10:12:14Z</time>
      </trkpt>
      <trkpt lat="44.92957" lon="3.2674">
        <ele>1003</ele>
        <time>2019-03-30T10:12:19Z</time>
      </trkpt>
      <trkpt lat="44.92965" lon="3.26726">
        <ele>1003</ele>
        <time>2019-03-30T10:12:26Z</time>
      </trkpt>
      <trkpt lat="44.92985" lon="3.26694">
        <ele>1002</ele>
        <time>2019-03-30T10:12:45Z</time>
      </trkpt>
      <trkpt lat="44.9299" lon="3.26684">
        <ele>1002</ele>
        <time>2019-03-30T10:12:51Z</time>
      </trkpt>
      <trkpt lat="44.92993" lon="3.2668">
        <ele>1002</ele>
        <time>2019-03-30T10:12:54Z</time>
      </trkpt>
      <trkpt lat="44.93015" lon="3.26641">
        <ele>1002</ele>
        <time>2019-03-30T10:13:13Z</time>
      </trkpt>
      <trkpt lat="44.93019" lon="3.26628">
        <ele>1001</ele>
        <time>2019-03-30T10:13:19Z</time>
      </trkpt>
      <trkpt lat="44.93024" lon="3.26617">
        <ele>1001</ele>
        <time>2019-03-30T10:13:25Z</time>
      </trkpt>
      <trkpt lat="44.93032" lon="3.26594">
        <ele>1001</ele>
        <time>2019-03-30T10:13:35Z</time>
      </trkpt>
      <trkpt lat="44.93033" lon="3.26588">
        <ele>1001</ele>
        <time>2019-03-30T10:13:39Z</time>
      </trkpt>
      <trkpt lat="44.93035" lon="3.26583">
        <ele>1001</ele>
        <time>2019-03-30T10:13:41Z</time>
      </trkpt>
      <trkpt lat="44.93042" lon="3.26567">
        <ele>1001</ele>
        <time>2019-03-30T10:13:48Z</time>
      </trkpt>
      <trkpt lat="44.93044" lon="3.26562">
        <ele>1001</ele>
        <time>2019-03-30T10:13:51Z</time>
      </trkpt>
      <trkpt lat="44.93046" lon="3.26558">
        <ele>1001</ele>
        <time>2019-03-30T10:13:53Z</time>
      </trkpt>
      <trkpt lat="44.9306" lon="3.26532">
        <ele>1000</ele>
        <time>2019-03-30T10:14:07Z</time>
      </trkpt>
      <trkpt lat="44.93063" lon="3.2652">
        <ele>1000</ele>
        <time>2019-03-30T10:14:11Z</time>
      </trkpt>
      <trkpt lat="44.93069" lon="3.26506">
        <ele>1000</ele>
        <time>2019-03-30T10:14:18Z</time>
      </trkpt>
      <trkpt lat="44.93071" lon="3.26502">
        <ele>1000</ele>
        <time>2019-03-30T10:14:21Z</time>
      </trkpt>
      <trkpt lat="44.93074" lon="3.26496">
        <ele>1000</ele>
        <time>2019-03-30T10:14:25Z</time>
      </trkpt>
      <trkpt lat="44.93075" lon="3.2649">
        <ele>1000</ele>
        <time>2019-03-30T10:14:30Z</time>
      </trkpt>
      <trkpt lat="44.93075" lon="3.2648">
        <ele>1000</ele>
        <time>2019-03-30T10:14:36Z</time>
      </trkpt>
      <trkpt lat="44.93077" lon="3.26476">
        <ele>1000</ele>
        <time>2019-03-30T10:14:38Z</time>
      </trkpt>
      <trkpt lat="44.93083" lon="3.26464">
        <ele>1000</ele>
        <time>2019-03-30T10:14:49Z</time>
      </trkpt>
      <trkpt lat="44.93087" lon="3.26463">
        <ele>1000</ele>
        <time>2019-03-30T10:14:53Z</time>
      </trkpt>
      <trkpt lat="44.93091" lon="3.26459">
        <ele>1000</ele>
        <time>2019-03-30T10:14:57Z</time>
      </trkpt>
      <trkpt lat="44.93117" lon="3.26408">
        <ele>999</ele>
        <time>2019-03-30T10:15:25Z</time>
      </trkpt>
      <trkpt lat="44.93119" lon="3.26404">
        <ele>999</ele>
        <time>2019-03-30T10:15:29Z</time>
      </trkpt>
      <trkpt lat="44.93122" lon="3.26399">
        <ele>999</ele>
        <time>2019-03-30T10:15:33Z</time>
      </trkpt>
      <trkpt lat="44.93124" lon="3.26395">
        <ele>999</ele>
        <time>2019-03-30T10:15:36Z</time>
      </trkpt>
      <trkpt lat="44.9313" lon="3.26385">
        <ele>998</ele>
        <time>2019-03-30T10:15:42Z</time>
      </trkpt>
      <trkpt lat="44.93132" lon="3.26381">
        <ele>998</ele>
        <time>2019-03-30T10:15:45Z</time>
      </trkpt>
      <trkpt lat="44.93136" lon="3.26377">
        <ele>998</ele>
        <time>2019-03-30T10:15:48Z</time>
      </trkpt>
      <trkpt lat="44.93139" lon="3.26374">
        <ele>998</ele>
        <time>2019-03-30T10:15:52Z</time>
      </trkpt>
      <trkpt lat="44.93141" lon="3.26368">
        <ele>997</ele>
        <time>2019-03-30T10:16:40Z</time>
      </trkpt>
      <trkpt lat="44.93146" lon="3.26366">
        <ele>997</ele>
        <time>2019-03-30T10:16:43Z</time>
      </trkpt>
      <trkpt lat="44.9315" lon="3.26365">
        <ele>997</ele>
        <time>2019-03-30T10:16:45Z</time>
      </trkpt>
      <trkpt lat="44.93154" lon="3.26361">
        <ele>997</ele>
        <time>2019-03-30T10:16:48Z</time>
      </trkpt>
      <trkpt lat="44.93157" lon="3.26355">
        <ele>996</ele>
        <time>2019-03-30T10:16:51Z</time>
      </trkpt>
      <trkpt lat="44.93162" lon="3.26346">
        <ele>996</ele>
        <time>2019-03-30T10:16:55Z</time>
      </trkpt>
      <trkpt lat="44.93174" lon="3.2632">
        <ele>995</ele>
        <time>2019-03-30T10:17:06Z</time>
      </trkpt>
      <trkpt lat="44.93178" lon="3.26309">
        <ele>995</ele>
        <time>2019-03-30T10:17:11Z</time>
      </trkpt>
      <trkpt lat="44.9318" lon="3.26296">
        <ele>994</ele>
        <time>2019-03-30T10:17:16Z</time>
      </trkpt>
      <trkpt lat="44.93183" lon="3.26279">
        <ele>993</ele>
        <time>2019-03-30T10:17:23Z</time>
      </trkpt>
      <trkpt lat="44.93183" lon="3.26267">
        <ele>993</ele>
        <time>2019-03-30T10:17:30Z</time>
      </trkpt>
      <trkpt lat="44.93178" lon="3.26251">
        <ele>991</ele>
        <time>2019-03-30T10:17:40Z</time>
      </trkpt>
      <trkpt lat="44.93178" lon="3.26245">
        <ele>991</ele>
        <time>2019-03-30T10:17:43Z</time>
      </trkpt>
      <trkpt lat="44.93182" lon="3.26234">
        <ele>990</ele>
        <time>2019-03-30T10:17:48Z</time>
      </trkpt>
      <trkpt lat="44.93192" lon="3.26189">
        <ele>985</ele>
        <time>2019-03-30T10:18:08Z</time>
      </trkpt>
      <trkpt lat="44.93193" lon="3.26182">
        <ele>984</ele>
        <time>2019-03-30T10:18:11Z</time>
      </trkpt>
      <trkpt lat="44.93193" lon="3.26177">
        <ele>983</ele>
        <time>2019-03-30T10:18:13Z</time>
      </trkpt>
      <trkpt lat="44.93194" lon="3.2617">
        <ele>983</ele>
        <time>2019-03-30T10:18:16Z</time>
      </trkpt>
      <trkpt lat="44.93212" lon="3.26144">
        <ele>977</ele>
        <time>2019-03-30T10:18:32Z</time>
      </trkpt>
      <trkpt lat="44.93214" lon="3.2614">
        <ele>977</ele>
        <time>2019-03-30T10:18:34Z</time>
      </trkpt>
      <trkpt lat="44.93218" lon="3.26137">
        <ele>976</ele>
        <time>2019-03-30T10:18:37Z</time>
      </trkpt>
      <trkpt lat="44.93235" lon="3.26101">
        <ele>971</ele>
        <time>2019-03-30T10:18:53Z</time>
      </trkpt>
      <trkpt lat="44.93238" lon="3.26097">
        <ele>970</ele>
        <time>2019-03-30T10:18:55Z</time>
      </trkpt>
      <trkpt lat="44.93243" lon="3.26085">
        <ele>969</ele>
        <time>2019-03-30T10:19:01Z</time>
      </trkpt>
      <trkpt lat="44.93251" lon="3.26068">
        <ele>966</ele>
        <time>2019-03-30T10:19:09Z</time>
      </trkpt>
      <trkpt lat="44.93273" lon="3.26036">
        <ele>961</ele>
        <time>2019-03-30T10:19:28Z</time>
      </trkpt>
      <trkpt lat="44.93275" lon="3.26032">
        <ele>961</ele>
        <time>2019-03-30T10:19:30Z</time>
      </trkpt>
      <trkpt lat="44.93284" lon="3.2602">
        <ele>959</ele>
        <time>2019-03-30T10:19:38Z</time>
      </trkpt>
      <trkpt lat="44.93287" lon="3.26016">
        <ele>959</ele>
        <time>2019-03-30T10:19:40Z</time>
      </trkpt>
      <trkpt lat="44.93292" lon="3.26007">
        <ele>958</ele>
        <time>2019-03-30T10:19:44Z</time>
      </trkpt>
      <trkpt lat="44.93295" lon="3.26003">
        <ele>957</ele>
        <time>2019-03-30T10:19:47Z</time>
      </trkpt>
      <trkpt lat="44.93298" lon="3.26">
        <ele>957</ele>
        <time>2019-03-30T10:19:50Z</time>
      </trkpt>
      <trkpt lat="44.93308" lon="3.25992">
        <ele>955</ele>
        <time>2019-03-30T10:19:59Z</time>
      </trkpt>
      <trkpt lat="44.93312" lon="3.25988">
        <ele>954</ele>
        <time>2019-03-30T10:20:02Z</time>
      </trkpt>
      <trkpt lat="44.93324" lon="3.25973">
        <ele>953</ele>
        <time>2019-03-30T10:20:10Z</time>
      </trkpt>
      <trkpt lat="44.93331" lon="3.25962">
        <ele>951</ele>
        <time>2019-03-30T10:20:16Z</time>
      </trkpt>
      <trkpt lat="44.93333" lon="3.25957">
        <ele>951</ele>
        <time>2019-03-30T10:20:18Z</time>
      </trkpt>
      <trkpt lat="44.93339" lon="3.25951">
        <ele>950</ele>
        <time>2019-03-30T10:20:22Z</time>
      </trkpt>
      <trkpt lat="44.93351" lon="3.25934">
        <ele>949</ele>
        <time>2019-03-30T10:20:31Z</time>
      </trkpt>
      <trkpt lat="44.93381" lon="3.25914">
        <ele>946</ele>
        <time>2019-03-30T10:20:50Z</time>
      </trkpt>
      <trkpt lat="44.93394" lon="3.25906">
        <ele>944</ele>
        <time>2019-03-30T10:21:00Z</time>
      </trkpt>
      <trkpt lat="44.93398" lon="3.25903">
        <ele>944</ele>
        <time>2019-03-30T10:21:03Z</time>
      </trkpt>
      <trkpt lat="44.93401" lon="3.259">
        <ele>943</ele>
        <time>2019-03-30T10:21:06Z</time>
      </trkpt>
      <trkpt lat="44.93404" lon="3.25895">
        <ele>943</ele>
        <time>2019-03-30T10:21:08Z</time>
      </trkpt>
      <trkpt lat="44.93409" lon="3.25885">
        <ele>942</ele>
        <time>2019-03-30T10:21:12Z</time>
      </trkpt>
      <trkpt lat="44.93424" lon="3.25824">
        <ele>939</ele>
        <time>2019-03-30T10:21:39Z</time>
      </trkpt>
      <trkpt lat="44.93426" lon="3.25817">
        <ele>938</ele>
        <time>2019-03-30T10:21:42Z</time>
      </trkpt>
      <trkpt lat="44.93444" lon="3.25754">
        <ele>935</ele>
        <time>2019-03-30T10:22:13Z</time>
      </trkpt>
      <trkpt lat="44.93447" lon="3.25746">
        <ele>935</ele>
        <time>2019-03-30T10:22:16Z</time>
      </trkpt>
      <trkpt lat="44.93468" lon="3.25656">
        <ele>932</ele>
        <time>2019-03-30T10:22:48Z</time>
      </trkpt>
      <trkpt lat="44.93469" lon="3.2565">
        <ele>932</ele>
        <time>2019-03-30T10:22:51Z</time>
      </trkpt>
      <trkpt lat="44.93466" lon="3.25637">
        <ele>931</ele>
        <time>2019-03-30T10:22:57Z</time>
      </trkpt>
      <trkpt lat="44.93465" lon="3.25632">
        <ele>931</ele>
        <time>2019-03-30T10:22:59Z</time>
      </trkpt>
      <trkpt lat="44.93456" lon="3.25564">
        <ele>929</ele>
        <time>2019-03-30T10:23:24Z</time>
      </trkpt>
      <trkpt lat="44.9345" lon="3.25552">
        <ele>928</ele>
        <time>2019-03-30T10:23:31Z</time>
      </trkpt>
      <trkpt lat="44.93449" lon="3.25548">
        <ele>928</ele>
        <time>2019-03-30T10:23:34Z</time>
      </trkpt>
      <trkpt lat="44.93414" lon="3.2548">
        <ele>926</ele>
        <time>2019-03-30T10:24:05Z</time>
      </trkpt>
      <trkpt lat="44.93412" lon="3.25474">
        <ele>925</ele>
        <time>2019-03-30T10:24:07Z</time>
      </trkpt>
      <trkpt lat="44.93411" lon="3.25461">
        <ele>925</ele>
        <time>2019-03-30T10:24:11Z</time>
      </trkpt>
      <trkpt lat="44.93404" lon="3.2542">
        <ele>924</ele>
        <time>2019-03-30T10:24:29Z</time>
      </trkpt>
      <trkpt lat="44.93404" lon="3.25415">
        <ele>924</ele>
        <time>2019-03-30T10:24:31Z</time>
      </trkpt>
      <trkpt lat="44.93404" lon="3.25411">
        <ele>924</ele>
        <time>2019-03-30T10:24:33Z</time>
      </trkpt>
      <trkpt lat="44.93412" lon="3.25404">
        <ele>923</ele>
        <time>2019-03-30T10:24:40Z</time>
      </trkpt>
      <trkpt lat="44.93441" lon="3.25396">
        <ele>922</ele>
        <time>2019-03-30T10:25:00Z</time>
      </trkpt>
      <trkpt lat="44.93444" lon="3.25394">
        <ele>922</ele>
        <time>2019-03-30T10:25:02Z</time>
      </trkpt>
      <trkpt lat="44.93448" lon="3.25393">
        <ele>922</ele>
        <time>2019-03-30T10:25:20Z</time>
      </trkpt>
      <trkpt lat="44.93451" lon="3.25386">
        <ele>921</ele>
        <time>2019-03-30T10:25:31Z</time>
      </trkpt>
      <trkpt lat="44.93447" lon="3.25377">
        <ele>921</ele>
        <time>2019-03-30T10:25:54Z</time>
      </trkpt>
      <trkpt lat="44.93442" lon="3.25374">
        <ele>921</ele>
        <time>2019-03-30T10:25:56Z</time>
      </trkpt>
      <trkpt lat="44.93445" lon="3.25368">
        <ele>920</ele>
        <time>2019-03-30T10:26:16Z</time>
      </trkpt>
      <trkpt lat="44.93448" lon="3.25374">
        <ele>920</ele>
        <time>2019-03-30T10:26:27Z</time>
      </trkpt>
      <trkpt lat="44.93452" lon="3.25392">
        <ele>919</ele>
        <time>2019-03-30T10:26:34Z</time>
      </trkpt>
      <trkpt lat="44.93454" lon="3.25397">
        <ele>919</ele>
        <time>2019-03-30T10:26:46Z</time>
      </trkpt>
      <trkpt lat="44.93458" lon="3.254">
        <ele>919</ele>
        <time>2019-03-30T10:26:50Z</time>
      </trkpt>
      <trkpt lat="44.93476" lon="3.25396">
        <ele>918</ele>
        <time>2019-03-30T10:27:04Z</time>
      </trkpt>
      <trkpt lat="44.9348" lon="3.25398">
        <ele>917</ele>
        <time>2019-03-30T10:27:09Z</time>
      </trkpt>
      <trkpt lat="44.93496" lon="3.25392">
        <ele>917</ele>
        <time>2019-03-30T10:27:26Z</time>
      </trkpt>
      <trkpt lat="44.93501" lon="3.25391">
        <ele>916</ele>
        <time>2019-03-30T10:27:30Z</time>
      </trkpt>
      <trkpt lat="44.93508" lon="3.25396">
        <ele>916</ele>
        <time>2019-03-30T10:27:38Z</time>
      </trkpt>
      <trkpt lat="44.93512" lon="3.25397">
        <ele>916</ele>
        <time>2019-03-30T10:27:41Z</time>
      </trkpt>
      <trkpt lat="44.9352" lon="3.25402">
        <ele>915</ele>
        <time>2019-03-30T10:27:47Z</time>
      </trkpt>
      <trkpt lat="44.93526" lon="3.25407">
        <ele>915</ele>
        <time>2019-03-30T10:27:53Z</time>
      </trkpt>
      <trkpt lat="44.93538" lon="3.25414">
        <ele>914</ele>
        <time>2019-03-30T10:28:03Z</time>
      </trkpt>
      <trkpt lat="44.93542" lon="3.25414">
        <ele>914</ele>
        <time>2019-03-30T10:28:07Z</time>
      </trkpt>
      <trkpt lat="44.93552" lon="3.25413">
        <ele>914</ele>
        <time>2019-03-30T10:28:13Z</time>
      </trkpt>
      <trkpt lat="44.93562" lon="3.25416">
        <ele>913</ele>
        <time>2019-03-30T10:28:19Z</time>
      </trkpt>
      <trkpt lat="44.93576" lon="3.25414">
        <ele>912</ele>
        <time>2019-03-30T10:28:28Z</time>
      </trkpt>
      <trkpt lat="44.9358" lon="3.25412">
        <ele>912</ele>
        <time>2019-03-30T10:28:32Z</time>
      </trkpt>
      <trkpt lat="44.9361" lon="3.2541">
        <ele>910</ele>
        <time>2019-03-30T10:28:57Z</time>
      </trkpt>
      <trkpt lat="44.93619" lon="3.2541">
        <ele>910</ele>
        <time>2019-03-30T10:29:04Z</time>
      </trkpt>
      <trkpt lat="44.93623" lon="3.25411">
        <ele>909</ele>
        <time>2019-03-30T10:29:08Z</time>
      </trkpt>
      <trkpt lat="44.93626" lon="3.25413">
        <ele>909</ele>
        <time>2019-03-30T10:29:10Z</time>
      </trkpt>
      <trkpt lat="44.9363" lon="3.2542">
        <ele>909</ele>
        <time>2019-03-30T10:29:15Z</time>
      </trkpt>
      <trkpt lat="44.93632" lon="3.25423">
        <ele>908</ele>
        <time>2019-03-30T10:29:18Z</time>
      </trkpt>
      <trkpt lat="44.93634" lon="3.25429">
        <ele>908</ele>
        <time>2019-03-30T10:29:21Z</time>
      </trkpt>
      <trkpt lat="44.93634" lon="3.25437">
        <ele>908</ele>
        <time>2019-03-30T10:29:25Z</time>
      </trkpt>
      <trkpt lat="44.93638" lon="3.25443">
        <ele>908</ele>
        <time>2019-03-30T10:29:30Z</time>
      </trkpt>
      <trkpt lat="44.93643" lon="3.25446">
        <ele>907</ele>
        <time>2019-03-30T10:29:36Z</time>
      </trkpt>
      <trkpt lat="44.93647" lon="3.25448">
        <ele>907</ele>
        <time>2019-03-30T10:29:43Z</time>
      </trkpt>
      <trkpt lat="44.93651" lon="3.25447">
        <ele>907</ele>
        <time>2019-03-30T10:29:51Z</time>
      </trkpt>
      <trkpt lat="44.93657" lon="3.25441">
        <ele>906</ele>
        <time>2019-03-30T10:29:55Z</time>
      </trkpt>
      <trkpt lat="44.93671" lon="3.25426">
        <ele>905</ele>
        <time>2019-03-30T10:30:07Z</time>
      </trkpt>
      <trkpt lat="44.93673" lon="3.25422">
        <ele>905</ele>
        <time>2019-03-30T10:30:11Z</time>
      </trkpt>
      <trkpt lat="44.93681" lon="3.25417">
        <ele>904</ele>
        <time>2019-03-30T10:30:36Z</time>
      </trkpt>
      <trkpt lat="44.93684" lon="3.25415">
        <ele>904</ele>
        <time>2019-03-30T10:30:39Z</time>
      </trkpt>
      <trkpt lat="44.9369" lon="3.25406">
        <ele>903</ele>
        <time>2019-03-30T10:30:44Z</time>
      </trkpt>
      <trkpt lat="44.93696" lon="3.25399">
        <ele>903</ele>
        <time>2019-03-30T10:30:54Z</time>
      </trkpt>
      <trkpt lat="44.93699" lon="3.25395">
        <ele>902</ele>
        <time>2019-03-30T10:31:05Z</time>
      </trkpt>
      <trkpt lat="44.93703" lon="3.25386">
        <ele>902</ele>
        <time>2019-03-30T10:31:13Z</time>
      </trkpt>
      <trkpt lat="44.9371" lon="3.25379">
        <ele>901</ele>
        <time>2019-03-30T10:31:26Z</time>
      </trkpt>
      <trkpt lat="44.93714" lon="3.25377">
        <ele>900</ele>
        <time>2019-03-30T10:31:29Z</time>
      </trkpt>
      <trkpt lat="44.93718" lon="3.25375">
        <ele>900</ele>
        <time>2019-03-30T10:31:31Z</time>
      </trkpt>
      <trkpt lat="44.93738" lon="3.25363">
        <ele>899</ele>
        <time>2019-03-30T10:31:47Z</time>
      </trkpt>
      <trkpt lat="44.93743" lon="3.25359">
        <ele>898</ele>
        <time>2019-03-30T10:31:50Z</time>
      </trkpt>
      <trkpt lat="44.93776" lon="3.25343">
        <ele>894</ele>
        <time>2019-03-30T10:32:17Z</time>
      </trkpt>
      <trkpt lat="44.9378" lon="3.2534">
        <ele>893</ele>
        <time>2019-03-30T10:32:19Z</time>
      </trkpt>
      <trkpt lat="44.93806" lon="3.25322">
        <ele>888</ele>
        <time>2019-03-30T10:32:40Z</time>
      </trkpt>
      <trkpt lat="44.93811" lon="3.25323">
        <ele>887</ele>
        <time>2019-03-30T10:32:43Z</time>
      </trkpt>
      <trkpt lat="44.93815" lon="3.25322">
        <ele>886</ele>
        <time>2019-03-30T10:32:48Z</time>
      </trkpt>
      <trkpt lat="44.93824" lon="3.25321">
        <ele>885</ele>
        <time>2019-03-30T10:32:54Z</time>
      </trkpt>
      <trkpt lat="44.93828" lon="3.2532">
        <ele>884</ele>
        <time>2019-03-30T10:32:58Z</time>
      </trkpt>
      <trkpt lat="44.93844" lon="3.25311">
        <ele>881</ele>
        <time>2019-03-30T10:33:10Z</time>
      </trkpt>
      <trkpt lat="44.9385" lon="3.25302">
        <ele>880</ele>
        <time>2019-03-30T10:33:16Z</time>
      </trkpt>
      <trkpt lat="44.93853" lon="3.25299">
        <ele>879</ele>
        <time>2019-03-30T10:33:19Z</time>
      </trkpt>
      <trkpt lat="44.93856" lon="3.25296">
        <ele>878</ele>
        <time>2019-03-30T10:33:22Z</time>
      </trkpt>
      <trkpt lat="44.93859" lon="3.25292">
        <ele>877</ele>
        <time>2019-03-30T10:33:26Z</time>
      </trkpt>
      <trkpt lat="44.93863" lon="3.25291">
        <ele>876</ele>
        <time>2019-03-30T10:33:30Z</time>
      </trkpt>
      <trkpt lat="44.93871" lon="3.25286">
        <ele>875</ele>
        <time>2019-03-30T10:33:36Z</time>
      </trkpt>
      <trkpt lat="44.93876" lon="3.25285">
        <ele>874</ele>
        <time>2019-03-30T10:33:40Z</time>
      </trkpt>
      <trkpt lat="44.9388" lon="3.25284">
        <ele>873</ele>
        <time>2019-03-30T10:33:43Z</time>
      </trkpt>
      <trkpt lat="44.93892" lon="3.25283">
        <ele>870</ele>
        <time>2019-03-30T10:33:55Z</time>
      </trkpt>
      <trkpt lat="44.93897" lon="3.25283">
        <ele>869</ele>
        <time>2019-03-30T10:33:59Z</time>
      </trkpt>
      <trkpt lat="44.93901" lon="3.2528">
        <ele>868</ele>
        <time>2019-03-30T10:34:03Z</time>
      </trkpt>
      <trkpt lat="44.93906" lon="3.25277">
        <ele>867</ele>
        <time>2019-03-30T10:34:09Z</time>
      </trkpt>
      <trkpt lat="44.93917" lon="3.2527">
        <ele>866</ele>
        <time>2019-03-30T10:34:17Z</time>
      </trkpt>
      <trkpt lat="44.93922" lon="3.25268">
        <ele>864</ele>
        <time>2019-03-30T10:34:22Z</time>
      </trkpt>
      <trkpt lat="44.93927" lon="3.25266">
        <ele>863</ele>
        <time>2019-03-30T10:34:46Z</time>
      </trkpt>
      <trkpt lat="44.93929" lon="3.25262">
        <ele>862</ele>
        <time>2019-03-30T10:34:48Z</time>
      </trkpt>
      <trkpt lat="44.93932" lon="3.25259">
        <ele>861</ele>
        <time>2019-03-30T10:34:51Z</time>
      </trkpt>
      <trkpt lat="44.93936" lon="3.25258">
        <ele>860</ele>
        <time>2019-03-30T10:34:56Z</time>
      </trkpt>
      <trkpt lat="44.93953" lon="3.25248">
        <ele>857</ele>
        <time>2019-03-30T10:35:13Z</time>
      </trkpt>
      <trkpt lat="44.93959" lon="3.25247">
        <ele>855</ele>
        <time>2019-03-30T10:35:18Z</time>
      </trkpt>
      <trkpt lat="44.93965" lon="3.25246">
        <ele>855</ele>
        <time>2019-03-30T10:35:24Z</time>
      </trkpt>
      <trkpt lat="44.93967" lon="3.25237">
        <ele>854</ele>
        <time>2019-03-30T10:35:27Z</time>
      </trkpt>
      <trkpt lat="44.93968" lon="3.25232">
        <ele>853</ele>
        <time>2019-03-30T10:35:32Z</time>
      </trkpt>
      <trkpt lat="44.93964" lon="3.2523">
        <ele>852</ele>
        <time>2019-03-30T10:35:37Z</time>
      </trkpt>
      <trkpt lat="44.93952" lon="3.25221">
        <ele>851</ele>
        <time>2019-03-30T10:35:46Z</time>
      </trkpt>
      <trkpt lat="44.93949" lon="3.25219">
        <ele>850</ele>
        <time>2019-03-30T10:35:49Z</time>
      </trkpt>
      <trkpt lat="44.93946" lon="3.25216">
        <ele>850</ele>
        <time>2019-03-30T10:35:52Z</time>
      </trkpt>
      <trkpt lat="44.93924" lon="3.25214">
        <ele>847</ele>
        <time>2019-03-30T10:36:08Z</time>
      </trkpt>
      <trkpt lat="44.93916" lon="3.25214">
        <ele>846</ele>
        <time>2019-03-30T10:36:14Z</time>
      </trkpt>
      <trkpt lat="44.93912" lon="3.25213">
        <ele>846</ele>
        <time>2019-03-30T10:36:17Z</time>
      </trkpt>
      <trkpt lat="44.93909" lon="3.25208">
        <ele>845</ele>
        <time>2019-03-30T10:36:20Z</time>
      </trkpt>
      <trkpt lat="44.93912" lon="3.25196">
        <ele>844</ele>
        <time>2019-03-30T10:36:24Z</time>
      </trkpt>
      <trkpt lat="44.93914" lon="3.25191">
        <ele>844</ele>
        <time>2019-03-30T10:36:27Z</time>
      </trkpt>
      <trkpt lat="44.93917" lon="3.2519">
        <ele>842</ele>
        <time>2019-03-30T10:36:33Z</time>
      </trkpt>
      <trkpt lat="44.93922" lon="3.25182">
        <ele>840</ele>
        <time>2019-03-30T10:36:39Z</time>
      </trkpt>
      <trkpt lat="44.93925" lon="3.25177">
        <ele>839</ele>
        <time>2019-03-30T10:36:42Z</time>
      </trkpt>
      <trkpt lat="44.93929" lon="3.25174">
        <ele>838</ele>
        <time>2019-03-30T10:36:45Z</time>
      </trkpt>
      <trkpt lat="44.93933" lon="3.25171">
        <ele>837</ele>
        <time>2019-03-30T10:36:48Z</time>
      </trkpt>
      <trkpt lat="44.93936" lon="3.25166">
        <ele>835</ele>
        <time>2019-03-30T10:36:52Z</time>
      </trkpt>
      <trkpt lat="44.9394" lon="3.25162">
        <ele>834</ele>
        <time>2019-03-30T10:36:55Z</time>
      </trkpt>
      <trkpt lat="44.93943" lon="3.25158">
        <ele>833</ele>
        <time>2019-03-30T10:36:59Z</time>
      </trkpt>
      <trkpt lat="44.9395" lon="3.25149">
        <ele>830</ele>
        <time>2019-03-30T10:37:05Z</time>
      </trkpt>
      <trkpt lat="44.93953" lon="3.25146">
        <ele>829</ele>
        <time>2019-03-30T10:37:09Z</time>
      </trkpt>
      <trkpt lat="44.93956" lon="3.25142">
        <ele>828</ele>
        <time>2019-03-30T10:37:12Z</time>
      </trkpt>
      <trkpt lat="44.93965" lon="3.25137">
        <ele>826</ele>
        <time>2019-03-30T10:37:18Z</time>
      </trkpt>
      <trkpt lat="44.93968" lon="3.25133">
        <ele>825</ele>
        <time>2019-03-30T10:37:21Z</time>
      </trkpt>
      <trkpt lat="44.93969" lon="3.25128">
        <ele>824</ele>
        <time>2019-03-30T10:37:24Z</time>
      </trkpt>
      <trkpt lat="44.93966" lon="3.25123">
        <ele>822</ele>
        <time>2019-03-30T10:37:28Z</time>
      </trkpt>
      <trkpt lat="44.93957" lon="3.25118">
        <ele>820</ele>
        <time>2019-03-30T10:37:35Z</time>
      </trkpt>
      <trkpt lat="44.93953" lon="3.25117">
        <ele>819</ele>
        <time>2019-03-30T10:37:38Z</time>
      </trkpt>
      <trkpt lat="44.93949" lon="3.25119">
        <ele>818</ele>
        <time>2019-03-30T10:37:42Z</time>
      </trkpt>
      <trkpt lat="44.93945" lon="3.25119">
        <ele>817</ele>
        <time>2019-03-30T10:37:45Z</time>
      </trkpt>
      <trkpt lat="44.93939" lon="3.25118">
        <ele>816</ele>
        <time>2019-03-30T10:37:48Z</time>
      </trkpt>
      <trkpt lat="44.93936" lon="3.25114">
        <ele>815</ele>
        <time>2019-03-30T10:37:50Z</time>
      </trkpt>
      <trkpt lat="44.93934" lon="3.2511">
        <ele>815</ele>
        <time>2019-03-30T10:37:52Z</time>
      </trkpt>
      <trkpt lat="44.93932" lon="3.25099">
        <ele>814</ele>
        <time>2019-03-30T10:37:56Z</time>
      </trkpt>
      <trkpt lat="44.93934" lon="3.25093">
        <ele>813</ele>
        <time>2019-03-30T10:37:59Z</time>
      </trkpt>
      <trkpt lat="44.93937" lon="3.2509">
        <ele>812</ele>
        <time>2019-03-30T10:38:03Z</time>
      </trkpt>
      <trkpt lat="44.9394" lon="3.25088">
        <ele>811</ele>
        <time>2019-03-30T10:38:06Z</time>
      </trkpt>
      <trkpt lat="44.93942" lon="3.25082">
        <ele>810</ele>
        <time>2019-03-30T10:38:09Z</time>
      </trkpt>
      <trkpt lat="44.93947" lon="3.25081">
        <ele>808</ele>
        <time>2019-03-30T10:38:16Z</time>
      </trkpt>
      <trkpt lat="44.93952" lon="3.25083">
        <ele>807</ele>
        <time>2019-03-30T10:38:20Z</time>
      </trkpt>
      <trkpt lat="44.93965" lon="3.25079">
        <ele>805</ele>
        <time>2019-03-30T10:38:27Z</time>
      </trkpt>
      <trkpt lat="44.93969" lon="3.25071">
        <ele>804</ele>
        <time>2019-03-30T10:38:31Z</time>
      </trkpt>
      <trkpt lat="44.9397" lon="3.2505">
        <ele>803</ele>
        <time>2019-03-30T10:38:37Z</time>
      </trkpt>
      <trkpt lat="44.93965" lon="3.25054">
        <ele>802</ele>
        <time>2019-03-30T10:38:49Z</time>
      </trkpt>
      <trkpt lat="44.93963" lon="3.25059">
        <ele>801</ele>
        <time>2019-03-30T10:38:53Z</time>
      </trkpt>
      <trkpt lat="44.93966" lon="3.25065">
        <ele>798</ele>
        <time>2019-03-30T10:39:17Z</time>
      </trkpt>
      <trkpt lat="44.93971" lon="3.25057">
        <ele>796</ele>
        <time>2019-03-30T10:39:35Z</time>
      </trkpt>
      <trkpt lat="44.93975" lon="3.25051">
        <ele>793</ele>
        <time>2019-03-30T10:39:39Z</time>
      </trkpt>
      <trkpt lat="44.93972" lon="3.25046">
        <ele>792</ele>
        <time>2019-03-30T10:39:47Z</time>
      </trkpt>
      <trkpt lat="44.93973" lon="3.25038">
        <ele>790</ele>
        <time>2019-03-30T10:40:01Z</time>
      </trkpt>
      <trkpt lat="44.93978" lon="3.25039">
        <ele>786</ele>
        <time>2019-03-30T10:41:03Z</time>
      </trkpt>
      <trkpt lat="44.93982" lon="3.2504">
        <ele>785</ele>
        <time>2019-03-30T10:41:15Z</time>
      </trkpt>
      <trkpt lat="44.93988" lon="3.25037">
        <ele>783</ele>
        <time>2019-03-30T10:41:22Z</time>
      </trkpt>
      <trkpt lat="44.9399" lon="3.25032">
        <ele>783</ele>
        <time>2019-03-30T10:41:25Z</time>
      </trkpt>
      <trkpt lat="44.93994" lon="3.25019">
        <ele>782</ele>
        <time>2019-03-30T10:41:33Z</time>
      </trkpt>
      <trkpt lat="44.93993" lon="3.25007">
        <ele>781</ele>
        <time>2019-03-30T10:41:42Z</time>
      </trkpt>
      <trkpt lat="44.93992" lon="3.24985">
        <ele>780</ele>
        <time>2019-03-30T10:41:51Z</time>
      </trkpt>
      <trkpt lat="44.93989" lon="3.24949">
        <ele>778</ele>
        <time>2019-03-30T10:42:04Z</time>
      </trkpt>
      <trkpt lat="44.93988" lon="3.24932">
        <ele>778</ele>
        <time>2019-03-30T10:42:10Z</time>
      </trkpt>
      <trkpt lat="44.93982" lon="3.24907">
        <ele>777</ele>
        <time>2019-03-30T10:42:20Z</time>
      </trkpt>
      <trkpt lat="44.93982" lon="3.24902">
        <ele>776</ele>
        <time>2019-03-30T10:42:23Z</time>
      </trkpt>
      <trkpt lat="44.93983" lon="3.24896">
        <ele>776</ele>
        <time>2019-03-30T10:42:26Z</time>
      </trkpt>
      <trkpt lat="44.93984" lon="3.24891">
        <ele>776</ele>
        <time>2019-03-30T10:42:29Z</time>
      </trkpt>
      <trkpt lat="44.93984" lon="3.24885">
        <ele>776</ele>
        <time>2019-03-30T10:42:31Z</time>
      </trkpt>
      <trkpt lat="44.93986" lon="3.24878">
        <ele>775</ele>
        <time>2019-03-30T10:42:34Z</time>
      </trkpt>
      <trkpt lat="44.93986" lon="3.24872">
        <ele>775</ele>
        <time>2019-03-30T10:42:37Z</time>
      </trkpt>
      <trkpt lat="44.9399" lon="3.24863">
        <ele>775</ele>
        <time>2019-03-30T10:42:42Z</time>
      </trkpt>
      <trkpt lat="44.94005" lon="3.24835">
        <ele>773</ele>
        <time>2019-03-30T10:42:57Z</time>
      </trkpt>
      <trkpt lat="44.94008" lon="3.24827">
        <ele>773</ele>
        <time>2019-03-30T10:43:00Z</time>
      </trkpt>
      <trkpt lat="44.94014" lon="3.24812">
        <ele>773</ele>
        <time>2019-03-30T10:43:07Z</time>
      </trkpt>
      <trkpt lat="44.94019" lon="3.24798">
        <ele>772</ele>
        <time>2019-03-30T10:43:13Z</time>
      </trkpt>
      <trkpt lat="44.94022" lon="3.2479">
        <ele>772</ele>
        <time>2019-03-30T10:43:17Z</time>
      </trkpt>
      <trkpt lat="44.94026" lon="3.24783">
        <ele>772</ele>
        <time>2019-03-30T10:43:22Z</time>
      </trkpt>
      <trkpt lat="44.94026" lon="3.24775">
        <ele>772</ele>
        <time>2019-03-30T10:43:29Z</time>
      </trkpt>
      <trkpt lat="44.94024" lon="3.24761">
        <ele>771</ele>
        <time>2019-03-30T10:43:35Z</time>
      </trkpt>
      <trkpt lat="44.94026" lon="3.2474">
        <ele>771</ele>
        <time>2019-03-30T10:43:41Z</time>
      </trkpt>
      <trkpt lat="44.94027" lon="3.24731">
        <ele>771</ele>
        <time>2019-03-30T10:43:45Z</time>
      </trkpt>
      <trkpt lat="44.94029" lon="3.24702">
        <ele>771</ele>
        <time>2019-03-30T10:43:56Z</time>
      </trkpt>
      <trkpt lat="44.9403" lon="3.24696">
        <ele>771</ele>
        <time>2019-03-30T10:43:58Z</time>
      </trkpt>
      <trkpt lat="44.94033" lon="3.24665">
        <ele>770</ele>
        <time>2019-03-30T10:44:11Z</time>
      </trkpt>
      <trkpt lat="44.94035" lon="3.2466">
        <ele>770</ele>
        <time>2019-03-30T10:44:14Z</time>
      </trkpt>
      <trkpt lat="44.94034" lon="3.24655">
        <ele>770</ele>
        <time>2019-03-30T10:44:17Z</time>
      </trkpt>
      <trkpt lat="44.94037" lon="3.24649">
        <ele>770</ele>
        <time>2019-03-30T10:44:21Z</time>
      </trkpt>
      <trkpt lat="44.94037" lon="3.24644">
        <ele>770</ele>
        <time>2019-03-30T10:44:24Z</time>
      </trkpt>
      <trkpt lat="44.94038" lon="3.24639">
        <ele>770</ele>
        <time>2019-03-30T10:44:26Z</time>
      </trkpt>
      <trkpt lat="44.94041" lon="3.24621">
        <ele>769</ele>
        <time>2019-03-30T10:44:32Z</time>
      </trkpt>
      <trkpt lat="44.94043" lon="3.24558">
        <ele>768</ele>
        <time>2019-03-30T10:45:01Z</time>
      </trkpt>
      <trkpt lat="44.94044" lon="3.24552">
        <ele>768</ele>
        <time>2019-03-30T10:45:04Z</time>
      </trkpt>
      <trkpt lat="44.94044" lon="3.24548">
        <ele>768</ele>
        <time>2019-03-30T10:45:07Z</time>
      </trkpt>
      <trkpt lat="44.94042" lon="3.24537">
        <ele>768</ele>
        <time>2019-03-30T10:45:11Z</time>
      </trkpt>
      <trkpt lat="44.9404" lon="3.24533">
        <ele>767</ele>
        <time>2019-03-30T10:45:13Z</time>
      </trkpt>
      <trkpt lat="44.94039" lon="3.24528">
        <ele>767</ele>
        <time>2019-03-30T10:45:15Z</time>
      </trkpt>
      <trkpt lat="44.94038" lon="3.24525">
        <ele>767</ele>
        <time>2019-03-30T10:45:17Z</time>
      </trkpt>
      <trkpt lat="44.94039" lon="3.2452">
        <ele>767</ele>
        <time>2019-03-30T10:45:23Z</time>
      </trkpt>
      <trkpt lat="44.94039" lon="3.24515">
        <ele>767</ele>
        <time>2019-03-30T10:45:25Z</time>
      </trkpt>
      <trkpt lat="44.94038" lon="3.245">
        <ele>766</ele>
        <time>2019-03-30T10:45:30Z</time>
      </trkpt>
      <trkpt lat="44.94038" lon="3.2448">
        <ele>766</ele>
        <time>2019-03-30T10:45:38Z</time>
      </trkpt>
      <trkpt lat="44.94037" lon="3.24475">
        <ele>766</ele>
        <time>2019-03-30T10:45:40Z</time>
      </trkpt>
      <trkpt lat="44.94035" lon="3.24466">
        <ele>766</ele>
        <time>2019-03-30T10:45:44Z</time>
      </trkpt>
      <trkpt lat="44.94035" lon="3.24462">
        <ele>766</ele>
        <time>2019-03-30T10:45:46Z</time>
      </trkpt>
      <trkpt lat="44.9403" lon="3.24447">
        <ele>765</ele>
        <time>2019-03-30T10:45:53Z</time>
      </trkpt>
      <trkpt lat="44.9403" lon="3.24443">
        <ele>765</ele>
        <time>2019-03-30T10:45:55Z</time>
      </trkpt>
      <trkpt lat="44.94029" lon="3.24433">
        <ele>765</ele>
        <time>2019-03-30T10:45:59Z</time>
      </trkpt>
      <trkpt lat="44.94027" lon="3.24428">
        <ele>765</ele>
        <time>2019-03-30T10:46:01Z</time>
      </trkpt>
      <trkpt lat="44.94023" lon="3.24408">
        <ele>764</ele>
        <time>2019-03-30T10:46:11Z</time>
      </trkpt>
      <trkpt lat="44.94022" lon="3.24404">
        <ele>764</ele>
        <time>2019-03-30T10:46:13Z</time>
      </trkpt>
      <trkpt lat="44.94019" lon="3.24398">
        <ele>764</ele>
        <time>2019-03-30T10:46:17Z</time>
      </trkpt>
      <trkpt lat="44.94017" lon="3.2439">
        <ele>764</ele>
        <time>2019-03-30T10:46:20Z</time>
      </trkpt>
      <trkpt lat="44.94016" lon="3.24384">
        <ele>764</ele>
        <time>2019-03-30T10:46:22Z</time>
      </trkpt>
      <trkpt lat="44.94016" lon="3.2438">
        <ele>764</ele>
        <time>2019-03-30T10:46:24Z</time>
      </trkpt>
      <trkpt lat="44.94013" lon="3.24369">
        <ele>764</ele>
        <time>2019-03-30T10:46:29Z</time>
      </trkpt>
      <trkpt lat="44.94012" lon="3.24364">
        <ele>763</ele>
        <time>2019-03-30T10:46:31Z</time>
      </trkpt>
      <trkpt lat="44.94011" lon="3.24348">
        <ele>763</ele>
        <time>2019-03-30T10:46:37Z</time>
      </trkpt>
      <trkpt lat="44.9401" lon="3.24343">
        <ele>763</ele>
        <time>2019-03-30T10:46:39Z</time>
      </trkpt>
      <trkpt lat="44.9401" lon="3.24337">
        <ele>763</ele>
        <time>2019-03-30T10:46:41Z</time>
      </trkpt>
      <trkpt lat="44.94009" lon="3.24332">
        <ele>763</ele>
        <time>2019-03-30T10:46:44Z</time>
      </trkpt>
      <trkpt lat="44.94009" lon="3.24327">
        <ele>763</ele>
        <time>2019-03-30T10:46:46Z</time>
      </trkpt>
      <trkpt lat="44.94008" lon="3.24322">
        <ele>763</ele>
        <time>2019-03-30T10:46:48Z</time>
      </trkpt>
      <trkpt lat="44.94008" lon="3.24318">
        <ele>763</ele>
        <time>2019-03-30T10:46:50Z</time>
      </trkpt>
      <trkpt lat="44.94006" lon="3.24307">
        <ele>763</ele>
        <time>2019-03-30T10:46:55Z</time>
      </trkpt>
      <trkpt lat="44.94005" lon="3.24295">
        <ele>763</ele>
        <time>2019-03-30T10:47:01Z</time>
      </trkpt>
      <trkpt lat="44.94003" lon="3.2429">
        <ele>763</ele>
        <time>2019-03-30T10:47:03Z</time>
      </trkpt>
      <trkpt lat="44.94002" lon="3.24286">
        <ele>763</ele>
        <time>2019-03-30T10:47:05Z</time>
      </trkpt>
      <trkpt lat="44.93999" lon="3.24272">
        <ele>762</ele>
        <time>2019-03-30T10:47:12Z</time>
      </trkpt>
      <trkpt lat="44.93997" lon="3.24262">
        <ele>762</ele>
        <time>2019-03-30T10:47:16Z</time>
      </trkpt>
      <trkpt lat="44.93995" lon="3.24257">
        <ele>762</ele>
        <time>2019-03-30T10:47:18Z</time>
      </trkpt>
      <trkpt lat="44.93986" lon="3.24229">
        <ele>762</ele>
        <time>2019-03-30T10:47:31Z</time>
      </trkpt>
      <trkpt lat="44.9398" lon="3.24213">
        <ele>762</ele>
        <time>2019-03-30T10:47:37Z</time>
      </trkpt>
      <trkpt lat="44.93973" lon="3.24191">
        <ele>762</ele>
        <time>2019-03-30T10:47:46Z</time>
      </trkpt>
      <trkpt lat="44.93962" lon="3.24161">
        <ele>761</ele>
        <time>2019-03-30T10:48:00Z</time>
      </trkpt>
      <trkpt lat="44.9396" lon="3.24157">
        <ele>761</ele>
        <time>2019-03-30T10:48:02Z</time>
      </trkpt>
      <trkpt lat="44.93959" lon="3.24154">
        <ele>761</ele>
        <time>2019-03-30T10:48:04Z</time>
      </trkpt>
      <trkpt lat="44.93957" lon="3.2415">
        <ele>761</ele>
        <time>2019-03-30T10:48:06Z</time>
      </trkpt>
      <trkpt lat="44.93928" lon="3.24101">
        <ele>761</ele>
        <time>2019-03-30T10:48:30Z</time>
      </trkpt>
      <trkpt lat="44.93926" lon="3.24096">
        <ele>761</ele>
        <time>2019-03-30T10:48:32Z</time>
      </trkpt>
      <trkpt lat="44.93924" lon="3.24079">
        <ele>760</ele>
        <time>2019-03-30T10:48:38Z</time>
      </trkpt>
      <trkpt lat="44.93923" lon="3.24074">
        <ele>760</ele>
        <time>2019-03-30T10:48:40Z</time>
      </trkpt>
      <trkpt lat="44.93917" lon="3.24056">
        <ele>760</ele>
        <time>2019-03-30T10:48:49Z</time>
      </trkpt>
      <trkpt lat="44.93913" lon="3.24047">
        <ele>760</ele>
        <time>2019-03-30T10:48:53Z</time>
      </trkpt>
      <trkpt lat="44.93909" lon="3.24039">
        <ele>760</ele>
        <time>2019-03-30T10:48:57Z</time>
      </trkpt>
      <trkpt lat="44.93906" lon="3.24034">
        <ele>760</ele>
        <time>2019-03-30T10:48:59Z</time>
      </trkpt>
      <trkpt lat="44.93901" lon="3.24026">
        <ele>760</ele>
        <time>2019-03-30T10:49:03Z</time>
      </trkpt>
      <trkpt lat="44.93899" lon="3.24024">
        <ele>760</ele>
        <time>2019-03-30T10:49:05Z</time>
      </trkpt>
      <trkpt lat="44.93896" lon="3.24025">
        <ele>759</ele>
        <time>2019-03-30T10:49:09Z</time>
      </trkpt>
      <trkpt lat="44.93893" lon="3.24025">
        <ele>759</ele>
        <time>2019-03-30T10:49:11Z</time>
      </trkpt>
      <trkpt lat="44.9389" lon="3.24021">
        <ele>759</ele>
        <time>2019-03-30T10:49:13Z</time>
      </trkpt>
      <trkpt lat="44.93881" lon="3.23992">
        <ele>759</ele>
        <time>2019-03-30T10:49:25Z</time>
      </trkpt>
      <trkpt lat="44.9388" lon="3.23988">
        <ele>759</ele>
        <time>2019-03-30T10:49:27Z</time>
      </trkpt>
      <trkpt lat="44.93879" lon="3.23973">
        <ele>759</ele>
        <time>2019-03-30T10:49:34Z</time>
      </trkpt>
      <trkpt lat="44.93877" lon="3.23955">
        <ele>758</ele>
        <time>2019-03-30T10:49:42Z</time>
      </trkpt>
      <trkpt lat="44.93877" lon="3.23922">
        <ele>758</ele>
        <time>2019-03-30T10:49:55Z</time>
      </trkpt>
      <trkpt lat="44.93879" lon="3.23879">
        <ele>758</ele>
        <time>2019-03-30T10:50:13Z</time>
      </trkpt>
      <trkpt lat="44.93884" lon="3.23823">
        <ele>757</ele>
        <time>2019-03-30T10:50:35Z</time>
      </trkpt>
      <trkpt lat="44.93885" lon="3.23819">
        <ele>757</ele>
        <time>2019-03-30T10:50:38Z</time>
      </trkpt>
      <trkpt lat="44.93885" lon="3.23815">
        <ele>757</ele>
        <time>2019-03-30T10:50:40Z</time>
      </trkpt>
      <trkpt lat="44.93878" lon="3.23784">
        <ele>757</ele>
        <time>2019-03-30T10:50:55Z</time>
      </trkpt>
      <trkpt lat="44.93876" lon="3.23779">
        <ele>757</ele>
        <time>2019-03-30T10:50:58Z</time>
      </trkpt>
      <trkpt lat="44.93876" lon="3.23759">
        <ele>756</ele>
        <time>2019-03-30T10:51:07Z</time>
      </trkpt>
      <trkpt lat="44.93876" lon="3.23751">
        <ele>756</ele>
        <time>2019-03-30T10:51:10Z</time>
      </trkpt>
      <trkpt lat="44.93877" lon="3.23729">
        <ele>756</ele>
        <time>2019-03-30T10:51:22Z</time>
      </trkpt>
      <trkpt lat="44.93878" lon="3.23725">
        <ele>756</ele>
        <time>2019-03-30T10:51:24Z</time>
      </trkpt>
      <trkpt lat="44.93877" lon="3.2372">
        <ele>756</ele>
        <time>2019-03-30T10:51:26Z</time>
      </trkpt>
      <trkpt lat="44.93877" lon="3.23711">
        <ele>756</ele>
        <time>2019-03-30T10:51:30Z</time>
      </trkpt>
      <trkpt lat="44.93891" lon="3.23652">
        <ele>756</ele>
        <time>2019-03-30T10:52:00Z</time>
      </trkpt>
      <trkpt lat="44.93894" lon="3.23614">
        <ele>756</ele>
        <time>2019-03-30T10:52:18Z</time>
      </trkpt>
      <trkpt lat="44.93894" lon="3.23604">
        <ele>756</ele>
        <time>2019-03-30T10:52:22Z</time>
      </trkpt>
      <trkpt lat="44.93893" lon="3.23592">
        <ele>756</ele>
        <time>2019-03-30T10:52:27Z</time>
      </trkpt>
      <trkpt lat="44.93888" lon="3.23569">
        <ele>755</ele>
        <time>2019-03-30T10:52:37Z</time>
      </trkpt>
      <trkpt lat="44.93885" lon="3.23525">
        <ele>755</ele>
        <time>2019-03-30T10:53:00Z</time>
      </trkpt>
      <trkpt lat="44.93884" lon="3.23514">
        <ele>755</ele>
        <time>2019-03-30T10:53:06Z</time>
      </trkpt>
      <trkpt lat="44.93879" lon="3.2345">
        <ele>755</ele>
        <time>2019-03-30T10:53:33Z</time>
      </trkpt>
      <trkpt lat="44.93876" lon="3.2344">
        <ele>755</ele>
        <time>2019-03-30T10:53:37Z</time>
      </trkpt>
      <trkpt lat="44.93875" lon="3.234">
        <ele>754</ele>
        <time>2019-03-30T10:53:53Z</time>
      </trkpt>
      <trkpt lat="44.93877" lon="3.23391">
        <ele>754</ele>
        <time>2019-03-30T10:53:57Z</time>
      </trkpt>
      <trkpt lat="44.93877" lon="3.23386">
        <ele>754</ele>
        <time>2019-03-30T10:53:59Z</time>
      </trkpt>
      <trkpt lat="44.9388" lon="3.23362">
        <ele>754</ele>
        <time>2019-03-30T10:54:09Z</time>
      </trkpt>
      <trkpt lat="44.93895" lon="3.23331">
        <ele>754</ele>
        <time>2019-03-30T10:54:26Z</time>
      </trkpt>
      <trkpt lat="44.93911" lon="3.23309">
        <ele>754</ele>
        <time>2019-03-30T10:54:39Z</time>
      </trkpt>
      <trkpt lat="44.93923" lon="3.23291">
        <ele>754</ele>
        <time>2019-03-30T10:54:49Z</time>
      </trkpt>
      <trkpt lat="44.93924" lon="3.23286">
        <ele>754</ele>
        <time>2019-03-30T10:54:51Z</time>
      </trkpt>
      <trkpt lat="44.93933" lon="3.2327">
        <ele>753</ele>
        <time>2019-03-30T10:55:02Z</time>
      </trkpt>
      <trkpt lat="44.93937" lon="3.23262">
        <ele>753</ele>
        <time>2019-03-30T10:55:20Z</time>
      </trkpt>
      <trkpt lat="44.9394" lon="3.23255">
        <ele>753</ele>
        <time>2019-03-30T10:55:25Z</time>
      </trkpt>
      <trkpt lat="44.93943" lon="3.23252">
        <ele>753</ele>
        <time>2019-03-30T10:55:28Z</time>
      </trkpt>
      <trkpt lat="44.93955" lon="3.23243">
        <ele>753</ele>
        <time>2019-03-30T10:55:40Z</time>
      </trkpt>
      <trkpt lat="44.93957" lon="3.23246">
        <ele>753</ele>
        <time>2019-03-30T10:55:44Z</time>
      </trkpt>
      <trkpt lat="44.93962" lon="3.23238">
        <ele>753</ele>
        <time>2019-03-30T10:55:52Z</time>
      </trkpt>
      <trkpt lat="44.93963" lon="3.23242">
        <ele>753</ele>
        <time>2019-03-30T10:56:05Z</time>
      </trkpt>
      <trkpt lat="44.93967" lon="3.23239">
        <ele>753</ele>
        <time>2019-03-30T10:56:15Z</time>
      </trkpt>
      <trkpt lat="44.93971" lon="3.2324">
        <ele>753</ele>
        <time>2019-03-30T10:56:17Z</time>
      </trkpt>
      <trkpt lat="44.93974" lon="3.23242">
        <ele>752</ele>
        <time>2019-03-30T10:56:20Z</time>
      </trkpt>
      <trkpt lat="44.93976" lon="3.23245">
        <ele>752</ele>
        <time>2019-03-30T10:56:24Z</time>
      </trkpt>
      <trkpt lat="44.9398" lon="3.23247">
        <ele>752</ele>
        <time>2019-03-30T10:56:27Z</time>
      </trkpt>
      <trkpt lat="44.93982" lon="3.23248">
        <ele>752</ele>
        <time>2019-03-30T10:56:29Z</time>
      </trkpt>
      <trkpt lat="44.93985" lon="3.2325">
        <ele>752</ele>
        <time>2019-03-30T10:56:34Z</time>
      </trkpt>
      <trkpt lat="44.93988" lon="3.23252">
        <ele>752</ele>
        <time>2019-03-30T10:56:38Z</time>
      </trkpt>
      <trkpt lat="44.9399" lon="3.23251">
        <ele>752</ele>
        <time>2019-03-30T10:56:44Z</time>
      </trkpt>
      <trkpt lat="44.93989" lon="3.23253">
        <ele>752</ele>
        <time>2019-03-30T10:57:12Z</time>
      </trkpt>
      <trkpt lat="44.9399" lon="3.23243">
        <ele>752</ele>
        <time>2019-03-30T10:57:15Z</time>
      </trkpt>
      <trkpt lat="44.93992" lon="3.23237">
        <ele>752</ele>
        <time>2019-03-30T10:57:19Z</time>
      </trkpt>
      <trkpt lat="44.93991" lon="3.2323">
        <ele>752</ele>
        <time>2019-03-30T10:57:22Z</time>
      </trkpt>
      <trkpt lat="44.93988" lon="3.23234">
        <ele>751</ele>
        <time>2019-03-30T10:57:32Z</time>
      </trkpt>
      <trkpt lat="44.93989" lon="3.2324">
        <ele>751</ele>
        <time>2019-03-30T10:57:35Z</time>
      </trkpt>
      <trkpt lat="44.93986" lon="3.23243">
        <ele>751</ele>
        <time>2019-03-30T10:58:10Z</time>
      </trkpt>
      <trkpt lat="44.93984" lon="3.23237">
        <ele>751</ele>
        <time>2019-03-30T10:58:13Z</time>
      </trkpt>
      <trkpt lat="44.93985" lon="3.23236">
        <ele>751</ele>
        <time>2019-03-30T10:58:39Z</time>
      </trkpt>
      <trkpt lat="44.93986" lon="3.23241">
        <ele>751</ele>
        <time>2019-03-30T10:58:43Z</time>
      </trkpt>
      <trkpt lat="44.93989" lon="3.23246">
        <ele>751</ele>
        <time>2019-03-30T10:58:46Z</time>
      </trkpt>
      <trkpt lat="44.93991" lon="3.23246">
        <ele>750</ele>
        <time>2019-03-30T10:59:32Z</time>
      </trkpt>
      <trkpt lat="44.93989" lon="3.2324">
        <ele>750</ele>
        <time>2019-03-30T10:59:38Z</time>
      </trkpt>
      <trkpt lat="44.93987" lon="3.23235">
        <ele>750</ele>
        <time>2019-03-30T10:59:42Z</time>
      </trkpt>
      <trkpt lat="44.93991" lon="3.23234">
        <ele>750</ele>
        <time>2019-03-30T10:59:49Z</time>
      </trkpt>
    </trkseg>
  </trk>
  <trk>
    <name><![CDATA[20190331153635-7HZZe]]></name>
    <trkseg>
      <trkpt lat="44.9399" lon="3.23228">
        <ele>740</ele>
        <time>2019-03-30T14:44:26Z</time>
      </trkpt>
      <trkpt lat="44.9399" lon="3.23228">
        <ele>740</ele>
        <time>2019-03-30T14:44:26Z</time>
      </trkpt>
      <trkpt lat="44.9399" lon="3.23228">
        <ele>740</ele>
        <time>2019-03-30T14:44:27Z</time>
      </trkpt>
      <trkpt lat="44.93989" lon="3.23234">
        <ele>741</ele>
        <time>2019-03-30T14:44:35Z</time>
      </trkpt>
      <trkpt lat="44.93985" lon="3.23231">
        <ele>740</ele>
        <time>2019-03-30T14:44:44Z</time>
      </trkpt>
      <trkpt lat="44.93984" lon="3.23235">
        <ele>739</ele>
        <time>2019-03-30T14:45:02Z</time>
      </trkpt>
      <trkpt lat="44.93981" lon="3.2324">
        <ele>739</ele>
        <time>2019-03-30T14:45:52Z</time>
      </trkpt>
      <trkpt lat="44.93978" lon="3.23241">
        <ele>739</ele>
        <time>2019-03-30T14:45:55Z</time>
      </trkpt>
      <trkpt lat="44.9397" lon="3.23248">
        <ele>739</ele>
        <time>2019-03-30T14:46:26Z</time>
      </trkpt>
      <trkpt lat="44.93976" lon="3.23246">
        <ele>738</ele>
        <time>2019-03-30T14:46:39Z</time>
      </trkpt>
      <trkpt lat="44.93981" lon="3.23244">
        <ele>738</ele>
        <time>2019-03-30T14:46:42Z</time>
      </trkpt>
      <trkpt lat="44.93986" lon="3.23245">
        <ele>738</ele>
        <time>2019-03-30T14:46:46Z</time>
      </trkpt>
      <trkpt lat="44.93994" lon="3.23266">
        <ele>738</ele>
        <time>2019-03-30T14:46:58Z</time>
      </trkpt>
      <trkpt lat="44.93994" lon="3.23272">
        <ele>738</ele>
        <time>2019-03-30T14:47:01Z</time>
      </trkpt>
      <trkpt lat="44.93999" lon="3.23282">
        <ele>738</ele>
        <time>2019-03-30T14:47:07Z</time>
      </trkpt>
      <trkpt lat="44.94002" lon="3.23287">
        <ele>738</ele>
        <time>2019-03-30T14:47:10Z</time>
      </trkpt>
      <trkpt lat="44.94008" lon="3.23297">
        <ele>738</ele>
        <time>2019-03-30T14:47:17Z</time>
      </trkpt>
      <trkpt lat="44.94012" lon="3.23301">
        <ele>738</ele>
        <time>2019-03-30T14:47:20Z</time>
      </trkpt>
      <trkpt lat="44.94014" lon="3.23307">
        <ele>738</ele>
        <time>2019-03-30T14:47:23Z</time>
      </trkpt>
      <trkpt lat="44.94017" lon="3.23312">
        <ele>738</ele>
        <time>2019-03-30T14:47:26Z</time>
      </trkpt>
      <trkpt lat="44.94021" lon="3.23315">
        <ele>738</ele>
        <time>2019-03-30T14:47:29Z</time>
      </trkpt>
      <trkpt lat="44.9403" lon="3.23321">
        <ele>737</ele>
        <time>2019-03-30T14:47:35Z</time>
      </trkpt>
      <trkpt lat="44.94033" lon="3.23324">
        <ele>737</ele>
        <time>2019-03-30T14:47:38Z</time>
      </trkpt>
      <trkpt lat="44.94036" lon="3.23328">
        <ele>737</ele>
        <time>2019-03-30T14:47:41Z</time>
      </trkpt>
      <trkpt lat="44.94048" lon="3.23336">
        <ele>737</ele>
        <time>2019-03-30T14:47:49Z</time>
      </trkpt>
      <trkpt lat="44.9406" lon="3.23343">
        <ele>737</ele>
        <time>2019-03-30T14:48:00Z</time>
      </trkpt>
      <trkpt lat="44.94084" lon="3.23341">
        <ele>737</ele>
        <time>2019-03-30T14:48:17Z</time>
      </trkpt>
      <trkpt lat="44.94103" lon="3.23327">
        <ele>736</ele>
        <time>2019-03-30T14:48:33Z</time>
      </trkpt>
      <trkpt lat="44.94114" lon="3.23319">
        <ele>736</ele>
        <time>2019-03-30T14:48:42Z</time>
      </trkpt>
      <trkpt lat="44.94121" lon="3.23315">
        <ele>735</ele>
        <time>2019-03-30T14:48:47Z</time>
      </trkpt>
      <trkpt lat="44.94129" lon="3.2332">
        <ele>735</ele>
        <time>2019-03-30T14:48:53Z</time>
      </trkpt>
      <trkpt lat="44.94133" lon="3.23322">
        <ele>735</ele>
        <time>2019-03-30T14:48:55Z</time>
      </trkpt>
      <trkpt lat="44.94153" lon="3.23356">
        <ele>735</ele>
        <time>2019-03-30T14:49:19Z</time>
      </trkpt>
      <trkpt lat="44.94156" lon="3.2336">
        <ele>734</ele>
        <time>2019-03-30T14:49:26Z</time>
      </trkpt>
      <trkpt lat="44.94165" lon="3.23365">
        <ele>734</ele>
        <time>2019-03-30T14:49:35Z</time>
      </trkpt>
      <trkpt lat="44.94169" lon="3.23366">
        <ele>734</ele>
        <time>2019-03-30T14:49:45Z</time>
      </trkpt>
      <trkpt lat="44.94175" lon="3.23365">
        <ele>734</ele>
        <time>2019-03-30T14:49:53Z</time>
      </trkpt>
      <trkpt lat="44.94177" lon="3.23369">
        <ele>734</ele>
        <time>2019-03-30T14:49:57Z</time>
      </trkpt>
      <trkpt lat="44.94176" lon="3.23374">
        <ele>734</ele>
        <time>2019-03-30T14:50:05Z</time>
      </trkpt>
      <trkpt lat="44.94201" lon="3.23375">
        <ele>734</ele>
        <time>2019-03-30T14:50:25Z</time>
      </trkpt>
      <trkpt lat="44.94206" lon="3.23375">
        <ele>734</ele>
        <time>2019-03-30T14:50:28Z</time>
      </trkpt>
      <trkpt lat="44.94213" lon="3.23374">
        <ele>734</ele>
        <time>2019-03-30T14:50:32Z</time>
      </trkpt>
      <trkpt lat="44.94234" lon="3.23376">
        <ele>734</ele>
        <time>2019-03-30T14:50:44Z</time>
      </trkpt>
      <trkpt lat="44.94243" lon="3.23377">
        <ele>734</ele>
        <time>2019-03-30T14:50:50Z</time>
      </trkpt>
      <trkpt lat="44.94248" lon="3.23378">
        <ele>734</ele>
        <time>2019-03-30T14:50:53Z</time>
      </trkpt>
      <trkpt lat="44.94262" lon="3.23378">
        <ele>734</ele>
        <time>2019-03-30T14:51:04Z</time>
      </trkpt>
      <trkpt lat="44.94272" lon="3.23382">
        <ele>734</ele>
        <time>2019-03-30T14:51:10Z</time>
      </trkpt>
      <trkpt lat="44.9428" lon="3.23384">
        <ele>734</ele>
        <time>2019-03-30T14:51:17Z</time>
      </trkpt>
      <trkpt lat="44.94301" lon="3.23394">
        <ele>734</ele>
        <time>2019-03-30T14:51:31Z</time>
      </trkpt>
      <trkpt lat="44.94309" lon="3.23401">
        <ele>734</ele>
        <time>2019-03-30T14:51:35Z</time>
      </trkpt>
      <trkpt lat="44.94312" lon="3.23416">
        <ele>734</ele>
        <time>2019-03-30T14:51:39Z</time>
      </trkpt>
      <trkpt lat="44.94312" lon="3.23424">
        <ele>734</ele>
        <time>2019-03-30T14:51:41Z</time>
      </trkpt>
      <trkpt lat="44.94312" lon="3.23455">
        <ele>735</ele>
        <time>2019-03-30T14:51:55Z</time>
      </trkpt>
      <trkpt lat="44.94308" lon="3.23456">
        <ele>735</ele>
        <time>2019-03-30T14:52:07Z</time>
      </trkpt>
      <trkpt lat="44.94308" lon="3.23441">
        <ele>735</ele>
        <time>2019-03-30T14:52:13Z</time>
      </trkpt>
      <trkpt lat="44.94309" lon="3.2344">
        <ele>735</ele>
        <time>2019-03-30T14:52:24Z</time>
      </trkpt>
      <trkpt lat="44.9431" lon="3.23446">
        <ele>735</ele>
        <time>2019-03-30T14:52:33Z</time>
      </trkpt>
      <trkpt lat="44.94313" lon="3.2345">
        <ele>735</ele>
        <time>2019-03-30T14:52:38Z</time>
      </trkpt>
      <trkpt lat="44.9431" lon="3.23455">
        <ele>735</ele>
        <time>2019-03-30T14:52:42Z</time>
      </trkpt>
      <trkpt lat="44.94305" lon="3.23458">
        <ele>735</ele>
        <time>2019-03-30T14:52:44Z</time>
      </trkpt>
      <trkpt lat="44.94209" lon="3.23443">
        <ele>736</ele>
        <time>2019-03-30T14:53:14Z</time>
      </trkpt>
      <trkpt lat="44.94199" lon="3.23453">
        <ele>736</ele>
        <time>2019-03-30T14:53:20Z</time>
      </trkpt>
      <trkpt lat="44.94194" lon="3.23456">
        <ele>736</ele>
        <time>2019-03-30T14:53:23Z</time>
      </trkpt>
      <trkpt lat="44.94191" lon="3.23459">
        <ele>736</ele>
        <time>2019-03-30T14:53:26Z</time>
      </trkpt>
      <trkpt lat="44.94184" lon="3.23469">
        <ele>736</ele>
        <time>2019-03-30T14:53:32Z</time>
      </trkpt>
      <trkpt lat="44.94182" lon="3.23473">
        <ele>736</ele>
        <time>2019-03-30T14:53:34Z</time>
      </trkpt>
      <trkpt lat="44.94177" lon="3.23475">
        <ele>736</ele>
        <time>2019-03-30T14:53:37Z</time>
      </trkpt>
      <trkpt lat="44.94176" lon="3.23481">
        <ele>736</ele>
        <time>2019-03-30T14:53:41Z</time>
      </trkpt>
      <trkpt lat="44.94174" lon="3.23487">
        <ele>736</ele>
        <time>2019-03-30T14:53:44Z</time>
      </trkpt>
      <trkpt lat="44.94175" lon="3.23493">
        <ele>736</ele>
        <time>2019-03-30T14:53:48Z</time>
      </trkpt>
      <trkpt lat="44.94176" lon="3.23498">
        <ele>736</ele>
        <time>2019-03-30T14:53:53Z</time>
      </trkpt>
      <trkpt lat="44.94197" lon="3.23507">
        <ele>736</ele>
        <time>2019-03-30T14:54:10Z</time>
      </trkpt>
      <trkpt lat="44.942" lon="3.23508">
        <ele>736</ele>
        <time>2019-03-30T14:54:12Z</time>
      </trkpt>
      <trkpt lat="44.94208" lon="3.23509">
        <ele>736</ele>
        <time>2019-03-30T14:54:16Z</time>
      </trkpt>
      <trkpt lat="44.94217" lon="3.23511">
        <ele>737</ele>
        <time>2019-03-30T14:54:22Z</time>
      </trkpt>
      <trkpt lat="44.94217" lon="3.23513">
        <ele>737</ele>
        <time>2019-03-30T14:54:31Z</time>
      </trkpt>
      <trkpt lat="44.94179" lon="3.23505">
        <ele>737</ele>
        <time>2019-03-30T14:54:54Z</time>
      </trkpt>
      <trkpt lat="44.94175" lon="3.23505">
        <ele>737</ele>
        <time>2019-03-30T14:54:58Z</time>
      </trkpt>
      <trkpt lat="44.94169" lon="3.23505">
        <ele>738</ele>
        <time>2019-03-30T14:55:01Z</time>
      </trkpt>
      <trkpt lat="44.94164" lon="3.23504">
        <ele>738</ele>
        <time>2019-03-30T14:55:05Z</time>
      </trkpt>
      <trkpt lat="44.94151" lon="3.23496">
        <ele>738</ele>
        <time>2019-03-30T14:55:15Z</time>
      </trkpt>
      <trkpt lat="44.94146" lon="3.23493">
        <ele>738</ele>
        <time>2019-03-30T14:55:18Z</time>
      </trkpt>
      <trkpt lat="44.94141" lon="3.2349">
        <ele>738</ele>
        <time>2019-03-30T14:55:21Z</time>
      </trkpt>
      <trkpt lat="44.94138" lon="3.23486">
        <ele>738</ele>
        <time>2019-03-30T14:55:23Z</time>
      </trkpt>
      <trkpt lat="44.94137" lon="3.23473">
        <ele>738</ele>
        <time>2019-03-30T14:55:28Z</time>
      </trkpt>
      <trkpt lat="44.94136" lon="3.23468">
        <ele>738</ele>
        <time>2019-03-30T14:55:30Z</time>
      </trkpt>
      <trkpt lat="44.94134" lon="3.23463">
        <ele>738</ele>
        <time>2019-03-30T14:55:32Z</time>
      </trkpt>
      <trkpt lat="44.94131" lon="3.23454">
        <ele>738</ele>
        <time>2019-03-30T14:55:36Z</time>
      </trkpt>
      <trkpt lat="44.94129" lon="3.2345">
        <ele>738</ele>
        <time>2019-03-30T14:55:38Z</time>
      </trkpt>
      <trkpt lat="44.94127" lon="3.23446">
        <ele>739</ele>
        <time>2019-03-30T14:55:42Z</time>
      </trkpt>
      <trkpt lat="44.94132" lon="3.23433">
        <ele>739</ele>
        <time>2019-03-30T14:55:49Z</time>
      </trkpt>
      <trkpt lat="44.94132" lon="3.23413">
        <ele>739</ele>
        <time>2019-03-30T14:55:57Z</time>
      </trkpt>
      <trkpt lat="44.94131" lon="3.23408">
        <ele>739</ele>
        <time>2019-03-30T14:55:59Z</time>
      </trkpt>
      <trkpt lat="44.9413" lon="3.23404">
        <ele>739</ele>
        <time>2019-03-30T14:56:01Z</time>
      </trkpt>
      <trkpt lat="44.94132" lon="3.23401">
        <ele>739</ele>
        <time>2019-03-30T14:56:03Z</time>
      </trkpt>
      <trkpt lat="44.94133" lon="3.23397">
        <ele>739</ele>
        <time>2019-03-30T14:56:05Z</time>
      </trkpt>
      <trkpt lat="44.94131" lon="3.23393">
        <ele>739</ele>
        <time>2019-03-30T14:56:07Z</time>
      </trkpt>
      <trkpt lat="44.94128" lon="3.2339">
        <ele>739</ele>
        <time>2019-03-30T14:56:10Z</time>
      </trkpt>
      <trkpt lat="44.94121" lon="3.23376">
        <ele>740</ele>
        <time>2019-03-30T14:56:17Z</time>
      </trkpt>
      <trkpt lat="44.94119" lon="3.23373">
        <ele>740</ele>
        <time>2019-03-30T14:56:19Z</time>
      </trkpt>
      <trkpt lat="44.94116" lon="3.23372">
        <ele>740</ele>
        <time>2019-03-30T14:56:22Z</time>
      </trkpt>
      <trkpt lat="44.94113" lon="3.23367">
        <ele>740</ele>
        <time>2019-03-30T14:56:25Z</time>
      </trkpt>
      <trkpt lat="44.94114" lon="3.23363">
        <ele>740</ele>
        <time>2019-03-30T14:56:27Z</time>
      </trkpt>
      <trkpt lat="44.94116" lon="3.23359">
        <ele>740</ele>
        <time>2019-03-30T14:56:30Z</time>
      </trkpt>
      <trkpt lat="44.94116" lon="3.23355">
        <ele>740</ele>
        <time>2019-03-30T14:56:32Z</time>
      </trkpt>
      <trkpt lat="44.9411" lon="3.23346">
        <ele>740</ele>
        <time>2019-03-30T14:56:37Z</time>
      </trkpt>
      <trkpt lat="44.94107" lon="3.23342">
        <ele>740</ele>
        <time>2019-03-30T14:56:39Z</time>
      </trkpt>
      <trkpt lat="44.94076" lon="3.2335">
        <ele>741</ele>
        <time>2019-03-30T14:57:02Z</time>
      </trkpt>
      <trkpt lat="44.94072" lon="3.23352">
        <ele>741</ele>
        <time>2019-03-30T14:57:04Z</time>
      </trkpt>
      <trkpt lat="44.9407" lon="3.23356">
        <ele>741</ele>
        <time>2019-03-30T14:57:06Z</time>
      </trkpt>
      <trkpt lat="44.94068" lon="3.23366">
        <ele>741</ele>
        <time>2019-03-30T14:57:10Z</time>
      </trkpt>
      <trkpt lat="44.94065" lon="3.23375">
        <ele>741</ele>
        <time>2019-03-30T14:57:14Z</time>
      </trkpt>
      <trkpt lat="44.94065" lon="3.23385">
        <ele>741</ele>
        <time>2019-03-30T14:57:18Z</time>
      </trkpt>
      <trkpt lat="44.94066" lon="3.23394">
        <ele>741</ele>
        <time>2019-03-30T14:57:21Z</time>
      </trkpt>
      <trkpt lat="44.94066" lon="3.23398">
        <ele>741</ele>
        <time>2019-03-30T14:57:22Z</time>
      </trkpt>
      <trkpt lat="44.94068" lon="3.23411">
        <ele>741</ele>
        <time>2019-03-30T14:57:25Z</time>
      </trkpt>
      <trkpt lat="44.94069" lon="3.23422">
        <ele>741</ele>
        <time>2019-03-30T14:57:29Z</time>
      </trkpt>
      <trkpt lat="44.94071" lon="3.23434">
        <ele>741</ele>
        <time>2019-03-30T14:57:33Z</time>
      </trkpt>
      <trkpt lat="44.94074" lon="3.23441">
        <ele>741</ele>
        <time>2019-03-30T14:57:35Z</time>
      </trkpt>
      <trkpt lat="44.94076" lon="3.23445">
        <ele>741</ele>
        <time>2019-03-30T14:57:36Z</time>
      </trkpt>
      <trkpt lat="44.94082" lon="3.23462">
        <ele>741</ele>
        <time>2019-03-30T14:57:41Z</time>
      </trkpt>
      <trkpt lat="44.94094" lon="3.23472">
        <ele>741</ele>
        <time>2019-03-30T14:57:46Z</time>
      </trkpt>
      <trkpt lat="44.94115" lon="3.23511">
        <ele>740</ele>
        <time>2019-03-30T14:57:56Z</time>
      </trkpt>
      <trkpt lat="44.94123" lon="3.23527">
        <ele>740</ele>
        <time>2019-03-30T14:58:00Z</time>
      </trkpt>
      <trkpt lat="44.94161" lon="3.23539">
        <ele>740</ele>
        <time>2019-03-30T14:58:12Z</time>
      </trkpt>
      <trkpt lat="44.9417" lon="3.23542">
        <ele>740</ele>
        <time>2019-03-30T14:58:16Z</time>
      </trkpt>
      <trkpt lat="44.94179" lon="3.23545">
        <ele>740</ele>
        <time>2019-03-30T14:58:20Z</time>
      </trkpt>
      <trkpt lat="44.94183" lon="3.23546">
        <ele>740</ele>
        <time>2019-03-30T14:58:22Z</time>
      </trkpt>
      <trkpt lat="44.94188" lon="3.23544">
        <ele>741</ele>
        <time>2019-03-30T14:58:24Z</time>
      </trkpt>
      <trkpt lat="44.94191" lon="3.2354">
        <ele>741</ele>
        <time>2019-03-30T14:58:27Z</time>
      </trkpt>
      <trkpt lat="44.94195" lon="3.23536">
        <ele>741</ele>
        <time>2019-03-30T14:58:31Z</time>
      </trkpt>
      <trkpt lat="44.942" lon="3.23535">
        <ele>741</ele>
        <time>2019-03-30T14:58:33Z</time>
      </trkpt>
      <trkpt lat="44.94202" lon="3.23541">
        <ele>741</ele>
        <time>2019-03-30T14:58:36Z</time>
      </trkpt>
      <trkpt lat="44.94202" lon="3.23547">
        <ele>741</ele>
        <time>2019-03-30T14:58:38Z</time>
      </trkpt>
      <trkpt lat="44.94205" lon="3.23552">
        <ele>741</ele>
        <time>2019-03-30T14:58:40Z</time>
      </trkpt>
      <trkpt lat="44.94208" lon="3.23555">
        <ele>741</ele>
        <time>2019-03-30T14:58:42Z</time>
      </trkpt>
      <trkpt lat="44.94212" lon="3.23559">
        <ele>741</ele>
        <time>2019-03-30T14:58:45Z</time>
      </trkpt>
      <trkpt lat="44.94226" lon="3.23564">
        <ele>741</ele>
        <time>2019-03-30T14:58:52Z</time>
      </trkpt>
      <trkpt lat="44.94231" lon="3.23564">
        <ele>741</ele>
        <time>2019-03-30T14:58:54Z</time>
      </trkpt>
      <trkpt lat="44.9424" lon="3.23566">
        <ele>741</ele>
        <time>2019-03-30T14:58:58Z</time>
      </trkpt>
      <trkpt lat="44.94244" lon="3.23569">
        <ele>741</ele>
        <time>2019-03-30T14:59:00Z</time>
      </trkpt>
      <trkpt lat="44.94247" lon="3.2357">
        <ele>741</ele>
        <time>2019-03-30T14:59:02Z</time>
      </trkpt>
      <trkpt lat="44.94257" lon="3.23572">
        <ele>741</ele>
        <time>2019-03-30T14:59:08Z</time>
      </trkpt>
      <trkpt lat="44.94261" lon="3.23572">
        <ele>741</ele>
        <time>2019-03-30T14:59:10Z</time>
      </trkpt>
      <trkpt lat="44.94265" lon="3.23574">
        <ele>741</ele>
        <time>2019-03-30T14:59:12Z</time>
      </trkpt>
      <trkpt lat="44.94269" lon="3.23575">
        <ele>741</ele>
        <time>2019-03-30T14:59:14Z</time>
      </trkpt>
      <trkpt lat="44.9428" lon="3.23578">
        <ele>741</ele>
        <time>2019-03-30T14:59:19Z</time>
      </trkpt>
      <trkpt lat="44.9429" lon="3.23585">
        <ele>742</ele>
        <time>2019-03-30T14:59:25Z</time>
      </trkpt>
      <trkpt lat="44.94294" lon="3.23587">
        <ele>742</ele>
        <time>2019-03-30T14:59:27Z</time>
      </trkpt>
      <trkpt lat="44.94308" lon="3.23591">
        <ele>743</ele>
        <time>2019-03-30T14:59:34Z</time>
      </trkpt>
      <trkpt lat="44.9432" lon="3.23602">
        <ele>744</ele>
        <time>2019-03-30T14:59:40Z</time>
      </trkpt>
      <trkpt lat="44.94326" lon="3.23607">
        <ele>745</ele>
        <time>2019-03-30T14:59:43Z</time>
      </trkpt>
      <trkpt lat="44.94338" lon="3.23606">
        <ele>746</ele>
        <time>2019-03-30T14:59:49Z</time>
      </trkpt>
      <trkpt lat="44.94351" lon="3.23607">
        <ele>747</ele>
        <time>2019-03-30T14:59:56Z</time>
      </trkpt>
      <trkpt lat="44.94357" lon="3.23608">
        <ele>748</ele>
        <time>2019-03-30T14:59:59Z</time>
      </trkpt>
      <trkpt lat="44.94368" lon="3.23615">
        <ele>749</ele>
        <time>2019-03-30T15:00:05Z</time>
      </trkpt>
      <trkpt lat="44.94374" lon="3.23616">
        <ele>750</ele>
        <time>2019-03-30T15:00:08Z</time>
      </trkpt>
      <trkpt lat="44.9438" lon="3.23615">
        <ele>750</ele>
        <time>2019-03-30T15:00:10Z</time>
      </trkpt>
      <trkpt lat="44.94407" lon="3.23614">
        <ele>753</ele>
        <time>2019-03-30T15:00:23Z</time>
      </trkpt>
      <trkpt lat="44.94412" lon="3.23618">
        <ele>754</ele>
        <time>2019-03-30T15:00:26Z</time>
      </trkpt>
      <trkpt lat="44.94418" lon="3.2362">
        <ele>755</ele>
        <time>2019-03-30T15:00:29Z</time>
      </trkpt>
      <trkpt lat="44.94424" lon="3.23623">
        <ele>756</ele>
        <time>2019-03-30T15:00:32Z</time>
      </trkpt>
      <trkpt lat="44.94431" lon="3.23624">
        <ele>757</ele>
        <time>2019-03-30T15:00:37Z</time>
      </trkpt>
      <trkpt lat="44.94452" lon="3.2363">
        <ele>761</ele>
        <time>2019-03-30T15:00:48Z</time>
      </trkpt>
      <trkpt lat="44.94458" lon="3.23633">
        <ele>762</ele>
        <time>2019-03-30T15:00:50Z</time>
      </trkpt>
      <trkpt lat="44.94462" lon="3.23637">
        <ele>763</ele>
        <time>2019-03-30T15:00:52Z</time>
      </trkpt>
      <trkpt lat="44.9447" lon="3.23637">
        <ele>764</ele>
        <time>2019-03-30T15:00:55Z</time>
      </trkpt>
      <trkpt lat="44.94475" lon="3.23641">
        <ele>765</ele>
        <time>2019-03-30T15:00:59Z</time>
      </trkpt>
      <trkpt lat="44.94481" lon="3.23641">
        <ele>767</ele>
        <time>2019-03-30T15:01:03Z</time>
      </trkpt>
      <trkpt lat="44.94487" lon="3.23639">
        <ele>768</ele>
        <time>2019-03-30T15:01:08Z</time>
      </trkpt>
      <trkpt lat="44.94501" lon="3.23641">
        <ele>771</ele>
        <time>2019-03-30T15:01:16Z</time>
      </trkpt>
      <trkpt lat="44.94514" lon="3.23649">
        <ele>773</ele>
        <time>2019-03-30T15:01:22Z</time>
      </trkpt>
      <trkpt lat="44.9452" lon="3.23654">
        <ele>774</ele>
        <time>2019-03-30T15:01:26Z</time>
      </trkpt>
      <trkpt lat="44.94525" lon="3.23658">
        <ele>774</ele>
        <time>2019-03-30T15:01:29Z</time>
      </trkpt>
      <trkpt lat="44.94528" lon="3.23665">
        <ele>776</ele>
        <time>2019-03-30T15:01:33Z</time>
      </trkpt>
      <trkpt lat="44.94535" lon="3.23666">
        <ele>777</ele>
        <time>2019-03-30T15:01:37Z</time>
      </trkpt>
      <trkpt lat="44.94547" lon="3.23668">
        <ele>779</ele>
        <time>2019-03-30T15:01:43Z</time>
      </trkpt>
      <trkpt lat="44.94554" lon="3.23665">
        <ele>780</ele>
        <time>2019-03-30T15:01:46Z</time>
      </trkpt>
      <trkpt lat="44.94559" lon="3.23666">
        <ele>781</ele>
        <time>2019-03-30T15:01:49Z</time>
      </trkpt>
      <trkpt lat="44.94589" lon="3.2367">
        <ele>787</ele>
        <time>2019-03-30T15:02:09Z</time>
      </trkpt>
      <trkpt lat="44.94595" lon="3.23669">
        <ele>788</ele>
        <time>2019-03-30T15:02:13Z</time>
      </trkpt>
      <trkpt lat="44.94601" lon="3.23667">
        <ele>789</ele>
        <time>2019-03-30T15:02:18Z</time>
      </trkpt>
      <trkpt lat="44.94609" lon="3.23665">
        <ele>790</ele>
        <time>2019-03-30T15:02:22Z</time>
      </trkpt>
      <trkpt lat="44.94627" lon="3.23667">
        <ele>793</ele>
        <time>2019-03-30T15:02:33Z</time>
      </trkpt>
      <trkpt lat="44.94634" lon="3.23669">
        <ele>793</ele>
        <time>2019-03-30T15:02:36Z</time>
      </trkpt>
      <trkpt lat="44.9464" lon="3.23673">
        <ele>794</ele>
        <time>2019-03-30T15:02:40Z</time>
      </trkpt>
      <trkpt lat="44.94659" lon="3.23666">
        <ele>796</ele>
        <time>2019-03-30T15:02:52Z</time>
      </trkpt>
      <trkpt lat="44.94666" lon="3.23667">
        <ele>797</ele>
        <time>2019-03-30T15:02:55Z</time>
      </trkpt>
      <trkpt lat="44.94678" lon="3.23667">
        <ele>798</ele>
        <time>2019-03-30T15:03:02Z</time>
      </trkpt>
      <trkpt lat="44.94702" lon="3.23684">
        <ele>800</ele>
        <time>2019-03-30T15:03:16Z</time>
      </trkpt>
      <trkpt lat="44.94713" lon="3.23694">
        <ele>801</ele>
        <time>2019-03-30T15:03:21Z</time>
      </trkpt>
      <trkpt lat="44.94726" lon="3.23701">
        <ele>802</ele>
        <time>2019-03-30T15:03:31Z</time>
      </trkpt>
      <trkpt lat="44.94732" lon="3.23706">
        <ele>803</ele>
        <time>2019-03-30T15:03:34Z</time>
      </trkpt>
      <trkpt lat="44.94742" lon="3.23714">
        <ele>804</ele>
        <time>2019-03-30T15:03:41Z</time>
      </trkpt>
      <trkpt lat="44.94747" lon="3.23719">
        <ele>804</ele>
        <time>2019-03-30T15:03:44Z</time>
      </trkpt>
      <trkpt lat="44.94753" lon="3.23722">
        <ele>804</ele>
        <time>2019-03-30T15:03:47Z</time>
      </trkpt>
      <trkpt lat="44.94759" lon="3.23726">
        <ele>805</ele>
        <time>2019-03-30T15:03:50Z</time>
      </trkpt>
      <trkpt lat="44.94765" lon="3.23733">
        <ele>805</ele>
        <time>2019-03-30T15:03:53Z</time>
      </trkpt>
      <trkpt lat="44.94769" lon="3.23739">
        <ele>806</ele>
        <time>2019-03-30T15:03:57Z</time>
      </trkpt>
      <trkpt lat="44.94778" lon="3.2375">
        <ele>806</ele>
        <time>2019-03-30T15:04:03Z</time>
      </trkpt>
      <trkpt lat="44.948" lon="3.23796">
        <ele>809</ele>
        <time>2019-03-30T15:04:22Z</time>
      </trkpt>
      <trkpt lat="44.94804" lon="3.23801">
        <ele>809</ele>
        <time>2019-03-30T15:04:25Z</time>
      </trkpt>
      <trkpt lat="44.94806" lon="3.23809">
        <ele>810</ele>
        <time>2019-03-30T15:04:30Z</time>
      </trkpt>
      <trkpt lat="44.94813" lon="3.23824">
        <ele>810</ele>
        <time>2019-03-30T15:04:36Z</time>
      </trkpt>
      <trkpt lat="44.94816" lon="3.23833">
        <ele>811</ele>
        <time>2019-03-30T15:04:39Z</time>
      </trkpt>
      <trkpt lat="44.94818" lon="3.23842">
        <ele>811</ele>
        <time>2019-03-30T15:04:44Z</time>
      </trkpt>
      <trkpt lat="44.94821" lon="3.2386">
        <ele>812</ele>
        <time>2019-03-30T15:04:50Z</time>
      </trkpt>
      <trkpt lat="44.94822" lon="3.23866">
        <ele>812</ele>
        <time>2019-03-30T15:04:52Z</time>
      </trkpt>
      <trkpt lat="44.94824" lon="3.23871">
        <ele>812</ele>
        <time>2019-03-30T15:04:54Z</time>
      </trkpt>
      <trkpt lat="44.94824" lon="3.23885">
        <ele>813</ele>
        <time>2019-03-30T15:04:59Z</time>
      </trkpt>
      <trkpt lat="44.94822" lon="3.23897">
        <ele>813</ele>
        <time>2019-03-30T15:05:04Z</time>
      </trkpt>
      <trkpt lat="44.94812" lon="3.23911">
        <ele>814</ele>
        <time>2019-03-30T15:05:12Z</time>
      </trkpt>
      <trkpt lat="44.94807" lon="3.23915">
        <ele>815</ele>
        <time>2019-03-30T15:05:15Z</time>
      </trkpt>
      <trkpt lat="44.94789" lon="3.23927">
        <ele>816</ele>
        <time>2019-03-30T15:05:25Z</time>
      </trkpt>
      <trkpt lat="44.94776" lon="3.2395">
        <ele>817</ele>
        <time>2019-03-30T15:05:34Z</time>
      </trkpt>
      <trkpt lat="44.94774" lon="3.2396">
        <ele>817</ele>
        <time>2019-03-30T15:05:37Z</time>
      </trkpt>
      <trkpt lat="44.94772" lon="3.23966">
        <ele>818</ele>
        <time>2019-03-30T15:05:39Z</time>
      </trkpt>
      <trkpt lat="44.94769" lon="3.23971">
        <ele>818</ele>
        <time>2019-03-30T15:05:42Z</time>
      </trkpt>
      <trkpt lat="44.94766" lon="3.23975">
        <ele>818</ele>
        <time>2019-03-30T15:05:45Z</time>
      </trkpt>
      <trkpt lat="44.94767" lon="3.23983">
        <ele>819</ele>
        <time>2019-03-30T15:05:48Z</time>
      </trkpt>
      <trkpt lat="44.94765" lon="3.23988">
        <ele>819</ele>
        <time>2019-03-30T15:05:50Z</time>
      </trkpt>
      <trkpt lat="44.94764" lon="3.23995">
        <ele>819</ele>
        <time>2019-03-30T15:05:53Z</time>
      </trkpt>
      <trkpt lat="44.94734" lon="3.24074">
        <ele>822</ele>
        <time>2019-03-30T15:06:18Z</time>
      </trkpt>
      <trkpt lat="44.94725" lon="3.24095">
        <ele>823</ele>
        <time>2019-03-30T15:06:27Z</time>
      </trkpt>
      <trkpt lat="44.94713" lon="3.24123">
        <ele>825</ele>
        <time>2019-03-30T15:06:38Z</time>
      </trkpt>
      <trkpt lat="44.94706" lon="3.24138">
        <ele>825</ele>
        <time>2019-03-30T15:06:45Z</time>
      </trkpt>
      <trkpt lat="44.94704" lon="3.24144">
        <ele>826</ele>
        <time>2019-03-30T15:06:48Z</time>
      </trkpt>
      <trkpt lat="44.94702" lon="3.2415">
        <ele>826</ele>
        <time>2019-03-30T15:06:51Z</time>
      </trkpt>
      <trkpt lat="44.94704" lon="3.24156">
        <ele>826</ele>
        <time>2019-03-30T15:06:55Z</time>
      </trkpt>
      <trkpt lat="44.94707" lon="3.24162">
        <ele>827</ele>
        <time>2019-03-30T15:06:58Z</time>
      </trkpt>
      <trkpt lat="44.94715" lon="3.24166">
        <ele>827</ele>
        <time>2019-03-30T15:07:02Z</time>
      </trkpt>
      <trkpt lat="44.94778" lon="3.24162">
        <ele>832</ele>
        <time>2019-03-30T15:07:32Z</time>
      </trkpt>
      <trkpt lat="44.94787" lon="3.24162">
        <ele>833</ele>
        <time>2019-03-30T15:07:37Z</time>
      </trkpt>
      <trkpt lat="44.94792" lon="3.24163">
        <ele>833</ele>
        <time>2019-03-30T15:07:40Z</time>
      </trkpt>
      <trkpt lat="44.9485" lon="3.24153">
        <ele>838</ele>
        <time>2019-03-30T15:08:12Z</time>
      </trkpt>
      <trkpt lat="44.94908" lon="3.2417">
        <ele>841</ele>
        <time>2019-03-30T15:08:43Z</time>
      </trkpt>
      <trkpt lat="44.94912" lon="3.24171">
        <ele>841</ele>
        <time>2019-03-30T15:08:45Z</time>
      </trkpt>
      <trkpt lat="44.94917" lon="3.24174">
        <ele>841</ele>
        <time>2019-03-30T15:08:48Z</time>
      </trkpt>
      <trkpt lat="44.9492" lon="3.24177">
        <ele>842</ele>
        <time>2019-03-30T15:08:50Z</time>
      </trkpt>
      <trkpt lat="44.94922" lon="3.24182">
        <ele>842</ele>
        <time>2019-03-30T15:08:54Z</time>
      </trkpt>
      <trkpt lat="44.94917" lon="3.2419">
        <ele>842</ele>
        <time>2019-03-30T15:08:58Z</time>
      </trkpt>
      <trkpt lat="44.94899" lon="3.24224">
        <ele>843</ele>
        <time>2019-03-30T15:09:14Z</time>
      </trkpt>
      <trkpt lat="44.94875" lon="3.24286">
        <ele>845</ele>
        <time>2019-03-30T15:09:38Z</time>
      </trkpt>
      <trkpt lat="44.94871" lon="3.24294">
        <ele>845</ele>
        <time>2019-03-30T15:09:42Z</time>
      </trkpt>
      <trkpt lat="44.94863" lon="3.24314">
        <ele>845</ele>
        <time>2019-03-30T15:09:52Z</time>
      </trkpt>
      <trkpt lat="44.94825" lon="3.24375">
        <ele>847</ele>
        <time>2019-03-30T15:10:22Z</time>
      </trkpt>
      <trkpt lat="44.9482" lon="3.24384">
        <ele>847</ele>
        <time>2019-03-30T15:10:26Z</time>
      </trkpt>
      <trkpt lat="44.94812" lon="3.24405">
        <ele>848</ele>
        <time>2019-03-30T15:10:34Z</time>
      </trkpt>
      <trkpt lat="44.94809" lon="3.24416">
        <ele>848</ele>
        <time>2019-03-30T15:10:38Z</time>
      </trkpt>
      <trkpt lat="44.94808" lon="3.24422">
        <ele>848</ele>
        <time>2019-03-30T15:10:40Z</time>
      </trkpt>
      <trkpt lat="44.948" lon="3.24447">
        <ele>848</ele>
        <time>2019-03-30T15:10:50Z</time>
      </trkpt>
      <trkpt lat="44.94799" lon="3.24453">
        <ele>848</ele>
        <time>2019-03-30T15:10:52Z</time>
      </trkpt>
      <trkpt lat="44.9478" lon="3.24529">
        <ele>849</ele>
        <time>2019-03-30T15:11:22Z</time>
      </trkpt>
      <trkpt lat="44.94774" lon="3.24552">
        <ele>849</ele>
        <time>2019-03-30T15:11:32Z</time>
      </trkpt>
      <trkpt lat="44.94771" lon="3.24573">
        <ele>850</ele>
        <time>2019-03-30T15:11:39Z</time>
      </trkpt>
      <trkpt lat="44.94771" lon="3.24579">
        <ele>850</ele>
        <time>2019-03-30T15:11:41Z</time>
      </trkpt>
      <trkpt lat="44.9477" lon="3.24656">
        <ele>850</ele>
        <time>2019-03-30T15:12:09Z</time>
      </trkpt>
      <trkpt lat="44.94771" lon="3.24666">
        <ele>850</ele>
        <time>2019-03-30T15:12:13Z</time>
      </trkpt>
      <trkpt lat="44.94768" lon="3.24727">
        <ele>850</ele>
        <time>2019-03-30T15:12:35Z</time>
      </trkpt>
      <trkpt lat="44.94768" lon="3.24733">
        <ele>850</ele>
        <time>2019-03-30T15:12:37Z</time>
      </trkpt>
      <trkpt lat="44.94763" lon="3.24789">
        <ele>850</ele>
        <time>2019-03-30T15:12:57Z</time>
      </trkpt>
      <trkpt lat="44.94764" lon="3.24869">
        <ele>849</ele>
        <time>2019-03-30T15:13:27Z</time>
      </trkpt>
      <trkpt lat="44.94759" lon="3.24908">
        <ele>849</ele>
        <time>2019-03-30T15:13:41Z</time>
      </trkpt>
      <trkpt lat="44.94758" lon="3.24914">
        <ele>849</ele>
        <time>2019-03-30T15:13:43Z</time>
      </trkpt>
      <trkpt lat="44.94757" lon="3.2495">
        <ele>849</ele>
        <time>2019-03-30T15:13:55Z</time>
      </trkpt>
      <trkpt lat="44.94759" lon="3.2496">
        <ele>849</ele>
        <time>2019-03-30T15:13:59Z</time>
      </trkpt>
      <trkpt lat="44.94759" lon="3.24964">
        <ele>849</ele>
        <time>2019-03-30T15:14:01Z</time>
      </trkpt>
      <trkpt lat="44.94759" lon="3.2497">
        <ele>849</ele>
        <time>2019-03-30T15:14:03Z</time>
      </trkpt>
      <trkpt lat="44.94762" lon="3.24996">
        <ele>849</ele>
        <time>2019-03-30T15:14:13Z</time>
      </trkpt>
      <trkpt lat="44.94762" lon="3.25001">
        <ele>849</ele>
        <time>2019-03-30T15:14:15Z</time>
      </trkpt>
      <trkpt lat="44.94763" lon="3.25007">
        <ele>848</ele>
        <time>2019-03-30T15:14:17Z</time>
      </trkpt>
      <trkpt lat="44.94761" lon="3.25039">
        <ele>848</ele>
        <time>2019-03-30T15:14:29Z</time>
      </trkpt>
      <trkpt lat="44.94759" lon="3.25049">
        <ele>848</ele>
        <time>2019-03-30T15:14:33Z</time>
      </trkpt>
      <trkpt lat="44.94757" lon="3.25056">
        <ele>848</ele>
        <time>2019-03-30T15:14:36Z</time>
      </trkpt>
      <trkpt lat="44.94756" lon="3.25069">
        <ele>848</ele>
        <time>2019-03-30T15:14:41Z</time>
      </trkpt>
      <trkpt lat="44.94756" lon="3.25096">
        <ele>848</ele>
        <time>2019-03-30T15:14:51Z</time>
      </trkpt>
      <trkpt lat="44.94749" lon="3.25144">
        <ele>848</ele>
        <time>2019-03-30T15:15:08Z</time>
      </trkpt>
      <trkpt lat="44.94738" lon="3.25175">
        <ele>847</ele>
        <time>2019-03-30T15:15:20Z</time>
      </trkpt>
      <trkpt lat="44.94729" lon="3.25204">
        <ele>847</ele>
        <time>2019-03-30T15:15:32Z</time>
      </trkpt>
      <trkpt lat="44.94725" lon="3.25214">
        <ele>847</ele>
        <time>2019-03-30T15:15:36Z</time>
      </trkpt>
      <trkpt lat="44.94723" lon="3.25219">
        <ele>847</ele>
        <time>2019-03-30T15:15:38Z</time>
      </trkpt>
      <trkpt lat="44.94719" lon="3.25231">
        <ele>847</ele>
        <time>2019-03-30T15:15:43Z</time>
      </trkpt>
      <trkpt lat="44.94716" lon="3.25242">
        <ele>847</ele>
        <time>2019-03-30T15:15:47Z</time>
      </trkpt>
      <trkpt lat="44.94714" lon="3.25248">
        <ele>847</ele>
        <time>2019-03-30T15:15:49Z</time>
      </trkpt>
      <trkpt lat="44.94711" lon="3.2526">
        <ele>847</ele>
        <time>2019-03-30T15:15:53Z</time>
      </trkpt>
      <trkpt lat="44.9471" lon="3.25266">
        <ele>847</ele>
        <time>2019-03-30T15:15:55Z</time>
      </trkpt>
      <trkpt lat="44.94709" lon="3.25271">
        <ele>847</ele>
        <time>2019-03-30T15:15:57Z</time>
      </trkpt>
      <trkpt lat="44.94707" lon="3.25276">
        <ele>847</ele>
        <time>2019-03-30T15:15:59Z</time>
      </trkpt>
      <trkpt lat="44.94706" lon="3.2531">
        <ele>846</ele>
        <time>2019-03-30T15:16:12Z</time>
      </trkpt>
      <trkpt lat="44.94708" lon="3.25331">
        <ele>846</ele>
        <time>2019-03-30T15:16:20Z</time>
      </trkpt>
      <trkpt lat="44.94715" lon="3.25354">
        <ele>846</ele>
        <time>2019-03-30T15:16:30Z</time>
      </trkpt>
      <trkpt lat="44.94717" lon="3.25365">
        <ele>846</ele>
        <time>2019-03-30T15:16:34Z</time>
      </trkpt>
      <trkpt lat="44.94721" lon="3.2538">
        <ele>846</ele>
        <time>2019-03-30T15:16:40Z</time>
      </trkpt>
      <trkpt lat="44.94723" lon="3.25405">
        <ele>846</ele>
        <time>2019-03-30T15:16:51Z</time>
      </trkpt>
      <trkpt lat="44.94723" lon="3.25411">
        <ele>846</ele>
        <time>2019-03-30T15:16:54Z</time>
      </trkpt>
      <trkpt lat="44.94725" lon="3.2542">
        <ele>846</ele>
        <time>2019-03-30T15:16:58Z</time>
      </trkpt>
      <trkpt lat="44.94726" lon="3.25445">
        <ele>846</ele>
        <time>2019-03-30T15:17:11Z</time>
      </trkpt>
      <trkpt lat="44.94724" lon="3.25509">
        <ele>845</ele>
        <time>2019-03-30T15:17:41Z</time>
      </trkpt>
      <trkpt lat="44.94726" lon="3.25523">
        <ele>845</ele>
        <time>2019-03-30T15:17:48Z</time>
      </trkpt>
      <trkpt lat="44.94726" lon="3.25536">
        <ele>845</ele>
        <time>2019-03-30T15:17:54Z</time>
      </trkpt>
      <trkpt lat="44.94731" lon="3.25601">
        <ele>845</ele>
        <time>2019-03-30T15:18:24Z</time>
      </trkpt>
      <trkpt lat="44.94732" lon="3.25626">
        <ele>845</ele>
        <time>2019-03-30T15:18:35Z</time>
      </trkpt>
      <trkpt lat="44.94734" lon="3.25643">
        <ele>845</ele>
        <time>2019-03-30T15:18:43Z</time>
      </trkpt>
      <trkpt lat="44.94735" lon="3.25647">
        <ele>845</ele>
        <time>2019-03-30T15:18:45Z</time>
      </trkpt>
      <trkpt lat="44.94737" lon="3.25653">
        <ele>845</ele>
        <time>2019-03-30T15:18:48Z</time>
      </trkpt>
      <trkpt lat="44.94737" lon="3.25667">
        <ele>845</ele>
        <time>2019-03-30T15:18:54Z</time>
      </trkpt>
      <trkpt lat="44.94739" lon="3.25681">
        <ele>844</ele>
        <time>2019-03-30T15:19:01Z</time>
      </trkpt>
      <trkpt lat="44.94746" lon="3.25725">
        <ele>844</ele>
        <time>2019-03-30T15:19:20Z</time>
      </trkpt>
      <trkpt lat="44.94756" lon="3.25796">
        <ele>844</ele>
        <time>2019-03-30T15:19:50Z</time>
      </trkpt>
      <trkpt lat="44.94764" lon="3.25848">
        <ele>843</ele>
        <time>2019-03-30T15:20:11Z</time>
      </trkpt>
      <trkpt lat="44.94767" lon="3.25858">
        <ele>843</ele>
        <time>2019-03-30T15:20:15Z</time>
      </trkpt>
      <trkpt lat="44.94769" lon="3.25876">
        <ele>843</ele>
        <time>2019-03-30T15:20:22Z</time>
      </trkpt>
      <trkpt lat="44.94778" lon="3.25913">
        <ele>843</ele>
        <time>2019-03-30T15:20:38Z</time>
      </trkpt>
      <trkpt lat="44.94791" lon="3.25942">
        <ele>843</ele>
        <time>2019-03-30T15:20:54Z</time>
      </trkpt>
      <trkpt lat="44.94795" lon="3.25954">
        <ele>843</ele>
        <time>2019-03-30T15:20:59Z</time>
      </trkpt>
      <trkpt lat="44.94786" lon="3.26016">
        <ele>842</ele>
        <time>2019-03-30T15:21:21Z</time>
      </trkpt>
      <trkpt lat="44.94784" lon="3.26026">
        <ele>842</ele>
        <time>2019-03-30T15:21:25Z</time>
      </trkpt>
      <trkpt lat="44.94782" lon="3.2603">
        <ele>842</ele>
        <time>2019-03-30T15:21:27Z</time>
      </trkpt>
      <trkpt lat="44.94779" lon="3.26033">
        <ele>842</ele>
        <time>2019-03-30T15:21:29Z</time>
      </trkpt>
      <trkpt lat="44.94771" lon="3.26045">
        <ele>842</ele>
        <time>2019-03-30T15:21:37Z</time>
      </trkpt>
      <trkpt lat="44.94769" lon="3.2605">
        <ele>842</ele>
        <time>2019-03-30T15:21:39Z</time>
      </trkpt>
      <trkpt lat="44.94766" lon="3.26055">
        <ele>842</ele>
        <time>2019-03-30T15:21:41Z</time>
      </trkpt>
      <trkpt lat="44.94762" lon="3.26066">
        <ele>842</ele>
        <time>2019-03-30T15:21:45Z</time>
      </trkpt>
      <trkpt lat="44.94758" lon="3.26078">
        <ele>842</ele>
        <time>2019-03-30T15:21:49Z</time>
      </trkpt>
      <trkpt lat="44.94756" lon="3.26087">
        <ele>842</ele>
        <time>2019-03-30T15:21:53Z</time>
      </trkpt>
      <trkpt lat="44.94751" lon="3.26097">
        <ele>842</ele>
        <time>2019-03-30T15:21:57Z</time>
      </trkpt>
      <trkpt lat="44.94749" lon="3.26103">
        <ele>842</ele>
        <time>2019-03-30T15:22:00Z</time>
      </trkpt>
      <trkpt lat="44.94723" lon="3.26181">
        <ele>842</ele>
        <time>2019-03-30T15:22:32Z</time>
      </trkpt>
      <trkpt lat="44.94717" lon="3.26207">
        <ele>841</ele>
        <time>2019-03-30T15:22:43Z</time>
      </trkpt>
      <trkpt lat="44.94715" lon="3.26235">
        <ele>841</ele>
        <time>2019-03-30T15:22:54Z</time>
      </trkpt>
      <trkpt lat="44.94691" lon="3.26311">
        <ele>841</ele>
        <time>2019-03-30T15:23:25Z</time>
      </trkpt>
      <trkpt lat="44.94686" lon="3.26323">
        <ele>841</ele>
        <time>2019-03-30T15:23:31Z</time>
      </trkpt>
      <trkpt lat="44.9468" lon="3.26349">
        <ele>841</ele>
        <time>2019-03-30T15:23:41Z</time>
      </trkpt>
      <trkpt lat="44.94679" lon="3.26354">
        <ele>841</ele>
        <time>2019-03-30T15:23:43Z</time>
      </trkpt>
      <trkpt lat="44.94669" lon="3.26367">
        <ele>841</ele>
        <time>2019-03-30T15:23:50Z</time>
      </trkpt>
      <trkpt lat="44.94659" lon="3.26365">
        <ele>841</ele>
        <time>2019-03-30T15:23:54Z</time>
      </trkpt>
      <trkpt lat="44.94613" lon="3.26388">
        <ele>841</ele>
        <time>2019-03-30T15:24:20Z</time>
      </trkpt>
      <trkpt lat="44.94609" lon="3.2639">
        <ele>841</ele>
        <time>2019-03-30T15:24:22Z</time>
      </trkpt>
      <trkpt lat="44.94563" lon="3.26416">
        <ele>841</ele>
        <time>2019-03-30T15:24:52Z</time>
      </trkpt>
      <trkpt lat="44.94524" lon="3.26445">
        <ele>841</ele>
        <time>2019-03-30T15:25:16Z</time>
      </trkpt>
      <trkpt lat="44.9452" lon="3.26449">
        <ele>841</ele>
        <time>2019-03-30T15:25:19Z</time>
      </trkpt>
      <trkpt lat="44.94509" lon="3.2647">
        <ele>841</ele>
        <time>2019-03-30T15:25:29Z</time>
      </trkpt>
      <trkpt lat="44.94479" lon="3.26501">
        <ele>840</ele>
        <time>2019-03-30T15:25:51Z</time>
      </trkpt>
      <trkpt lat="44.94471" lon="3.26519">
        <ele>840</ele>
        <time>2019-03-30T15:26:01Z</time>
      </trkpt>
      <trkpt lat="44.94471" lon="3.26524">
        <ele>840</ele>
        <time>2019-03-30T15:26:06Z</time>
      </trkpt>
      <trkpt lat="44.94467" lon="3.26524">
        <ele>840</ele>
        <time>2019-03-30T15:26:47Z</time>
      </trkpt>
      <trkpt lat="44.94422" lon="3.26536">
        <ele>840</ele>
        <time>2019-03-30T15:27:09Z</time>
      </trkpt>
      <trkpt lat="44.94393" lon="3.26524">
        <ele>839</ele>
        <time>2019-03-30T15:27:25Z</time>
      </trkpt>
      <trkpt lat="44.94383" lon="3.26517">
        <ele>839</ele>
        <time>2019-03-30T15:27:31Z</time>
      </trkpt>
      <trkpt lat="44.94374" lon="3.26513">
        <ele>839</ele>
        <time>2019-03-30T15:27:37Z</time>
      </trkpt>
      <trkpt lat="44.94369" lon="3.26511">
        <ele>839</ele>
        <time>2019-03-30T15:27:40Z</time>
      </trkpt>
      <trkpt lat="44.94364" lon="3.26511">
        <ele>839</ele>
        <time>2019-03-30T15:27:43Z</time>
      </trkpt>
      <trkpt lat="44.94359" lon="3.26514">
        <ele>839</ele>
        <time>2019-03-30T15:27:46Z</time>
      </trkpt>
      <trkpt lat="44.94348" lon="3.26519">
        <ele>839</ele>
        <time>2019-03-30T15:27:53Z</time>
      </trkpt>
      <trkpt lat="44.94342" lon="3.26522">
        <ele>839</ele>
        <time>2019-03-30T15:27:58Z</time>
      </trkpt>
      <trkpt lat="44.94333" lon="3.26536">
        <ele>839</ele>
        <time>2019-03-30T15:28:06Z</time>
      </trkpt>
      <trkpt lat="44.94328" lon="3.26543">
        <ele>839</ele>
        <time>2019-03-30T15:28:09Z</time>
      </trkpt>
      <trkpt lat="44.94326" lon="3.26551">
        <ele>839</ele>
        <time>2019-03-30T15:28:12Z</time>
      </trkpt>
      <trkpt lat="44.94323" lon="3.26558">
        <ele>839</ele>
        <time>2019-03-30T15:28:16Z</time>
      </trkpt>
      <trkpt lat="44.94321" lon="3.26568">
        <ele>839</ele>
        <time>2019-03-30T15:28:20Z</time>
      </trkpt>
      <trkpt lat="44.94317" lon="3.26574">
        <ele>839</ele>
        <time>2019-03-30T15:28:24Z</time>
      </trkpt>
      <trkpt lat="44.94312" lon="3.26576">
        <ele>839</ele>
        <time>2019-03-30T15:28:27Z</time>
      </trkpt>
      <trkpt lat="44.94306" lon="3.26573">
        <ele>839</ele>
        <time>2019-03-30T15:28:29Z</time>
      </trkpt>
      <trkpt lat="44.943" lon="3.26567">
        <ele>839</ele>
        <time>2019-03-30T15:28:32Z</time>
      </trkpt>
      <trkpt lat="44.94285" lon="3.26546">
        <ele>839</ele>
        <time>2019-03-30T15:28:42Z</time>
      </trkpt>
      <trkpt lat="44.94283" lon="3.2654">
        <ele>838</ele>
        <time>2019-03-30T15:28:45Z</time>
      </trkpt>
      <trkpt lat="44.94279" lon="3.26536">
        <ele>838</ele>
        <time>2019-03-30T15:28:48Z</time>
      </trkpt>
      <trkpt lat="44.94275" lon="3.26536">
        <ele>838</ele>
        <time>2019-03-30T15:28:51Z</time>
      </trkpt>
      <trkpt lat="44.94272" lon="3.26539">
        <ele>838</ele>
        <time>2019-03-30T15:28:53Z</time>
      </trkpt>
      <trkpt lat="44.94268" lon="3.26563">
        <ele>838</ele>
        <time>2019-03-30T15:29:02Z</time>
      </trkpt>
      <trkpt lat="44.94269" lon="3.26587">
        <ele>837</ele>
        <time>2019-03-30T15:29:15Z</time>
      </trkpt>
      <trkpt lat="44.94276" lon="3.26609">
        <ele>836</ele>
        <time>2019-03-30T15:29:24Z</time>
      </trkpt>
      <trkpt lat="44.94279" lon="3.26616">
        <ele>836</ele>
        <time>2019-03-30T15:29:26Z</time>
      </trkpt>
      <trkpt lat="44.94282" lon="3.26634">
        <ele>835</ele>
        <time>2019-03-30T15:29:32Z</time>
      </trkpt>
      <trkpt lat="44.94282" lon="3.2664">
        <ele>835</ele>
        <time>2019-03-30T15:29:34Z</time>
      </trkpt>
      <trkpt lat="44.94281" lon="3.26645">
        <ele>834</ele>
        <time>2019-03-30T15:29:36Z</time>
      </trkpt>
      <trkpt lat="44.94279" lon="3.26651">
        <ele>834</ele>
        <time>2019-03-30T15:29:38Z</time>
      </trkpt>
      <trkpt lat="44.94276" lon="3.26661">
        <ele>833</ele>
        <time>2019-03-30T15:29:42Z</time>
      </trkpt>
      <trkpt lat="44.9427" lon="3.26672">
        <ele>833</ele>
        <time>2019-03-30T15:29:46Z</time>
      </trkpt>
      <trkpt lat="44.94265" lon="3.26682">
        <ele>832</ele>
        <time>2019-03-30T15:29:50Z</time>
      </trkpt>
      <trkpt lat="44.94269" lon="3.26682">
        <ele>830</ele>
        <time>2019-03-30T15:30:06Z</time>
      </trkpt>
      <trkpt lat="44.94273" lon="3.26682">
        <ele>829</ele>
        <time>2019-03-30T15:30:09Z</time>
      </trkpt>
      <trkpt lat="44.94277" lon="3.26691">
        <ele>828</ele>
        <time>2019-03-30T15:30:13Z</time>
      </trkpt>
      <trkpt lat="44.94283" lon="3.26739">
        <ele>822</ele>
        <time>2019-03-30T15:30:33Z</time>
      </trkpt>
      <trkpt lat="44.94283" lon="3.26746">
        <ele>822</ele>
        <time>2019-03-30T15:30:36Z</time>
      </trkpt>
      <trkpt lat="44.94284" lon="3.26751">
        <ele>821</ele>
        <time>2019-03-30T15:30:38Z</time>
      </trkpt>
      <trkpt lat="44.94282" lon="3.26784">
        <ele>818</ele>
        <time>2019-03-30T15:30:51Z</time>
      </trkpt>
      <trkpt lat="44.94282" lon="3.26791">
        <ele>817</ele>
        <time>2019-03-30T15:30:54Z</time>
      </trkpt>
      <trkpt lat="44.94282" lon="3.26797">
        <ele>816</ele>
        <time>2019-03-30T15:30:57Z</time>
      </trkpt>
      <trkpt lat="44.94281" lon="3.26802">
        <ele>816</ele>
        <time>2019-03-30T15:30:59Z</time>
      </trkpt>
      <trkpt lat="44.94281" lon="3.2684">
        <ele>812</ele>
        <time>2019-03-30T15:31:16Z</time>
      </trkpt>
      <trkpt lat="44.94278" lon="3.26853">
        <ele>811</ele>
        <time>2019-03-30T15:31:22Z</time>
      </trkpt>
      <trkpt lat="44.94277" lon="3.26867">
        <ele>810</ele>
        <time>2019-03-30T15:31:28Z</time>
      </trkpt>
      <trkpt lat="44.94276" lon="3.26883">
        <ele>809</ele>
        <time>2019-03-30T15:31:33Z</time>
      </trkpt>
      <trkpt lat="44.9427" lon="3.26904">
        <ele>808</ele>
        <time>2019-03-30T15:31:41Z</time>
      </trkpt>
      <trkpt lat="44.94269" lon="3.26912">
        <ele>807</ele>
        <time>2019-03-30T15:31:44Z</time>
      </trkpt>
      <trkpt lat="44.94269" lon="3.26922">
        <ele>807</ele>
        <time>2019-03-30T15:31:48Z</time>
      </trkpt>
      <trkpt lat="44.94268" lon="3.26943">
        <ele>806</ele>
        <time>2019-03-30T15:31:57Z</time>
      </trkpt>
      <trkpt lat="44.94269" lon="3.26949">
        <ele>805</ele>
        <time>2019-03-30T15:31:59Z</time>
      </trkpt>
      <trkpt lat="44.9427" lon="3.2696">
        <ele>805</ele>
        <time>2019-03-30T15:32:05Z</time>
      </trkpt>
      <trkpt lat="44.94271" lon="3.27031">
        <ele>802</ele>
        <time>2019-03-30T15:32:32Z</time>
      </trkpt>
      <trkpt lat="44.94268" lon="3.27049">
        <ele>802</ele>
        <time>2019-03-30T15:32:40Z</time>
      </trkpt>
      <trkpt lat="44.94267" lon="3.27056">
        <ele>802</ele>
        <time>2019-03-30T15:32:43Z</time>
      </trkpt>
      <trkpt lat="44.94264" lon="3.27082">
        <ele>801</ele>
        <time>2019-03-30T15:32:54Z</time>
      </trkpt>
      <trkpt lat="44.94263" lon="3.27089">
        <ele>801</ele>
        <time>2019-03-30T15:32:57Z</time>
      </trkpt>
      <trkpt lat="44.94263" lon="3.27095">
        <ele>801</ele>
        <time>2019-03-30T15:32:59Z</time>
      </trkpt>
      <trkpt lat="44.9426" lon="3.27107">
        <ele>801</ele>
        <time>2019-03-30T15:33:04Z</time>
      </trkpt>
      <trkpt lat="44.94257" lon="3.27128">
        <ele>800</ele>
        <time>2019-03-30T15:33:12Z</time>
      </trkpt>
      <trkpt lat="44.94253" lon="3.27149">
        <ele>800</ele>
        <time>2019-03-30T15:33:20Z</time>
      </trkpt>
      <trkpt lat="44.94251" lon="3.27156">
        <ele>800</ele>
        <time>2019-03-30T15:33:23Z</time>
      </trkpt>
      <trkpt lat="44.94249" lon="3.27168">
        <ele>800</ele>
        <time>2019-03-30T15:33:28Z</time>
      </trkpt>
      <trkpt lat="44.94249" lon="3.27174">
        <ele>800</ele>
        <time>2019-03-30T15:33:30Z</time>
      </trkpt>
      <trkpt lat="44.94248" lon="3.27187">
        <ele>799</ele>
        <time>2019-03-30T15:33:35Z</time>
      </trkpt>
      <trkpt lat="44.94235" lon="3.27229">
        <ele>799</ele>
        <time>2019-03-30T15:33:53Z</time>
      </trkpt>
      <trkpt lat="44.94217" lon="3.27287">
        <ele>798</ele>
        <time>2019-03-30T15:34:19Z</time>
      </trkpt>
      <trkpt lat="44.9421" lon="3.27294">
        <ele>798</ele>
        <time>2019-03-30T15:34:23Z</time>
      </trkpt>
      <trkpt lat="44.94207" lon="3.27297">
        <ele>798</ele>
        <time>2019-03-30T15:34:25Z</time>
      </trkpt>
      <trkpt lat="44.94202" lon="3.27298">
        <ele>798</ele>
        <time>2019-03-30T15:34:27Z</time>
      </trkpt>
      <trkpt lat="44.94194" lon="3.27301">
        <ele>798</ele>
        <time>2019-03-30T15:34:31Z</time>
      </trkpt>
      <trkpt lat="44.94184" lon="3.27303">
        <ele>798</ele>
        <time>2019-03-30T15:34:36Z</time>
      </trkpt>
      <trkpt lat="44.94175" lon="3.27307">
        <ele>798</ele>
        <time>2019-03-30T15:34:41Z</time>
      </trkpt>
      <trkpt lat="44.94172" lon="3.27312">
        <ele>798</ele>
        <time>2019-03-30T15:34:43Z</time>
      </trkpt>
      <trkpt lat="44.94125" lon="3.2736">
        <ele>798</ele>
        <time>2019-03-30T15:35:14Z</time>
      </trkpt>
      <trkpt lat="44.94122" lon="3.27363">
        <ele>798</ele>
        <time>2019-03-30T15:35:17Z</time>
      </trkpt>
      <trkpt lat="44.94118" lon="3.27366">
        <ele>798</ele>
        <time>2019-03-30T15:35:21Z</time>
      </trkpt>
      <trkpt lat="44.94113" lon="3.27366">
        <ele>797</ele>
        <time>2019-03-30T15:35:25Z</time>
      </trkpt>
      <trkpt lat="44.9411" lon="3.27368">
        <ele>797</ele>
        <time>2019-03-30T15:35:33Z</time>
      </trkpt>
      <trkpt lat="44.94106" lon="3.27371">
        <ele>797</ele>
        <time>2019-03-30T15:35:42Z</time>
      </trkpt>
      <trkpt lat="44.94103" lon="3.27371">
        <ele>797</ele>
        <time>2019-03-30T15:35:45Z</time>
      </trkpt>
      <trkpt lat="44.94098" lon="3.27374">
        <ele>797</ele>
        <time>2019-03-30T15:35:48Z</time>
      </trkpt>
      <trkpt lat="44.94072" lon="3.27386">
        <ele>797</ele>
        <time>2019-03-30T15:36:08Z</time>
      </trkpt>
      <trkpt lat="44.94061" lon="3.27395">
        <ele>797</ele>
        <time>2019-03-30T15:36:15Z</time>
      </trkpt>
      <trkpt lat="44.94057" lon="3.27398">
        <ele>797</ele>
        <time>2019-03-30T15:36:17Z</time>
      </trkpt>
      <trkpt lat="44.9405" lon="3.27402">
        <ele>797</ele>
        <time>2019-03-30T15:36:20Z</time>
      </trkpt>
      <trkpt lat="44.94025" lon="3.2743">
        <ele>797</ele>
        <time>2019-03-30T15:36:35Z</time>
      </trkpt>
      <trkpt lat="44.94011" lon="3.27443">
        <ele>798</ele>
        <time>2019-03-30T15:36:42Z</time>
      </trkpt>
      <trkpt lat="44.94007" lon="3.27447">
        <ele>798</ele>
        <time>2019-03-30T15:36:44Z</time>
      </trkpt>
      <trkpt lat="44.93999" lon="3.27455">
        <ele>798</ele>
        <time>2019-03-30T15:36:48Z</time>
      </trkpt>
      <trkpt lat="44.93957" lon="3.27478">
        <ele>798</ele>
        <time>2019-03-30T15:37:08Z</time>
      </trkpt>
      <trkpt lat="44.93956" lon="3.27476">
        <ele>814</ele>
      </trkpt>
      <trkpt lat="44.93974" lon="3.27471">
        <ele>813</ele>
      </trkpt>
      <trkpt lat="44.93984" lon="3.27486">
        <ele>812.5</ele>
      </trkpt>
      <trkpt lat="44.93988" lon="3.27499">
        <ele>812.1</ele>
      </trkpt>
      <trkpt lat="44.93988" lon="3.27514">
        <ele>813.9</ele>
      </trkpt>
      <trkpt lat="44.93988" lon="3.27518">
        <ele>814.1</ele>
      </trkpt>
      <trkpt lat="44.93983" lon="3.27548">
        <ele>815.3</ele>
      </trkpt>
      <trkpt lat="44.93981" lon="3.2757">
        <ele>815.2</ele>
      </trkpt>
      <trkpt lat="44.93981" lon="3.27588">
        <ele>816.5</ele>
      </trkpt>
      <trkpt lat="44.93985" lon="3.27608">
        <ele>817.2</ele>
      </trkpt>
      <trkpt lat="44.93991" lon="3.27634">
        <ele>817.7</ele>
      </trkpt>
      <trkpt lat="44.93994" lon="3.27658">
        <ele>816.5</ele>
      </trkpt>
      <trkpt lat="44.93993" lon="3.2768">
        <ele>819.1</ele>
      </trkpt>
      <trkpt lat="44.9399" lon="3.27709">
        <ele>822.1</ele>
      </trkpt>
      <trkpt lat="44.9399" lon="3.27731">
        <ele>822.5</ele>
      </trkpt>
      <trkpt lat="44.93992" lon="3.27762">
        <ele>824.5</ele>
      </trkpt>
      <trkpt lat="44.93994" lon="3.27783">
        <ele>826.7</ele>
      </trkpt>
      <trkpt lat="44.93993" lon="3.27797">
        <ele>827.5</ele>
      </trkpt>
      <trkpt lat="44.93987" lon="3.27816">
        <ele>828</ele>
      </trkpt>
      <trkpt lat="44.93976" lon="3.27853">
        <ele>831.4</ele>
      </trkpt>
      <trkpt lat="44.93968" lon="3.27884">
        <ele>832.6</ele>
      </trkpt>
      <trkpt lat="44.93961" lon="3.27901">
        <ele>833.2</ele>
      </trkpt>
      <trkpt lat="44.93955" lon="3.27936">
        <ele>836.1</ele>
      </trkpt>
      <trkpt lat="44.93955" lon="3.27938">
        <ele>836.2</ele>
      </trkpt>
      <trkpt lat="44.93955" lon="3.27936">
        <ele>836.1</ele>
      </trkpt>
      <trkpt lat="44.93961" lon="3.27901">
        <ele>833.2</ele>
      </trkpt>
      <trkpt lat="44.93952" lon="3.27912">
        <ele>834.1</ele>
      </trkpt>
      <trkpt lat="44.93938" lon="3.27928">
        <ele>837.5</ele>
      </trkpt>
      <trkpt lat="44.93921" lon="3.27959">
        <ele>838.7</ele>
      </trkpt>
      <trkpt lat="44.93887" lon="3.28029">
        <ele>850.1</ele>
      </trkpt>
      <trkpt lat="44.93869" lon="3.28072">
        <ele>851.3</ele>
      </trkpt>
      <trkpt lat="44.93852" lon="3.28122">
        <ele>853.6</ele>
      </trkpt>
      <trkpt lat="44.93841" lon="3.28147">
        <ele>855.1</ele>
      </trkpt>
      <trkpt lat="44.93828" lon="3.28166">
        <ele>858.9</ele>
      </trkpt>
      <trkpt lat="44.93812" lon="3.28197">
        <ele>865.1</ele>
      </trkpt>
      <trkpt lat="44.93791" lon="3.28241">
        <ele>868.3</ele>
      </trkpt>
      <trkpt lat="44.9378" lon="3.28261">
        <ele>873.3</ele>
      </trkpt>
      <trkpt lat="44.93767" lon="3.28273">
        <ele>874.3</ele>
      </trkpt>
      <trkpt lat="44.93739" lon="3.28298">
        <ele>881.7</ele>
      </trkpt>
      <trkpt lat="44.93732" lon="3.28304">
        <ele>882</ele>
      </trkpt>
      <trkpt lat="44.93703" lon="3.28331">
        <ele>884</ele>
      </trkpt>
      <trkpt lat="44.93682" lon="3.28347">
        <ele>887.2</ele>
      </trkpt>
      <trkpt lat="44.9364" lon="3.28371">
        <ele>895.6</ele>
      </trkpt>
      <trkpt lat="44.93594" lon="3.28397">
        <ele>900.2</ele>
      </trkpt>
      <trkpt lat="44.93577" lon="3.28406">
        <ele>907.3</ele>
      </trkpt>
      <trkpt lat="44.93567" lon="3.28417">
        <ele>911.1</ele>
      </trkpt>
      <trkpt lat="44.93565" lon="3.28419">
        <ele>911.5</ele>
      </trkpt>
      <trkpt lat="44.93554" lon="3.28432">
        <ele>914.6</ele>
      </trkpt>
      <trkpt lat="44.93537" lon="3.28456">
        <ele>917.7</ele>
      </trkpt>
      <trkpt lat="44.93518" lon="3.28485">
        <ele>921.7</ele>
      </trkpt>
      <trkpt lat="44.93509" lon="3.28513">
        <ele>926.4</ele>
      </trkpt>
      <trkpt lat="44.93493" lon="3.28563">
        <ele>934.8</ele>
      </trkpt>
      <trkpt lat="44.93489" lon="3.28573">
        <ele>934.7</ele>
      </trkpt>
      <trkpt lat="44.93483" lon="3.28577">
        <ele>935.1</ele>
      </trkpt>
      <trkpt lat="44.93478" lon="3.28575">
        <ele>935.5</ele>
      </trkpt>
      <trkpt lat="44.93475" lon="3.28574">
        <ele>935.9</ele>
      </trkpt>
      <trkpt lat="44.93438" lon="3.28555">
        <ele>938.6</ele>
      </trkpt>
      <trkpt lat="44.9343" lon="3.28553">
        <ele>939</ele>
      </trkpt>
      <trkpt lat="44.93423" lon="3.28559">
        <ele>940</ele>
      </trkpt>
      <trkpt lat="44.93418" lon="3.28569">
        <ele>941.8</ele>
      </trkpt>
      <trkpt lat="44.93413" lon="3.28579">
        <ele>946.4</ele>
      </trkpt>
      <trkpt lat="44.93397" lon="3.28632">
        <ele>955.5</ele>
      </trkpt>
      <trkpt lat="44.9339" lon="3.28662">
        <ele>956.7</ele>
      </trkpt>
      <trkpt lat="44.93384" lon="3.28708">
        <ele>965.9</ele>
      </trkpt>
      <trkpt lat="44.93378" lon="3.28765">
        <ele>973.5</ele>
      </trkpt>
      <trkpt lat="44.93369" lon="3.28809">
        <ele>976.3</ele>
      </trkpt>
      <trkpt lat="44.93349" lon="3.28869">
        <ele>982.7</ele>
      </trkpt>
      <trkpt lat="44.93352" lon="3.28892">
        <ele>983.7</ele>
      </trkpt>
      <trkpt lat="44.93348" lon="3.28915">
        <ele>987.4</ele>
      </trkpt>
      <trkpt lat="44.93334" lon="3.28946">
        <ele>986</ele>
      </trkpt>
      <trkpt lat="44.93332" lon="3.28965">
        <ele>998</ele>
      </trkpt>
      <trkpt lat="44.9333" lon="3.29027">
        <ele>997.2</ele>
      </trkpt>
      <trkpt lat="44.93321" lon="3.29065">
        <ele>997.7</ele>
      </trkpt>
      <trkpt lat="44.93308" lon="3.29096">
        <ele>998.5</ele>
      </trkpt>
      <trkpt lat="44.93298" lon="3.29117">
        <ele>999.6</ele>
      </trkpt>
      <trkpt lat="44.93295" lon="3.29124">
        <ele>999.8</ele>
      </trkpt>
      <trkpt lat="44.93279" lon="3.29153">
        <ele>1000.8</ele>
      </trkpt>
      <trkpt lat="44.93269" lon="3.29167">
        <ele>1002.6</ele>
      </trkpt>
      <trkpt lat="44.93258" lon="3.29178">
        <ele>1003.1</ele>
      </trkpt>
      <trkpt lat="44.93243" lon="3.29186">
        <ele>1005.1</ele>
      </trkpt>
      <trkpt lat="44.93228" lon="3.29193">
        <ele>1005.4</ele>
      </trkpt>
      <trkpt lat="44.93223" lon="3.29198">
        <ele>1005.5</ele>
      </trkpt>
      <trkpt lat="44.93221" lon="3.29203">
        <ele>1005.6</ele>
      </trkpt>
      <trkpt lat="44.93213" lon="3.292">
        <ele>1005.6</ele>
      </trkpt>
      <trkpt lat="44.932" lon="3.29195">
        <ele>1005.7</ele>
      </trkpt>
      <trkpt lat="44.93184" lon="3.29196">
        <ele>1005.8</ele>
      </trkpt>
      <trkpt lat="44.93163" lon="3.29204">
        <ele>1006.6</ele>
      </trkpt>
      <trkpt lat="44.93161" lon="3.29205">
        <ele>1006.6</ele>
      </trkpt>
      <trkpt lat="44.93125" lon="3.29222">
        <ele>1007</ele>
      </trkpt>
      <trkpt lat="44.93111" lon="3.2923">
        <ele>1007.2</ele>
      </trkpt>
      <trkpt lat="44.93106" lon="3.29234">
        <ele>1007.3</ele>
      </trkpt>
      <trkpt lat="44.93094" lon="3.29249">
        <ele>1007.6</ele>
      </trkpt>
      <trkpt lat="44.93068" lon="3.29285">
        <ele>1008.2</ele>
      </trkpt>
      <trkpt lat="44.93033" lon="3.29334">
        <ele>1008.9</ele>
      </trkpt>
      <trkpt lat="44.9301" lon="3.29364">
        <ele>1009.2</ele>
      </trkpt>
      <trkpt lat="44.93002" lon="3.29374">
        <ele>1009.2</ele>
      </trkpt>
      <trkpt lat="44.92988" lon="3.29393">
        <ele>1011.4</ele>
      </trkpt>
      <trkpt lat="44.92972" lon="3.29412">
        <ele>1011.6</ele>
      </trkpt>
      <trkpt lat="44.92941" lon="3.29446">
        <ele>1012.6</ele>
      </trkpt>
      <trkpt lat="44.92896" lon="3.29493">
        <ele>1013.2</ele>
      </trkpt>
      <trkpt lat="44.92875" lon="3.29515">
        <ele>1012.3</ele>
      </trkpt>
      <trkpt lat="44.9287" lon="3.29521">
        <ele>1012.3</ele>
      </trkpt>
      <trkpt lat="44.92857" lon="3.29536">
        <ele>1012.1</ele>
      </trkpt>
      <trkpt lat="44.92856" lon="3.29539">
        <ele>1012.1</ele>
      </trkpt>
      <trkpt lat="44.92844" lon="3.29559">
        <ele>1011.8</ele>
      </trkpt>
      <trkpt lat="44.92827" lon="3.2959">
        <ele>1010.9</ele>
      </trkpt>
      <trkpt lat="44.92813" lon="3.29618">
        <ele>1010.7</ele>
      </trkpt>
      <trkpt lat="44.92807" lon="3.29627">
        <ele>1010.7</ele>
      </trkpt>
      <trkpt lat="44.92815" lon="3.29646">
        <ele>1010.9</ele>
      </trkpt>
      <trkpt lat="44.92817" lon="3.29661">
        <ele>1011.2</ele>
      </trkpt>
      <trkpt lat="44.92819" lon="3.29687">
        <ele>1011.2</ele>
      </trkpt>
      <trkpt lat="44.9282" lon="3.29721">
        <ele>1011.5</ele>
      </trkpt>
      <trkpt lat="44.9282" lon="3.29748">
        <ele>1012.4</ele>
      </trkpt>
      <trkpt lat="44.92817" lon="3.29792">
        <ele>1011.5</ele>
      </trkpt>
      <trkpt lat="44.92811" lon="3.29834">
        <ele>1011.7</ele>
      </trkpt>
      <trkpt lat="44.92803" lon="3.29873">
        <ele>1010.7</ele>
      </trkpt>
      <trkpt lat="44.92797" lon="3.29905">
        <ele>1010.4</ele>
      </trkpt>
      <trkpt lat="44.92793" lon="3.29938">
        <ele>1010.2</ele>
      </trkpt>
      <trkpt lat="44.9279" lon="3.29965">
        <ele>1010.2</ele>
      </trkpt>
      <trkpt lat="44.92789" lon="3.29974">
        <ele>1010.2</ele>
      </trkpt>
      <trkpt lat="44.92784" lon="3.29999">
        <ele>1010</ele>
      </trkpt>
      <trkpt lat="44.9278" lon="3.30024">
        <ele>1010.5</ele>
      </trkpt>
      <trkpt lat="44.92778" lon="3.30038">
        <ele>1010.6</ele>
      </trkpt>
      <trkpt lat="44.92775" lon="3.30073">
        <ele>1010.5</ele>
      </trkpt>
      <trkpt lat="44.92774" lon="3.30095">
        <ele>1011</ele>
      </trkpt>
      <trkpt lat="44.92774" lon="3.30114">
        <ele>1011.3</ele>
      </trkpt>
      <trkpt lat="44.92777" lon="3.30136">
        <ele>1011.5</ele>
      </trkpt>
      <trkpt lat="44.92783" lon="3.30162">
        <ele>1011.7</ele>
      </trkpt>
      <trkpt lat="44.92785" lon="3.30189">
        <ele>1011.7</ele>
      </trkpt>
      <trkpt lat="44.92785" lon="3.30217">
        <ele>1011.6</ele>
      </trkpt>
      <trkpt lat="44.92783" lon="3.30233">
        <ele>1011.3</ele>
      </trkpt>
      <trkpt lat="44.92777" lon="3.30252">
        <ele>1009.7</ele>
      </trkpt>
      <trkpt lat="44.9277" lon="3.30275">
        <ele>1009.3</ele>
      </trkpt>
      <trkpt lat="44.92769" lon="3.30288">
        <ele>1009.2</ele>
      </trkpt>
      <trkpt lat="44.92769" lon="3.30304">
        <ele>1008.7</ele>
      </trkpt>
      <trkpt lat="44.92774" lon="3.30325">
        <ele>1008.1</ele>
      </trkpt>
      <trkpt lat="44.9278" lon="3.30343">
        <ele>1007.8</ele>
      </trkpt>
      <trkpt lat="44.92782" lon="3.30348">
        <ele>1008</ele>
      </trkpt>
      <trkpt lat="44.92784" lon="3.30356">
        <ele>1008.4</ele>
      </trkpt>
      <trkpt lat="44.92787" lon="3.30371">
        <ele>1008.6</ele>
      </trkpt>
      <trkpt lat="44.92788" lon="3.30391">
        <ele>1008.5</ele>
      </trkpt>
      <trkpt lat="44.92786" lon="3.30404">
        <ele>1008.1</ele>
      </trkpt>
      <trkpt lat="44.92786" lon="3.30418">
        <ele>1006.9</ele>
      </trkpt>
      <trkpt lat="44.92788" lon="3.30431">
        <ele>1007.1</ele>
      </trkpt>
      <trkpt lat="44.92792" lon="3.30449">
        <ele>1007.5</ele>
      </trkpt>
      <trkpt lat="44.92798" lon="3.30463">
        <ele>1007.8</ele>
      </trkpt>
      <trkpt lat="44.92799" lon="3.30471">
        <ele>1007.8</ele>
      </trkpt>
      <trkpt lat="44.92797" lon="3.30484">
        <ele>1007.6</ele>
      </trkpt>
      <trkpt lat="44.92798" lon="3.30493">
        <ele>1007.7</ele>
      </trkpt>
      <trkpt lat="44.92801" lon="3.30502">
        <ele>1007.1</ele>
      </trkpt>
      <trkpt lat="44.92807" lon="3.30511">
        <ele>1007.7</ele>
      </trkpt>
      <trkpt lat="44.92811" lon="3.30517">
        <ele>1008</ele>
      </trkpt>
      <trkpt lat="44.92819" lon="3.30528">
        <ele>1008.1</ele>
      </trkpt>
      <trkpt lat="44.92831" lon="3.30542">
        <ele>1008.1</ele>
      </trkpt>
      <trkpt lat="44.92844" lon="3.30556">
        <ele>1014.8</ele>
      </trkpt>
      <trkpt lat="44.92852" lon="3.30562">
        <ele>1014.9</ele>
      </trkpt>
      <trkpt lat="44.9286" lon="3.30567">
        <ele>1015.2</ele>
      </trkpt>
      <trkpt lat="44.92867" lon="3.30577">
        <ele>1015.5</ele>
      </trkpt>
      <trkpt lat="44.92876" lon="3.30583">
        <ele>1013</ele>
      </trkpt>
      <trkpt lat="44.92882" lon="3.30599">
        <ele>1013.1</ele>
      </trkpt>
      <trkpt lat="44.92891" lon="3.30617">
        <ele>1012.8</ele>
      </trkpt>
      <trkpt lat="44.92907" lon="3.3064">
        <ele>1012</ele>
      </trkpt>
      <trkpt lat="44.92927" lon="3.30668">
        <ele>1010.9</ele>
      </trkpt>
      <trkpt lat="44.92947" lon="3.30696">
        <ele>1010.6</ele>
      </trkpt>
      <trkpt lat="44.92956" lon="3.30708">
        <ele>1010.4</ele>
      </trkpt>
      <trkpt lat="44.9296" lon="3.30714">
        <ele>1010.3</ele>
      </trkpt>
      <trkpt lat="44.92961" lon="3.3072">
        <ele>1010</ele>
      </trkpt>
      <trkpt lat="44.92963" lon="3.30725">
        <ele>1009.9</ele>
      </trkpt>
      <trkpt lat="44.92974" lon="3.30737">
        <ele>1009.9</ele>
      </trkpt>
      <trkpt lat="44.92983" lon="3.30747">
        <ele>1010</ele>
      </trkpt>
      <trkpt lat="44.92989" lon="3.30762">
        <ele>1006.3</ele>
      </trkpt>
      <trkpt lat="44.93001" lon="3.3079">
        <ele>1010.5</ele>
      </trkpt>
      <trkpt lat="44.93012" lon="3.30819">
        <ele>1008.4</ele>
      </trkpt>
      <trkpt lat="44.93016" lon="3.3083">
        <ele>1008.1</ele>
      </trkpt>
    </trkseg>
  </trk>
</gpx>